<?xml version="1.0" encoding="UTF-8" standalone="no" ?>
<gpx xmlns="http://www.topografix.com/GPX/1/1" xmlns:xsi="http://www.w3.org/2001/XMLSchema-instance" xsi:schemaLocation="http://www.topografix.com/GPX/1/1 http://www.topografix.com/GPX/1/1/gpx.xsd" version="1.1" creator="VisuGPX - https://www.visugpx.com">
  <metadata>
    <name>Course à pied le matin</name>
  </metadata>
  <trk>
    <name><![CDATA[Course à pied le matin_1]]></name>
    <trkseg>
      <trkpt lat="43.64741" lon="1.37636">
        <ele>150</ele>
        <time>2023-09-10T07:30:06Z</time>
      </trkpt>
      <trkpt lat="43.64742" lon="1.37635">
        <ele>150</ele>
        <time>2023-09-10T07:30:07Z</time>
      </trkpt>
      <trkpt lat="43.64746" lon="1.37631">
        <ele>150</ele>
        <time>2023-09-10T07:30:08Z</time>
      </trkpt>
      <trkpt lat="43.64748" lon="1.3763">
        <ele>149</ele>
        <time>2023-09-10T07:30:09Z</time>
      </trkpt>
      <trkpt lat="43.6475" lon="1.37628">
        <ele>150</ele>
        <time>2023-09-10T07:30:10Z</time>
      </trkpt>
      <trkpt lat="43.64752" lon="1.37626">
        <ele>150</ele>
        <time>2023-09-10T07:30:11Z</time>
      </trkpt>
      <trkpt lat="43.64754" lon="1.37624">
        <ele>150</ele>
        <time>2023-09-10T07:30:12Z</time>
      </trkpt>
      <trkpt lat="43.64754" lon="1.37624">
        <ele>150</ele>
        <time>2023-09-10T07:30:13Z</time>
      </trkpt>
      <trkpt lat="43.64757" lon="1.3762">
        <ele>150</ele>
        <time>2023-09-10T07:30:14Z</time>
      </trkpt>
      <trkpt lat="43.64759" lon="1.37617">
        <ele>150</ele>
        <time>2023-09-10T07:30:15Z</time>
      </trkpt>
      <trkpt lat="43.64761" lon="1.37615">
        <ele>150</ele>
        <time>2023-09-10T07:30:16Z</time>
      </trkpt>
      <trkpt lat="43.64763" lon="1.37613">
        <ele>150</ele>
        <time>2023-09-10T07:30:17Z</time>
      </trkpt>
      <trkpt lat="43.64766" lon="1.37612">
        <ele>150</ele>
        <time>2023-09-10T07:30:18Z</time>
      </trkpt>
      <trkpt lat="43.64768" lon="1.37611">
        <ele>150</ele>
        <time>2023-09-10T07:30:19Z</time>
      </trkpt>
      <trkpt lat="43.6477" lon="1.3761">
        <ele>150</ele>
        <time>2023-09-10T07:30:20Z</time>
      </trkpt>
      <trkpt lat="43.64773" lon="1.37609">
        <ele>150</ele>
        <time>2023-09-10T07:30:21Z</time>
      </trkpt>
      <trkpt lat="43.64775" lon="1.37607">
        <ele>150</ele>
        <time>2023-09-10T07:30:22Z</time>
      </trkpt>
      <trkpt lat="43.64777" lon="1.37605">
        <ele>150</ele>
        <time>2023-09-10T07:30:23Z</time>
      </trkpt>
      <trkpt lat="43.64782" lon="1.37603">
        <ele>150</ele>
        <time>2023-09-10T07:30:25Z</time>
      </trkpt>
      <trkpt lat="43.64784" lon="1.37602">
        <ele>150</ele>
        <time>2023-09-10T07:30:26Z</time>
      </trkpt>
      <trkpt lat="43.64788" lon="1.376">
        <ele>150</ele>
        <time>2023-09-10T07:30:28Z</time>
      </trkpt>
      <trkpt lat="43.6479" lon="1.37598">
        <ele>150</ele>
        <time>2023-09-10T07:30:29Z</time>
      </trkpt>
      <trkpt lat="43.64792" lon="1.37597">
        <ele>150</ele>
        <time>2023-09-10T07:30:30Z</time>
      </trkpt>
      <trkpt lat="43.64795" lon="1.37596">
        <ele>150</ele>
        <time>2023-09-10T07:30:31Z</time>
      </trkpt>
      <trkpt lat="43.64797" lon="1.37595">
        <ele>150</ele>
        <time>2023-09-10T07:30:32Z</time>
      </trkpt>
      <trkpt lat="43.64799" lon="1.37594">
        <ele>150</ele>
        <time>2023-09-10T07:30:33Z</time>
      </trkpt>
      <trkpt lat="43.64801" lon="1.37593">
        <ele>150</ele>
        <time>2023-09-10T07:30:34Z</time>
      </trkpt>
      <trkpt lat="43.64803" lon="1.37594">
        <ele>150</ele>
        <time>2023-09-10T07:30:35Z</time>
      </trkpt>
      <trkpt lat="43.64806" lon="1.37594">
        <ele>150</ele>
        <time>2023-09-10T07:30:36Z</time>
      </trkpt>
      <trkpt lat="43.64809" lon="1.37594">
        <ele>150</ele>
        <time>2023-09-10T07:30:37Z</time>
      </trkpt>
      <trkpt lat="43.64809" lon="1.37594">
        <ele>150</ele>
        <time>2023-09-10T07:30:38Z</time>
      </trkpt>
      <trkpt lat="43.64812" lon="1.37595">
        <ele>150</ele>
        <time>2023-09-10T07:30:39Z</time>
      </trkpt>
      <trkpt lat="43.64812" lon="1.37595">
        <ele>150</ele>
        <time>2023-09-10T07:30:40Z</time>
      </trkpt>
      <trkpt lat="43.64817" lon="1.37597">
        <ele>150</ele>
        <time>2023-09-10T07:30:41Z</time>
      </trkpt>
      <trkpt lat="43.64819" lon="1.37598">
        <ele>150</ele>
        <time>2023-09-10T07:30:42Z</time>
      </trkpt>
      <trkpt lat="43.64823" lon="1.376">
        <ele>150</ele>
        <time>2023-09-10T07:30:44Z</time>
      </trkpt>
      <trkpt lat="43.64823" lon="1.376">
        <ele>150</ele>
        <time>2023-09-10T07:30:45Z</time>
      </trkpt>
      <trkpt lat="43.64827" lon="1.37604">
        <ele>150</ele>
        <time>2023-09-10T07:30:46Z</time>
      </trkpt>
      <trkpt lat="43.6483" lon="1.37605">
        <ele>150</ele>
        <time>2023-09-10T07:30:47Z</time>
      </trkpt>
      <trkpt lat="43.64832" lon="1.37607">
        <ele>150</ele>
        <time>2023-09-10T07:30:48Z</time>
      </trkpt>
      <trkpt lat="43.64835" lon="1.3761">
        <ele>150</ele>
        <time>2023-09-10T07:30:50Z</time>
      </trkpt>
      <trkpt lat="43.64837" lon="1.37611">
        <ele>150</ele>
        <time>2023-09-10T07:30:51Z</time>
      </trkpt>
      <trkpt lat="43.64839" lon="1.37614">
        <ele>150</ele>
        <time>2023-09-10T07:30:52Z</time>
      </trkpt>
      <trkpt lat="43.64842" lon="1.37615">
        <ele>150</ele>
        <time>2023-09-10T07:30:53Z</time>
      </trkpt>
      <trkpt lat="43.64844" lon="1.37617">
        <ele>150</ele>
        <time>2023-09-10T07:30:54Z</time>
      </trkpt>
      <trkpt lat="43.64846" lon="1.3762">
        <ele>150</ele>
        <time>2023-09-10T07:30:55Z</time>
      </trkpt>
      <trkpt lat="43.64849" lon="1.37622">
        <ele>150</ele>
        <time>2023-09-10T07:30:56Z</time>
      </trkpt>
      <trkpt lat="43.64851" lon="1.37625">
        <ele>150</ele>
        <time>2023-09-10T07:30:57Z</time>
      </trkpt>
      <trkpt lat="43.64854" lon="1.37627">
        <ele>150</ele>
        <time>2023-09-10T07:30:58Z</time>
      </trkpt>
      <trkpt lat="43.64856" lon="1.3763">
        <ele>150</ele>
        <time>2023-09-10T07:30:59Z</time>
      </trkpt>
      <trkpt lat="43.64858" lon="1.37633">
        <ele>150</ele>
        <time>2023-09-10T07:31:00Z</time>
      </trkpt>
      <trkpt lat="43.6486" lon="1.37635">
        <ele>150</ele>
        <time>2023-09-10T07:31:01Z</time>
      </trkpt>
      <trkpt lat="43.64864" lon="1.3764">
        <ele>150</ele>
        <time>2023-09-10T07:31:03Z</time>
      </trkpt>
      <trkpt lat="43.64865" lon="1.37644">
        <ele>150</ele>
        <time>2023-09-10T07:31:04Z</time>
      </trkpt>
      <trkpt lat="43.64865" lon="1.37644">
        <ele>151</ele>
        <time>2023-09-10T07:31:05Z</time>
      </trkpt>
      <trkpt lat="43.64865" lon="1.37651">
        <ele>151</ele>
        <time>2023-09-10T07:31:06Z</time>
      </trkpt>
      <trkpt lat="43.6486" lon="1.37658">
        <ele>150</ele>
        <time>2023-09-10T07:31:08Z</time>
      </trkpt>
      <trkpt lat="43.64858" lon="1.37661">
        <ele>150</ele>
        <time>2023-09-10T07:31:09Z</time>
      </trkpt>
      <trkpt lat="43.64856" lon="1.37665">
        <ele>149</ele>
        <time>2023-09-10T07:31:10Z</time>
      </trkpt>
      <trkpt lat="43.64854" lon="1.37668">
        <ele>149</ele>
        <time>2023-09-10T07:31:11Z</time>
      </trkpt>
      <trkpt lat="43.64852" lon="1.37671">
        <ele>149</ele>
        <time>2023-09-10T07:31:12Z</time>
      </trkpt>
      <trkpt lat="43.6485" lon="1.37674">
        <ele>149</ele>
        <time>2023-09-10T07:31:13Z</time>
      </trkpt>
      <trkpt lat="43.64849" lon="1.37676">
        <ele>149</ele>
        <time>2023-09-10T07:31:14Z</time>
      </trkpt>
      <trkpt lat="43.64848" lon="1.37679">
        <ele>149</ele>
        <time>2023-09-10T07:31:15Z</time>
      </trkpt>
      <trkpt lat="43.64847" lon="1.37682">
        <ele>149</ele>
        <time>2023-09-10T07:31:16Z</time>
      </trkpt>
      <trkpt lat="43.64845" lon="1.37685">
        <ele>150</ele>
        <time>2023-09-10T07:31:17Z</time>
      </trkpt>
      <trkpt lat="43.64844" lon="1.37688">
        <ele>150</ele>
        <time>2023-09-10T07:31:18Z</time>
      </trkpt>
      <trkpt lat="43.64842" lon="1.37691">
        <ele>149</ele>
        <time>2023-09-10T07:31:19Z</time>
      </trkpt>
      <trkpt lat="43.64842" lon="1.37691">
        <ele>149</ele>
        <time>2023-09-10T07:31:20Z</time>
      </trkpt>
      <trkpt lat="43.64838" lon="1.37697">
        <ele>149</ele>
        <time>2023-09-10T07:31:21Z</time>
      </trkpt>
      <trkpt lat="43.64837" lon="1.377">
        <ele>149</ele>
        <time>2023-09-10T07:31:22Z</time>
      </trkpt>
      <trkpt lat="43.64835" lon="1.37702">
        <ele>149</ele>
        <time>2023-09-10T07:31:23Z</time>
      </trkpt>
      <trkpt lat="43.64834" lon="1.37705">
        <ele>149</ele>
        <time>2023-09-10T07:31:24Z</time>
      </trkpt>
      <trkpt lat="43.64832" lon="1.37707">
        <ele>149</ele>
        <time>2023-09-10T07:31:25Z</time>
      </trkpt>
      <trkpt lat="43.6483" lon="1.37713">
        <ele>148</ele>
        <time>2023-09-10T07:31:27Z</time>
      </trkpt>
      <trkpt lat="43.64829" lon="1.37715">
        <ele>148</ele>
        <time>2023-09-10T07:31:28Z</time>
      </trkpt>
      <trkpt lat="43.64827" lon="1.37718">
        <ele>149</ele>
        <time>2023-09-10T07:31:29Z</time>
      </trkpt>
      <trkpt lat="43.64825" lon="1.37721">
        <ele>149</ele>
        <time>2023-09-10T07:31:30Z</time>
      </trkpt>
      <trkpt lat="43.64823" lon="1.37724">
        <ele>149</ele>
        <time>2023-09-10T07:31:31Z</time>
      </trkpt>
      <trkpt lat="43.64823" lon="1.37724">
        <ele>149</ele>
        <time>2023-09-10T07:31:32Z</time>
      </trkpt>
      <trkpt lat="43.6482" lon="1.37729">
        <ele>148</ele>
        <time>2023-09-10T07:31:33Z</time>
      </trkpt>
      <trkpt lat="43.64818" lon="1.37732">
        <ele>148</ele>
        <time>2023-09-10T07:31:34Z</time>
      </trkpt>
      <trkpt lat="43.64816" lon="1.37734">
        <ele>148</ele>
        <time>2023-09-10T07:31:35Z</time>
      </trkpt>
      <trkpt lat="43.64815" lon="1.37738">
        <ele>148</ele>
        <time>2023-09-10T07:31:36Z</time>
      </trkpt>
      <trkpt lat="43.64814" lon="1.3774">
        <ele>148</ele>
        <time>2023-09-10T07:31:37Z</time>
      </trkpt>
      <trkpt lat="43.64812" lon="1.37743">
        <ele>148</ele>
        <time>2023-09-10T07:31:38Z</time>
      </trkpt>
      <trkpt lat="43.64812" lon="1.37743">
        <ele>148</ele>
        <time>2023-09-10T07:31:39Z</time>
      </trkpt>
      <trkpt lat="43.64809" lon="1.37749">
        <ele>148</ele>
        <time>2023-09-10T07:31:40Z</time>
      </trkpt>
      <trkpt lat="43.64808" lon="1.37752">
        <ele>148</ele>
        <time>2023-09-10T07:31:41Z</time>
      </trkpt>
      <trkpt lat="43.64807" lon="1.37754">
        <ele>148</ele>
        <time>2023-09-10T07:31:42Z</time>
      </trkpt>
      <trkpt lat="43.64807" lon="1.37754">
        <ele>148</ele>
        <time>2023-09-10T07:31:43Z</time>
      </trkpt>
      <trkpt lat="43.64804" lon="1.3776">
        <ele>148</ele>
        <time>2023-09-10T07:31:44Z</time>
      </trkpt>
      <trkpt lat="43.64802" lon="1.37763">
        <ele>148</ele>
        <time>2023-09-10T07:31:46Z</time>
      </trkpt>
      <trkpt lat="43.648" lon="1.3777">
        <ele>148</ele>
        <time>2023-09-10T07:31:47Z</time>
      </trkpt>
      <trkpt lat="43.64799" lon="1.37773">
        <ele>148</ele>
        <time>2023-09-10T07:31:48Z</time>
      </trkpt>
      <trkpt lat="43.64797" lon="1.37776">
        <ele>148</ele>
        <time>2023-09-10T07:31:49Z</time>
      </trkpt>
      <trkpt lat="43.64796" lon="1.37779">
        <ele>148</ele>
        <time>2023-09-10T07:31:50Z</time>
      </trkpt>
      <trkpt lat="43.64795" lon="1.37781">
        <ele>149</ele>
        <time>2023-09-10T07:31:51Z</time>
      </trkpt>
      <trkpt lat="43.64794" lon="1.37784">
        <ele>149</ele>
        <time>2023-09-10T07:31:52Z</time>
      </trkpt>
      <trkpt lat="43.64793" lon="1.37788">
        <ele>148</ele>
        <time>2023-09-10T07:31:53Z</time>
      </trkpt>
      <trkpt lat="43.64791" lon="1.3779">
        <ele>148</ele>
        <time>2023-09-10T07:31:54Z</time>
      </trkpt>
      <trkpt lat="43.6479" lon="1.37793">
        <ele>148</ele>
        <time>2023-09-10T07:31:55Z</time>
      </trkpt>
      <trkpt lat="43.64789" lon="1.37796">
        <ele>148</ele>
        <time>2023-09-10T07:31:56Z</time>
      </trkpt>
      <trkpt lat="43.64788" lon="1.37799">
        <ele>148</ele>
        <time>2023-09-10T07:31:57Z</time>
      </trkpt>
      <trkpt lat="43.64788" lon="1.37799">
        <ele>148</ele>
        <time>2023-09-10T07:31:58Z</time>
      </trkpt>
      <trkpt lat="43.64786" lon="1.37804">
        <ele>148</ele>
        <time>2023-09-10T07:31:59Z</time>
      </trkpt>
      <trkpt lat="43.64785" lon="1.37805">
        <ele>148</ele>
        <time>2023-09-10T07:32:00Z</time>
      </trkpt>
      <trkpt lat="43.64782" lon="1.37811">
        <ele>148</ele>
        <time>2023-09-10T07:32:01Z</time>
      </trkpt>
      <trkpt lat="43.64782" lon="1.37811">
        <ele>148</ele>
        <time>2023-09-10T07:32:02Z</time>
      </trkpt>
      <trkpt lat="43.64778" lon="1.37816">
        <ele>148</ele>
        <time>2023-09-10T07:32:03Z</time>
      </trkpt>
      <trkpt lat="43.64776" lon="1.37818">
        <ele>148</ele>
        <time>2023-09-10T07:32:04Z</time>
      </trkpt>
      <trkpt lat="43.64771" lon="1.37822">
        <ele>148</ele>
        <time>2023-09-10T07:32:06Z</time>
      </trkpt>
      <trkpt lat="43.64769" lon="1.37823">
        <ele>148</ele>
        <time>2023-09-10T07:32:07Z</time>
      </trkpt>
      <trkpt lat="43.64766" lon="1.37825">
        <ele>148</ele>
        <time>2023-09-10T07:32:08Z</time>
      </trkpt>
      <trkpt lat="43.64764" lon="1.37827">
        <ele>149</ele>
        <time>2023-09-10T07:32:09Z</time>
      </trkpt>
      <trkpt lat="43.64764" lon="1.37827">
        <ele>149</ele>
        <time>2023-09-10T07:32:10Z</time>
      </trkpt>
      <trkpt lat="43.6476" lon="1.37831">
        <ele>149</ele>
        <time>2023-09-10T07:32:11Z</time>
      </trkpt>
      <trkpt lat="43.64758" lon="1.37833">
        <ele>149</ele>
        <time>2023-09-10T07:32:12Z</time>
      </trkpt>
      <trkpt lat="43.64757" lon="1.37835">
        <ele>149</ele>
        <time>2023-09-10T07:32:13Z</time>
      </trkpt>
      <trkpt lat="43.64757" lon="1.37835">
        <ele>150</ele>
        <time>2023-09-10T07:32:14Z</time>
      </trkpt>
      <trkpt lat="43.64755" lon="1.3784">
        <ele>150</ele>
        <time>2023-09-10T07:32:15Z</time>
      </trkpt>
      <trkpt lat="43.64755" lon="1.37843">
        <ele>150</ele>
        <time>2023-09-10T07:32:16Z</time>
      </trkpt>
      <trkpt lat="43.64755" lon="1.37843">
        <ele>150</ele>
        <time>2023-09-10T07:32:17Z</time>
      </trkpt>
      <trkpt lat="43.64756" lon="1.37848">
        <ele>150</ele>
        <time>2023-09-10T07:32:18Z</time>
      </trkpt>
      <trkpt lat="43.64757" lon="1.3785">
        <ele>150</ele>
        <time>2023-09-10T07:32:19Z</time>
      </trkpt>
      <trkpt lat="43.64758" lon="1.37857">
        <ele>149</ele>
        <time>2023-09-10T07:32:20Z</time>
      </trkpt>
      <trkpt lat="43.64758" lon="1.37857">
        <ele>149</ele>
        <time>2023-09-10T07:32:21Z</time>
      </trkpt>
      <trkpt lat="43.64757" lon="1.37865">
        <ele>149</ele>
        <time>2023-09-10T07:32:22Z</time>
      </trkpt>
      <trkpt lat="43.64755" lon="1.37867">
        <ele>149</ele>
        <time>2023-09-10T07:32:23Z</time>
      </trkpt>
      <trkpt lat="43.64753" lon="1.37869">
        <ele>148</ele>
        <time>2023-09-10T07:32:24Z</time>
      </trkpt>
      <trkpt lat="43.64747" lon="1.37871">
        <ele>148</ele>
        <time>2023-09-10T07:32:26Z</time>
      </trkpt>
      <trkpt lat="43.64744" lon="1.37872">
        <ele>148</ele>
        <time>2023-09-10T07:32:27Z</time>
      </trkpt>
      <trkpt lat="43.64741" lon="1.37872">
        <ele>148</ele>
        <time>2023-09-10T07:32:28Z</time>
      </trkpt>
      <trkpt lat="43.64738" lon="1.37872">
        <ele>148</ele>
        <time>2023-09-10T07:32:29Z</time>
      </trkpt>
      <trkpt lat="43.64736" lon="1.37873">
        <ele>148</ele>
        <time>2023-09-10T07:32:30Z</time>
      </trkpt>
      <trkpt lat="43.64736" lon="1.37873">
        <ele>148</ele>
        <time>2023-09-10T07:32:31Z</time>
      </trkpt>
      <trkpt lat="43.6473" lon="1.37874">
        <ele>148</ele>
        <time>2023-09-10T07:32:32Z</time>
      </trkpt>
      <trkpt lat="43.64727" lon="1.37875">
        <ele>148</ele>
        <time>2023-09-10T07:32:33Z</time>
      </trkpt>
      <trkpt lat="43.64725" lon="1.37875">
        <ele>148</ele>
        <time>2023-09-10T07:32:34Z</time>
      </trkpt>
      <trkpt lat="43.64722" lon="1.37876">
        <ele>148</ele>
        <time>2023-09-10T07:32:35Z</time>
      </trkpt>
      <trkpt lat="43.64719" lon="1.37877">
        <ele>148</ele>
        <time>2023-09-10T07:32:36Z</time>
      </trkpt>
      <trkpt lat="43.64714" lon="1.37878">
        <ele>148</ele>
        <time>2023-09-10T07:32:38Z</time>
      </trkpt>
      <trkpt lat="43.64711" lon="1.37879">
        <ele>148</ele>
        <time>2023-09-10T07:32:39Z</time>
      </trkpt>
      <trkpt lat="43.64711" lon="1.37879">
        <ele>148</ele>
        <time>2023-09-10T07:32:40Z</time>
      </trkpt>
      <trkpt lat="43.64706" lon="1.3788">
        <ele>148</ele>
        <time>2023-09-10T07:32:41Z</time>
      </trkpt>
      <trkpt lat="43.64703" lon="1.3788">
        <ele>148</ele>
        <time>2023-09-10T07:32:42Z</time>
      </trkpt>
      <trkpt lat="43.64698" lon="1.37881">
        <ele>148</ele>
        <time>2023-09-10T07:32:44Z</time>
      </trkpt>
      <trkpt lat="43.64698" lon="1.37881">
        <ele>148</ele>
        <time>2023-09-10T07:32:45Z</time>
      </trkpt>
      <trkpt lat="43.64693" lon="1.37881">
        <ele>148</ele>
        <time>2023-09-10T07:32:46Z</time>
      </trkpt>
      <trkpt lat="43.6469" lon="1.3788">
        <ele>148</ele>
        <time>2023-09-10T07:32:47Z</time>
      </trkpt>
      <trkpt lat="43.64688" lon="1.3788">
        <ele>148</ele>
        <time>2023-09-10T07:32:48Z</time>
      </trkpt>
      <trkpt lat="43.64686" lon="1.3788">
        <ele>148</ele>
        <time>2023-09-10T07:32:49Z</time>
      </trkpt>
      <trkpt lat="43.64683" lon="1.3788">
        <ele>148</ele>
        <time>2023-09-10T07:32:50Z</time>
      </trkpt>
      <trkpt lat="43.64681" lon="1.37879">
        <ele>148</ele>
        <time>2023-09-10T07:32:51Z</time>
      </trkpt>
      <trkpt lat="43.64681" lon="1.37879">
        <ele>148</ele>
        <time>2023-09-10T07:32:52Z</time>
      </trkpt>
      <trkpt lat="43.64675" lon="1.3788">
        <ele>148</ele>
        <time>2023-09-10T07:32:53Z</time>
      </trkpt>
      <trkpt lat="43.64673" lon="1.3788">
        <ele>148</ele>
        <time>2023-09-10T07:32:54Z</time>
      </trkpt>
      <trkpt lat="43.6467" lon="1.3788">
        <ele>148</ele>
        <time>2023-09-10T07:32:55Z</time>
      </trkpt>
      <trkpt lat="43.64665" lon="1.3788">
        <ele>148</ele>
        <time>2023-09-10T07:32:57Z</time>
      </trkpt>
      <trkpt lat="43.64662" lon="1.37879">
        <ele>148</ele>
        <time>2023-09-10T07:32:58Z</time>
      </trkpt>
      <trkpt lat="43.6466" lon="1.37879">
        <ele>148</ele>
        <time>2023-09-10T07:32:59Z</time>
      </trkpt>
      <trkpt lat="43.64658" lon="1.37879">
        <ele>148</ele>
        <time>2023-09-10T07:33:00Z</time>
      </trkpt>
      <trkpt lat="43.64655" lon="1.37878">
        <ele>148</ele>
        <time>2023-09-10T07:33:01Z</time>
      </trkpt>
      <trkpt lat="43.6465" lon="1.37878">
        <ele>148</ele>
        <time>2023-09-10T07:33:03Z</time>
      </trkpt>
      <trkpt lat="43.64648" lon="1.37878">
        <ele>148</ele>
        <time>2023-09-10T07:33:04Z</time>
      </trkpt>
      <trkpt lat="43.64645" lon="1.37878">
        <ele>148</ele>
        <time>2023-09-10T07:33:05Z</time>
      </trkpt>
      <trkpt lat="43.64643" lon="1.37877">
        <ele>148</ele>
        <time>2023-09-10T07:33:06Z</time>
      </trkpt>
      <trkpt lat="43.6464" lon="1.37877">
        <ele>148</ele>
        <time>2023-09-10T07:33:07Z</time>
      </trkpt>
      <trkpt lat="43.64637" lon="1.37877">
        <ele>148</ele>
        <time>2023-09-10T07:33:08Z</time>
      </trkpt>
      <trkpt lat="43.64637" lon="1.37877">
        <ele>148</ele>
        <time>2023-09-10T07:33:09Z</time>
      </trkpt>
      <trkpt lat="43.64632" lon="1.37876">
        <ele>148</ele>
        <time>2023-09-10T07:33:10Z</time>
      </trkpt>
      <trkpt lat="43.6463" lon="1.37875">
        <ele>149</ele>
        <time>2023-09-10T07:33:11Z</time>
      </trkpt>
      <trkpt lat="43.64628" lon="1.37875">
        <ele>149</ele>
        <time>2023-09-10T07:33:12Z</time>
      </trkpt>
      <trkpt lat="43.64628" lon="1.37875">
        <ele>148</ele>
        <time>2023-09-10T07:33:13Z</time>
      </trkpt>
      <trkpt lat="43.64622" lon="1.37875">
        <ele>148</ele>
        <time>2023-09-10T07:33:14Z</time>
      </trkpt>
      <trkpt lat="43.6462" lon="1.37875">
        <ele>148</ele>
        <time>2023-09-10T07:33:16Z</time>
      </trkpt>
      <trkpt lat="43.64615" lon="1.37875">
        <ele>148</ele>
        <time>2023-09-10T07:33:17Z</time>
      </trkpt>
      <trkpt lat="43.64612" lon="1.37875">
        <ele>148</ele>
        <time>2023-09-10T07:33:18Z</time>
      </trkpt>
      <trkpt lat="43.6461" lon="1.37875">
        <ele>149</ele>
        <time>2023-09-10T07:33:19Z</time>
      </trkpt>
      <trkpt lat="43.6461" lon="1.37875">
        <ele>149</ele>
        <time>2023-09-10T07:33:20Z</time>
      </trkpt>
      <trkpt lat="43.64608" lon="1.37875">
        <ele>149</ele>
        <time>2023-09-10T07:33:21Z</time>
      </trkpt>
      <trkpt lat="43.64606" lon="1.37875">
        <ele>149</ele>
        <time>2023-09-10T07:33:22Z</time>
      </trkpt>
      <trkpt lat="43.64604" lon="1.37874">
        <ele>150</ele>
        <time>2023-09-10T07:33:23Z</time>
      </trkpt>
      <trkpt lat="43.64603" lon="1.37874">
        <ele>150</ele>
        <time>2023-09-10T07:33:24Z</time>
      </trkpt>
      <trkpt lat="43.64601" lon="1.37874">
        <ele>150</ele>
        <time>2023-09-10T07:33:25Z</time>
      </trkpt>
      <trkpt lat="43.64598" lon="1.37878">
        <ele>150</ele>
        <time>2023-09-10T07:33:26Z</time>
      </trkpt>
      <trkpt lat="43.64596" lon="1.37882">
        <ele>150</ele>
        <time>2023-09-10T07:33:27Z</time>
      </trkpt>
      <trkpt lat="43.64594" lon="1.37886">
        <ele>150</ele>
        <time>2023-09-10T07:33:28Z</time>
      </trkpt>
      <trkpt lat="43.64592" lon="1.37888">
        <ele>150</ele>
        <time>2023-09-10T07:33:29Z</time>
      </trkpt>
      <trkpt lat="43.64592" lon="1.37888">
        <ele>149</ele>
        <time>2023-09-10T07:33:30Z</time>
      </trkpt>
      <trkpt lat="43.64588" lon="1.37893">
        <ele>149</ele>
        <time>2023-09-10T07:33:31Z</time>
      </trkpt>
      <trkpt lat="43.64585" lon="1.37894">
        <ele>149</ele>
        <time>2023-09-10T07:33:32Z</time>
      </trkpt>
      <trkpt lat="43.64583" lon="1.37896">
        <ele>149</ele>
        <time>2023-09-10T07:33:33Z</time>
      </trkpt>
      <trkpt lat="43.64577" lon="1.37899">
        <ele>149</ele>
        <time>2023-09-10T07:33:35Z</time>
      </trkpt>
      <trkpt lat="43.64574" lon="1.379">
        <ele>149</ele>
        <time>2023-09-10T07:33:36Z</time>
      </trkpt>
      <trkpt lat="43.64572" lon="1.37901">
        <ele>149</ele>
        <time>2023-09-10T07:33:37Z</time>
      </trkpt>
      <trkpt lat="43.64569" lon="1.37902">
        <ele>149</ele>
        <time>2023-09-10T07:33:38Z</time>
      </trkpt>
      <trkpt lat="43.64569" lon="1.37902">
        <ele>149</ele>
        <time>2023-09-10T07:33:39Z</time>
      </trkpt>
      <trkpt lat="43.64564" lon="1.37904">
        <ele>149</ele>
        <time>2023-09-10T07:33:40Z</time>
      </trkpt>
      <trkpt lat="43.64561" lon="1.37905">
        <ele>149</ele>
        <time>2023-09-10T07:33:41Z</time>
      </trkpt>
      <trkpt lat="43.64556" lon="1.37906">
        <ele>149</ele>
        <time>2023-09-10T07:33:43Z</time>
      </trkpt>
      <trkpt lat="43.64553" lon="1.37906">
        <ele>150</ele>
        <time>2023-09-10T07:33:44Z</time>
      </trkpt>
      <trkpt lat="43.6455" lon="1.37905">
        <ele>150</ele>
        <time>2023-09-10T07:33:45Z</time>
      </trkpt>
      <trkpt lat="43.64548" lon="1.37905">
        <ele>149</ele>
        <time>2023-09-10T07:33:46Z</time>
      </trkpt>
      <trkpt lat="43.64546" lon="1.37904">
        <ele>148</ele>
        <time>2023-09-10T07:33:47Z</time>
      </trkpt>
      <trkpt lat="43.64544" lon="1.37901">
        <ele>148</ele>
        <time>2023-09-10T07:33:48Z</time>
      </trkpt>
      <trkpt lat="43.64542" lon="1.379">
        <ele>148</ele>
        <time>2023-09-10T07:33:49Z</time>
      </trkpt>
      <trkpt lat="43.64539" lon="1.37899">
        <ele>148</ele>
        <time>2023-09-10T07:33:50Z</time>
      </trkpt>
      <trkpt lat="43.64539" lon="1.37899">
        <ele>148</ele>
        <time>2023-09-10T07:33:51Z</time>
      </trkpt>
      <trkpt lat="43.64534" lon="1.37896">
        <ele>147</ele>
        <time>2023-09-10T07:33:52Z</time>
      </trkpt>
      <trkpt lat="43.64529" lon="1.37893">
        <ele>147</ele>
        <time>2023-09-10T07:33:54Z</time>
      </trkpt>
      <trkpt lat="43.64527" lon="1.37891">
        <ele>148</ele>
        <time>2023-09-10T07:33:55Z</time>
      </trkpt>
      <trkpt lat="43.64527" lon="1.37891">
        <ele>148</ele>
        <time>2023-09-10T07:33:56Z</time>
      </trkpt>
      <trkpt lat="43.64522" lon="1.37888">
        <ele>148</ele>
        <time>2023-09-10T07:33:57Z</time>
      </trkpt>
      <trkpt lat="43.64519" lon="1.37886">
        <ele>148</ele>
        <time>2023-09-10T07:33:58Z</time>
      </trkpt>
      <trkpt lat="43.64517" lon="1.37885">
        <ele>148</ele>
        <time>2023-09-10T07:33:59Z</time>
      </trkpt>
      <trkpt lat="43.64513" lon="1.37881">
        <ele>148</ele>
        <time>2023-09-10T07:34:01Z</time>
      </trkpt>
      <trkpt lat="43.6451" lon="1.3788">
        <ele>148</ele>
        <time>2023-09-10T07:34:02Z</time>
      </trkpt>
      <trkpt lat="43.64508" lon="1.37878">
        <ele>148</ele>
        <time>2023-09-10T07:34:03Z</time>
      </trkpt>
      <trkpt lat="43.64508" lon="1.37878">
        <ele>148</ele>
        <time>2023-09-10T07:34:04Z</time>
      </trkpt>
      <trkpt lat="43.64503" lon="1.37874">
        <ele>148</ele>
        <time>2023-09-10T07:34:05Z</time>
      </trkpt>
      <trkpt lat="43.64501" lon="1.37873">
        <ele>148</ele>
        <time>2023-09-10T07:34:06Z</time>
      </trkpt>
      <trkpt lat="43.64498" lon="1.37872">
        <ele>149</ele>
        <time>2023-09-10T07:34:07Z</time>
      </trkpt>
      <trkpt lat="43.64496" lon="1.3787">
        <ele>149</ele>
        <time>2023-09-10T07:34:08Z</time>
      </trkpt>
      <trkpt lat="43.64493" lon="1.37869">
        <ele>149</ele>
        <time>2023-09-10T07:34:09Z</time>
      </trkpt>
      <trkpt lat="43.6449" lon="1.37868">
        <ele>149</ele>
        <time>2023-09-10T07:34:10Z</time>
      </trkpt>
      <trkpt lat="43.6449" lon="1.37868">
        <ele>149</ele>
        <time>2023-09-10T07:34:11Z</time>
      </trkpt>
      <trkpt lat="43.64486" lon="1.37866">
        <ele>149</ele>
        <time>2023-09-10T07:34:12Z</time>
      </trkpt>
      <trkpt lat="43.64483" lon="1.37865">
        <ele>149</ele>
        <time>2023-09-10T07:34:13Z</time>
      </trkpt>
      <trkpt lat="43.64481" lon="1.37864">
        <ele>149</ele>
        <time>2023-09-10T07:34:14Z</time>
      </trkpt>
      <trkpt lat="43.64479" lon="1.37864">
        <ele>148</ele>
        <time>2023-09-10T07:34:15Z</time>
      </trkpt>
      <trkpt lat="43.64476" lon="1.37865">
        <ele>148</ele>
        <time>2023-09-10T07:34:16Z</time>
      </trkpt>
      <trkpt lat="43.64474" lon="1.37867">
        <ele>149</ele>
        <time>2023-09-10T07:34:17Z</time>
      </trkpt>
      <trkpt lat="43.64472" lon="1.37868">
        <ele>149</ele>
        <time>2023-09-10T07:34:18Z</time>
      </trkpt>
      <trkpt lat="43.64469" lon="1.3787">
        <ele>149</ele>
        <time>2023-09-10T07:34:19Z</time>
      </trkpt>
      <trkpt lat="43.64465" lon="1.37875">
        <ele>149</ele>
        <time>2023-09-10T07:34:21Z</time>
      </trkpt>
      <trkpt lat="43.64464" lon="1.37878">
        <ele>149</ele>
        <time>2023-09-10T07:34:22Z</time>
      </trkpt>
      <trkpt lat="43.64462" lon="1.37882">
        <ele>149</ele>
        <time>2023-09-10T07:34:23Z</time>
      </trkpt>
      <trkpt lat="43.64461" lon="1.37885">
        <ele>149</ele>
        <time>2023-09-10T07:34:24Z</time>
      </trkpt>
      <trkpt lat="43.64459" lon="1.37889">
        <ele>149</ele>
        <time>2023-09-10T07:34:25Z</time>
      </trkpt>
      <trkpt lat="43.64458" lon="1.37893">
        <ele>149</ele>
        <time>2023-09-10T07:34:26Z</time>
      </trkpt>
      <trkpt lat="43.64457" lon="1.37897">
        <ele>149</ele>
        <time>2023-09-10T07:34:27Z</time>
      </trkpt>
      <trkpt lat="43.64456" lon="1.37901">
        <ele>149</ele>
        <time>2023-09-10T07:34:28Z</time>
      </trkpt>
      <trkpt lat="43.64456" lon="1.37905">
        <ele>149</ele>
        <time>2023-09-10T07:34:29Z</time>
      </trkpt>
      <trkpt lat="43.64456" lon="1.37909">
        <ele>149</ele>
        <time>2023-09-10T07:34:30Z</time>
      </trkpt>
      <trkpt lat="43.64456" lon="1.37917">
        <ele>149</ele>
        <time>2023-09-10T07:34:32Z</time>
      </trkpt>
      <trkpt lat="43.64456" lon="1.37921">
        <ele>149</ele>
        <time>2023-09-10T07:34:33Z</time>
      </trkpt>
      <trkpt lat="43.64457" lon="1.37925">
        <ele>149</ele>
        <time>2023-09-10T07:34:34Z</time>
      </trkpt>
      <trkpt lat="43.64457" lon="1.37928">
        <ele>149</ele>
        <time>2023-09-10T07:34:35Z</time>
      </trkpt>
      <trkpt lat="43.64458" lon="1.37932">
        <ele>149</ele>
        <time>2023-09-10T07:34:36Z</time>
      </trkpt>
      <trkpt lat="43.64461" lon="1.37939">
        <ele>149</ele>
        <time>2023-09-10T07:34:38Z</time>
      </trkpt>
      <trkpt lat="43.64463" lon="1.37942">
        <ele>149</ele>
        <time>2023-09-10T07:34:39Z</time>
      </trkpt>
      <trkpt lat="43.64465" lon="1.37945">
        <ele>149</ele>
        <time>2023-09-10T07:34:40Z</time>
      </trkpt>
      <trkpt lat="43.64467" lon="1.37947">
        <ele>149</ele>
        <time>2023-09-10T07:34:41Z</time>
      </trkpt>
      <trkpt lat="43.64469" lon="1.37949">
        <ele>149</ele>
        <time>2023-09-10T07:34:42Z</time>
      </trkpt>
      <trkpt lat="43.64472" lon="1.37951">
        <ele>149</ele>
        <time>2023-09-10T07:34:43Z</time>
      </trkpt>
      <trkpt lat="43.64474" lon="1.37952">
        <ele>149</ele>
        <time>2023-09-10T07:34:44Z</time>
      </trkpt>
      <trkpt lat="43.64477" lon="1.37954">
        <ele>149</ele>
        <time>2023-09-10T07:34:45Z</time>
      </trkpt>
      <trkpt lat="43.64477" lon="1.37954">
        <ele>149</ele>
        <time>2023-09-10T07:34:46Z</time>
      </trkpt>
      <trkpt lat="43.64482" lon="1.37957">
        <ele>149</ele>
        <time>2023-09-10T07:34:47Z</time>
      </trkpt>
      <trkpt lat="43.64485" lon="1.37959">
        <ele>149</ele>
        <time>2023-09-10T07:34:48Z</time>
      </trkpt>
      <trkpt lat="43.64487" lon="1.3796">
        <ele>149</ele>
        <time>2023-09-10T07:34:49Z</time>
      </trkpt>
      <trkpt lat="43.64492" lon="1.37962">
        <ele>149</ele>
        <time>2023-09-10T07:34:51Z</time>
      </trkpt>
      <trkpt lat="43.64495" lon="1.37963">
        <ele>149</ele>
        <time>2023-09-10T07:34:52Z</time>
      </trkpt>
      <trkpt lat="43.64495" lon="1.37963">
        <ele>149</ele>
        <time>2023-09-10T07:34:53Z</time>
      </trkpt>
      <trkpt lat="43.64499" lon="1.37966">
        <ele>149</ele>
        <time>2023-09-10T07:34:54Z</time>
      </trkpt>
      <trkpt lat="43.64504" lon="1.37969">
        <ele>149</ele>
        <time>2023-09-10T07:34:56Z</time>
      </trkpt>
      <trkpt lat="43.64507" lon="1.3797">
        <ele>149</ele>
        <time>2023-09-10T07:34:57Z</time>
      </trkpt>
      <trkpt lat="43.64507" lon="1.3797">
        <ele>149</ele>
        <time>2023-09-10T07:34:58Z</time>
      </trkpt>
      <trkpt lat="43.64511" lon="1.37973">
        <ele>149</ele>
        <time>2023-09-10T07:34:59Z</time>
      </trkpt>
      <trkpt lat="43.64511" lon="1.37973">
        <ele>149</ele>
        <time>2023-09-10T07:35:00Z</time>
      </trkpt>
      <trkpt lat="43.64516" lon="1.37977">
        <ele>149</ele>
        <time>2023-09-10T07:35:01Z</time>
      </trkpt>
      <trkpt lat="43.64519" lon="1.37978">
        <ele>149</ele>
        <time>2023-09-10T07:35:02Z</time>
      </trkpt>
      <trkpt lat="43.64522" lon="1.3798">
        <ele>150</ele>
        <time>2023-09-10T07:35:03Z</time>
      </trkpt>
      <trkpt lat="43.64524" lon="1.37982">
        <ele>150</ele>
        <time>2023-09-10T07:35:04Z</time>
      </trkpt>
      <trkpt lat="43.64527" lon="1.37983">
        <ele>150</ele>
        <time>2023-09-10T07:35:05Z</time>
      </trkpt>
      <trkpt lat="43.6453" lon="1.37984">
        <ele>150</ele>
        <time>2023-09-10T07:35:06Z</time>
      </trkpt>
      <trkpt lat="43.64532" lon="1.37985">
        <ele>150</ele>
        <time>2023-09-10T07:35:07Z</time>
      </trkpt>
      <trkpt lat="43.64535" lon="1.37985">
        <ele>150</ele>
        <time>2023-09-10T07:35:08Z</time>
      </trkpt>
      <trkpt lat="43.64538" lon="1.37985">
        <ele>150</ele>
        <time>2023-09-10T07:35:10Z</time>
      </trkpt>
      <trkpt lat="43.64543" lon="1.37984">
        <ele>150</ele>
        <time>2023-09-10T07:35:11Z</time>
      </trkpt>
      <trkpt lat="43.64546" lon="1.37984">
        <ele>150</ele>
        <time>2023-09-10T07:35:12Z</time>
      </trkpt>
      <trkpt lat="43.64551" lon="1.37982">
        <ele>149</ele>
        <time>2023-09-10T07:35:14Z</time>
      </trkpt>
      <trkpt lat="43.64553" lon="1.3798">
        <ele>149</ele>
        <time>2023-09-10T07:35:15Z</time>
      </trkpt>
      <trkpt lat="43.64556" lon="1.37978">
        <ele>149</ele>
        <time>2023-09-10T07:35:16Z</time>
      </trkpt>
      <trkpt lat="43.64556" lon="1.37978">
        <ele>150</ele>
        <time>2023-09-10T07:35:17Z</time>
      </trkpt>
      <trkpt lat="43.6456" lon="1.37974">
        <ele>150</ele>
        <time>2023-09-10T07:35:18Z</time>
      </trkpt>
      <trkpt lat="43.64562" lon="1.37971">
        <ele>149</ele>
        <time>2023-09-10T07:35:19Z</time>
      </trkpt>
      <trkpt lat="43.64563" lon="1.37967">
        <ele>149</ele>
        <time>2023-09-10T07:35:20Z</time>
      </trkpt>
      <trkpt lat="43.64566" lon="1.37961">
        <ele>149</ele>
        <time>2023-09-10T07:35:22Z</time>
      </trkpt>
      <trkpt lat="43.64567" lon="1.37958">
        <ele>149</ele>
        <time>2023-09-10T07:35:23Z</time>
      </trkpt>
      <trkpt lat="43.64567" lon="1.37958">
        <ele>149</ele>
        <time>2023-09-10T07:35:24Z</time>
      </trkpt>
      <trkpt lat="43.64568" lon="1.37951">
        <ele>149</ele>
        <time>2023-09-10T07:35:25Z</time>
      </trkpt>
      <trkpt lat="43.64568" lon="1.37948">
        <ele>149</ele>
        <time>2023-09-10T07:35:26Z</time>
      </trkpt>
      <trkpt lat="43.64569" lon="1.37944">
        <ele>149</ele>
        <time>2023-09-10T07:35:27Z</time>
      </trkpt>
      <trkpt lat="43.64568" lon="1.37937">
        <ele>149</ele>
        <time>2023-09-10T07:35:29Z</time>
      </trkpt>
      <trkpt lat="43.64568" lon="1.37933">
        <ele>149</ele>
        <time>2023-09-10T07:35:30Z</time>
      </trkpt>
      <trkpt lat="43.64568" lon="1.37933">
        <ele>149</ele>
        <time>2023-09-10T07:35:31Z</time>
      </trkpt>
      <trkpt lat="43.64566" lon="1.37926">
        <ele>149</ele>
        <time>2023-09-10T07:35:32Z</time>
      </trkpt>
      <trkpt lat="43.64565" lon="1.37923">
        <ele>148</ele>
        <time>2023-09-10T07:35:33Z</time>
      </trkpt>
      <trkpt lat="43.64564" lon="1.3792">
        <ele>149</ele>
        <time>2023-09-10T07:35:34Z</time>
      </trkpt>
      <trkpt lat="43.64562" lon="1.37917">
        <ele>149</ele>
        <time>2023-09-10T07:35:35Z</time>
      </trkpt>
      <trkpt lat="43.64562" lon="1.37917">
        <ele>148</ele>
        <time>2023-09-10T07:35:36Z</time>
      </trkpt>
      <trkpt lat="43.64558" lon="1.37911">
        <ele>148</ele>
        <time>2023-09-10T07:35:37Z</time>
      </trkpt>
      <trkpt lat="43.64556" lon="1.37909">
        <ele>149</ele>
        <time>2023-09-10T07:35:38Z</time>
      </trkpt>
      <trkpt lat="43.64554" lon="1.37907">
        <ele>149</ele>
        <time>2023-09-10T07:35:39Z</time>
      </trkpt>
      <trkpt lat="43.64551" lon="1.37905">
        <ele>149</ele>
        <time>2023-09-10T07:35:40Z</time>
      </trkpt>
      <trkpt lat="43.64549" lon="1.37903">
        <ele>149</ele>
        <time>2023-09-10T07:35:41Z</time>
      </trkpt>
      <trkpt lat="43.64546" lon="1.37901">
        <ele>148</ele>
        <time>2023-09-10T07:35:42Z</time>
      </trkpt>
      <trkpt lat="43.64546" lon="1.37901">
        <ele>148</ele>
        <time>2023-09-10T07:35:43Z</time>
      </trkpt>
      <trkpt lat="43.64539" lon="1.37897">
        <ele>148</ele>
        <time>2023-09-10T07:35:44Z</time>
      </trkpt>
      <trkpt lat="43.64536" lon="1.37895">
        <ele>148</ele>
        <time>2023-09-10T07:35:45Z</time>
      </trkpt>
      <trkpt lat="43.64533" lon="1.37893">
        <ele>148</ele>
        <time>2023-09-10T07:35:46Z</time>
      </trkpt>
      <trkpt lat="43.64527" lon="1.3789">
        <ele>149</ele>
        <time>2023-09-10T07:35:48Z</time>
      </trkpt>
      <trkpt lat="43.6452" lon="1.37885">
        <ele>149</ele>
        <time>2023-09-10T07:35:50Z</time>
      </trkpt>
      <trkpt lat="43.64519" lon="1.37884">
        <ele>149</ele>
        <time>2023-09-10T07:35:51Z</time>
      </trkpt>
      <trkpt lat="43.64519" lon="1.37884">
        <ele>149</ele>
        <time>2023-09-10T07:35:52Z</time>
      </trkpt>
      <trkpt lat="43.64513" lon="1.3788">
        <ele>149</ele>
        <time>2023-09-10T07:35:53Z</time>
      </trkpt>
      <trkpt lat="43.6451" lon="1.37878">
        <ele>149</ele>
        <time>2023-09-10T07:35:54Z</time>
      </trkpt>
      <trkpt lat="43.64507" lon="1.37876">
        <ele>149</ele>
        <time>2023-09-10T07:35:55Z</time>
      </trkpt>
      <trkpt lat="43.64504" lon="1.37874">
        <ele>149</ele>
        <time>2023-09-10T07:35:56Z</time>
      </trkpt>
      <trkpt lat="43.64501" lon="1.37872">
        <ele>150</ele>
        <time>2023-09-10T07:35:57Z</time>
      </trkpt>
      <trkpt lat="43.64498" lon="1.3787">
        <ele>150</ele>
        <time>2023-09-10T07:35:58Z</time>
      </trkpt>
      <trkpt lat="43.64495" lon="1.37869">
        <ele>149</ele>
        <time>2023-09-10T07:35:59Z</time>
      </trkpt>
      <trkpt lat="43.64493" lon="1.37867">
        <ele>149</ele>
        <time>2023-09-10T07:36:00Z</time>
      </trkpt>
      <trkpt lat="43.6449" lon="1.37866">
        <ele>149</ele>
        <time>2023-09-10T07:36:01Z</time>
      </trkpt>
      <trkpt lat="43.64487" lon="1.37866">
        <ele>149</ele>
        <time>2023-09-10T07:36:02Z</time>
      </trkpt>
      <trkpt lat="43.64484" lon="1.37866">
        <ele>149</ele>
        <time>2023-09-10T07:36:03Z</time>
      </trkpt>
      <trkpt lat="43.6448" lon="1.37866">
        <ele>149</ele>
        <time>2023-09-10T07:36:04Z</time>
      </trkpt>
      <trkpt lat="43.64477" lon="1.37868">
        <ele>149</ele>
        <time>2023-09-10T07:36:06Z</time>
      </trkpt>
      <trkpt lat="43.64471" lon="1.37872">
        <ele>148</ele>
        <time>2023-09-10T07:36:07Z</time>
      </trkpt>
      <trkpt lat="43.64468" lon="1.37874">
        <ele>149</ele>
        <time>2023-09-10T07:36:08Z</time>
      </trkpt>
      <trkpt lat="43.64466" lon="1.37877">
        <ele>149</ele>
        <time>2023-09-10T07:36:09Z</time>
      </trkpt>
      <trkpt lat="43.64464" lon="1.3788">
        <ele>149</ele>
        <time>2023-09-10T07:36:10Z</time>
      </trkpt>
      <trkpt lat="43.64462" lon="1.37883">
        <ele>149</ele>
        <time>2023-09-10T07:36:11Z</time>
      </trkpt>
      <trkpt lat="43.6446" lon="1.37887">
        <ele>149</ele>
        <time>2023-09-10T07:36:12Z</time>
      </trkpt>
      <trkpt lat="43.64459" lon="1.37891">
        <ele>148</ele>
        <time>2023-09-10T07:36:13Z</time>
      </trkpt>
      <trkpt lat="43.64458" lon="1.37895">
        <ele>149</ele>
        <time>2023-09-10T07:36:14Z</time>
      </trkpt>
      <trkpt lat="43.64457" lon="1.379">
        <ele>149</ele>
        <time>2023-09-10T07:36:15Z</time>
      </trkpt>
      <trkpt lat="43.64456" lon="1.37904">
        <ele>149</ele>
        <time>2023-09-10T07:36:16Z</time>
      </trkpt>
      <trkpt lat="43.64456" lon="1.37909">
        <ele>149</ele>
        <time>2023-09-10T07:36:17Z</time>
      </trkpt>
      <trkpt lat="43.64455" lon="1.37915">
        <ele>150</ele>
        <time>2023-09-10T07:36:18Z</time>
      </trkpt>
      <trkpt lat="43.64455" lon="1.37915">
        <ele>150</ele>
        <time>2023-09-10T07:36:19Z</time>
      </trkpt>
      <trkpt lat="43.64457" lon="1.37925">
        <ele>150</ele>
        <time>2023-09-10T07:36:20Z</time>
      </trkpt>
      <trkpt lat="43.64457" lon="1.3793">
        <ele>150</ele>
        <time>2023-09-10T07:36:21Z</time>
      </trkpt>
      <trkpt lat="43.64458" lon="1.37935">
        <ele>150</ele>
        <time>2023-09-10T07:36:22Z</time>
      </trkpt>
      <trkpt lat="43.6446" lon="1.37939">
        <ele>150</ele>
        <time>2023-09-10T07:36:23Z</time>
      </trkpt>
      <trkpt lat="43.6446" lon="1.37939">
        <ele>150</ele>
        <time>2023-09-10T07:36:24Z</time>
      </trkpt>
      <trkpt lat="43.64463" lon="1.37944">
        <ele>150</ele>
        <time>2023-09-10T07:36:25Z</time>
      </trkpt>
      <trkpt lat="43.64464" lon="1.37945">
        <ele>149</ele>
        <time>2023-09-10T07:36:26Z</time>
      </trkpt>
      <trkpt lat="43.6447" lon="1.3795">
        <ele>149</ele>
        <time>2023-09-10T07:36:27Z</time>
      </trkpt>
      <trkpt lat="43.64473" lon="1.37952">
        <ele>149</ele>
        <time>2023-09-10T07:36:28Z</time>
      </trkpt>
      <trkpt lat="43.64477" lon="1.37954">
        <ele>149</ele>
        <time>2023-09-10T07:36:29Z</time>
      </trkpt>
      <trkpt lat="43.6448" lon="1.37957">
        <ele>149</ele>
        <time>2023-09-10T07:36:30Z</time>
      </trkpt>
      <trkpt lat="43.64483" lon="1.37959">
        <ele>149</ele>
        <time>2023-09-10T07:36:31Z</time>
      </trkpt>
      <trkpt lat="43.64486" lon="1.37961">
        <ele>149</ele>
        <time>2023-09-10T07:36:32Z</time>
      </trkpt>
      <trkpt lat="43.6449" lon="1.37962">
        <ele>149</ele>
        <time>2023-09-10T07:36:33Z</time>
      </trkpt>
      <trkpt lat="43.64496" lon="1.37965">
        <ele>149</ele>
        <time>2023-09-10T07:36:35Z</time>
      </trkpt>
      <trkpt lat="43.645" lon="1.37967">
        <ele>149</ele>
        <time>2023-09-10T07:36:36Z</time>
      </trkpt>
      <trkpt lat="43.64503" lon="1.37968">
        <ele>149</ele>
        <time>2023-09-10T07:36:37Z</time>
      </trkpt>
      <trkpt lat="43.64503" lon="1.37968">
        <ele>149</ele>
        <time>2023-09-10T07:36:38Z</time>
      </trkpt>
      <trkpt lat="43.64509" lon="1.37972">
        <ele>149</ele>
        <time>2023-09-10T07:36:39Z</time>
      </trkpt>
      <trkpt lat="43.64513" lon="1.37974">
        <ele>149</ele>
        <time>2023-09-10T07:36:40Z</time>
      </trkpt>
      <trkpt lat="43.64516" lon="1.37975">
        <ele>149</ele>
        <time>2023-09-10T07:36:41Z</time>
      </trkpt>
      <trkpt lat="43.64519" lon="1.37977">
        <ele>149</ele>
        <time>2023-09-10T07:36:42Z</time>
      </trkpt>
      <trkpt lat="43.64523" lon="1.37979">
        <ele>149</ele>
        <time>2023-09-10T07:36:43Z</time>
      </trkpt>
      <trkpt lat="43.6453" lon="1.37982">
        <ele>149</ele>
        <time>2023-09-10T07:36:45Z</time>
      </trkpt>
      <trkpt lat="43.64533" lon="1.37982">
        <ele>149</ele>
        <time>2023-09-10T07:36:46Z</time>
      </trkpt>
      <trkpt lat="43.64537" lon="1.37983">
        <ele>149</ele>
        <time>2023-09-10T07:36:47Z</time>
      </trkpt>
      <trkpt lat="43.64544" lon="1.37982">
        <ele>149</ele>
        <time>2023-09-10T07:36:49Z</time>
      </trkpt>
      <trkpt lat="43.64547" lon="1.37981">
        <ele>149</ele>
        <time>2023-09-10T07:36:50Z</time>
      </trkpt>
      <trkpt lat="43.64551" lon="1.3798">
        <ele>149</ele>
        <time>2023-09-10T07:36:51Z</time>
      </trkpt>
      <trkpt lat="43.64554" lon="1.37978">
        <ele>149</ele>
        <time>2023-09-10T07:36:52Z</time>
      </trkpt>
      <trkpt lat="43.64558" lon="1.37975">
        <ele>149</ele>
        <time>2023-09-10T07:36:53Z</time>
      </trkpt>
      <trkpt lat="43.64561" lon="1.37972">
        <ele>149</ele>
        <time>2023-09-10T07:36:54Z</time>
      </trkpt>
      <trkpt lat="43.64561" lon="1.37972">
        <ele>149</ele>
        <time>2023-09-10T07:36:55Z</time>
      </trkpt>
      <trkpt lat="43.64565" lon="1.37965">
        <ele>149</ele>
        <time>2023-09-10T07:36:56Z</time>
      </trkpt>
      <trkpt lat="43.64566" lon="1.37961">
        <ele>149</ele>
        <time>2023-09-10T07:36:57Z</time>
      </trkpt>
      <trkpt lat="43.64568" lon="1.37957">
        <ele>149</ele>
        <time>2023-09-10T07:36:58Z</time>
      </trkpt>
      <trkpt lat="43.64569" lon="1.37953">
        <ele>149</ele>
        <time>2023-09-10T07:36:59Z</time>
      </trkpt>
      <trkpt lat="43.6457" lon="1.37948">
        <ele>149</ele>
        <time>2023-09-10T07:37:00Z</time>
      </trkpt>
      <trkpt lat="43.6457" lon="1.37944">
        <ele>150</ele>
        <time>2023-09-10T07:37:01Z</time>
      </trkpt>
      <trkpt lat="43.6457" lon="1.37939">
        <ele>150</ele>
        <time>2023-09-10T07:37:03Z</time>
      </trkpt>
      <trkpt lat="43.64567" lon="1.3793">
        <ele>150</ele>
        <time>2023-09-10T07:37:04Z</time>
      </trkpt>
      <trkpt lat="43.64567" lon="1.3793">
        <ele>150</ele>
        <time>2023-09-10T07:37:05Z</time>
      </trkpt>
      <trkpt lat="43.64563" lon="1.37922">
        <ele>149</ele>
        <time>2023-09-10T07:37:06Z</time>
      </trkpt>
      <trkpt lat="43.64561" lon="1.37917">
        <ele>150</ele>
        <time>2023-09-10T07:37:07Z</time>
      </trkpt>
      <trkpt lat="43.64559" lon="1.37913">
        <ele>150</ele>
        <time>2023-09-10T07:37:08Z</time>
      </trkpt>
      <trkpt lat="43.64556" lon="1.3791">
        <ele>149</ele>
        <time>2023-09-10T07:37:09Z</time>
      </trkpt>
      <trkpt lat="43.64554" lon="1.37907">
        <ele>149</ele>
        <time>2023-09-10T07:37:10Z</time>
      </trkpt>
      <trkpt lat="43.64553" lon="1.37906">
        <ele>149</ele>
        <time>2023-09-10T07:37:11Z</time>
      </trkpt>
      <trkpt lat="43.64553" lon="1.37906">
        <ele>149</ele>
        <time>2023-09-10T07:37:12Z</time>
      </trkpt>
      <trkpt lat="43.6455" lon="1.37904">
        <ele>149</ele>
        <time>2023-09-10T07:37:13Z</time>
      </trkpt>
      <trkpt lat="43.6455" lon="1.37904">
        <ele>149</ele>
        <time>2023-09-10T07:37:14Z</time>
      </trkpt>
      <trkpt lat="43.6455" lon="1.37904">
        <ele>150</ele>
        <time>2023-09-10T07:37:15Z</time>
      </trkpt>
      <trkpt lat="43.64547" lon="1.37903">
        <ele>150</ele>
        <time>2023-09-10T07:37:16Z</time>
      </trkpt>
      <trkpt lat="43.64547" lon="1.37903">
        <ele>150</ele>
        <time>2023-09-10T07:37:17Z</time>
      </trkpt>
      <trkpt lat="43.64545" lon="1.37902">
        <ele>150</ele>
        <time>2023-09-10T07:37:18Z</time>
      </trkpt>
      <trkpt lat="43.64545" lon="1.37902">
        <ele>150</ele>
        <time>2023-09-10T07:37:19Z</time>
      </trkpt>
      <trkpt lat="43.64542" lon="1.37901">
        <ele>150</ele>
        <time>2023-09-10T07:37:20Z</time>
      </trkpt>
      <trkpt lat="43.64542" lon="1.37901">
        <ele>150</ele>
        <time>2023-09-10T07:37:21Z</time>
      </trkpt>
      <trkpt lat="43.6454" lon="1.37899">
        <ele>150</ele>
        <time>2023-09-10T07:37:23Z</time>
      </trkpt>
      <trkpt lat="43.64537" lon="1.37898">
        <ele>150</ele>
        <time>2023-09-10T07:37:24Z</time>
      </trkpt>
      <trkpt lat="43.64535" lon="1.37896">
        <ele>149</ele>
        <time>2023-09-10T07:37:26Z</time>
      </trkpt>
      <trkpt lat="43.64535" lon="1.37896">
        <ele>149</ele>
        <time>2023-09-10T07:37:27Z</time>
      </trkpt>
      <trkpt lat="43.64534" lon="1.37894">
        <ele>149</ele>
        <time>2023-09-10T07:37:28Z</time>
      </trkpt>
      <trkpt lat="43.64534" lon="1.37894">
        <ele>149</ele>
        <time>2023-09-10T07:37:29Z</time>
      </trkpt>
      <trkpt lat="43.64534" lon="1.37894">
        <ele>149</ele>
        <time>2023-09-10T07:37:30Z</time>
      </trkpt>
      <trkpt lat="43.64534" lon="1.37894">
        <ele>149</ele>
        <time>2023-09-10T07:37:31Z</time>
      </trkpt>
      <trkpt lat="43.64534" lon="1.37894">
        <ele>149</ele>
        <time>2023-09-10T07:37:32Z</time>
      </trkpt>
      <trkpt lat="43.64533" lon="1.37891">
        <ele>149</ele>
        <time>2023-09-10T07:37:33Z</time>
      </trkpt>
      <trkpt lat="43.64533" lon="1.37891">
        <ele>148</ele>
        <time>2023-09-10T07:37:34Z</time>
      </trkpt>
      <trkpt lat="43.6453" lon="1.3789">
        <ele>148</ele>
        <time>2023-09-10T07:37:35Z</time>
      </trkpt>
      <trkpt lat="43.6453" lon="1.3789">
        <ele>148</ele>
        <time>2023-09-10T07:37:36Z</time>
      </trkpt>
      <trkpt lat="43.64528" lon="1.37889">
        <ele>148</ele>
        <time>2023-09-10T07:37:37Z</time>
      </trkpt>
      <trkpt lat="43.64528" lon="1.37889">
        <ele>149</ele>
        <time>2023-09-10T07:37:38Z</time>
      </trkpt>
      <trkpt lat="43.64526" lon="1.37887">
        <ele>149</ele>
        <time>2023-09-10T07:37:39Z</time>
      </trkpt>
      <trkpt lat="43.64526" lon="1.37887">
        <ele>149</ele>
        <time>2023-09-10T07:37:40Z</time>
      </trkpt>
      <trkpt lat="43.64523" lon="1.37886">
        <ele>149</ele>
        <time>2023-09-10T07:37:42Z</time>
      </trkpt>
      <trkpt lat="43.64521" lon="1.37885">
        <ele>149</ele>
        <time>2023-09-10T07:37:43Z</time>
      </trkpt>
      <trkpt lat="43.64521" lon="1.37885">
        <ele>150</ele>
        <time>2023-09-10T07:37:44Z</time>
      </trkpt>
      <trkpt lat="43.64519" lon="1.37883">
        <ele>150</ele>
        <time>2023-09-10T07:37:45Z</time>
      </trkpt>
      <trkpt lat="43.64519" lon="1.37883">
        <ele>150</ele>
        <time>2023-09-10T07:37:46Z</time>
      </trkpt>
      <trkpt lat="43.64517" lon="1.37882">
        <ele>150</ele>
        <time>2023-09-10T07:37:47Z</time>
      </trkpt>
      <trkpt lat="43.64517" lon="1.37882">
        <ele>150</ele>
        <time>2023-09-10T07:37:48Z</time>
      </trkpt>
      <trkpt lat="43.64515" lon="1.37881">
        <ele>150</ele>
        <time>2023-09-10T07:37:49Z</time>
      </trkpt>
      <trkpt lat="43.64515" lon="1.37881">
        <ele>149</ele>
        <time>2023-09-10T07:37:50Z</time>
      </trkpt>
      <trkpt lat="43.64512" lon="1.37879">
        <ele>149</ele>
        <time>2023-09-10T07:37:51Z</time>
      </trkpt>
      <trkpt lat="43.64512" lon="1.37879">
        <ele>149</ele>
        <time>2023-09-10T07:37:52Z</time>
      </trkpt>
      <trkpt lat="43.6451" lon="1.37878">
        <ele>149</ele>
        <time>2023-09-10T07:37:53Z</time>
      </trkpt>
      <trkpt lat="43.6451" lon="1.37878">
        <ele>149</ele>
        <time>2023-09-10T07:37:54Z</time>
      </trkpt>
      <trkpt lat="43.64507" lon="1.37876">
        <ele>149</ele>
        <time>2023-09-10T07:37:55Z</time>
      </trkpt>
      <trkpt lat="43.64507" lon="1.37876">
        <ele>149</ele>
        <time>2023-09-10T07:37:56Z</time>
      </trkpt>
      <trkpt lat="43.64505" lon="1.37875">
        <ele>149</ele>
        <time>2023-09-10T07:37:57Z</time>
      </trkpt>
      <trkpt lat="43.64505" lon="1.37875">
        <ele>149</ele>
        <time>2023-09-10T07:37:58Z</time>
      </trkpt>
      <trkpt lat="43.64503" lon="1.37874">
        <ele>149</ele>
        <time>2023-09-10T07:37:59Z</time>
      </trkpt>
      <trkpt lat="43.64503" lon="1.37874">
        <ele>149</ele>
        <time>2023-09-10T07:38:01Z</time>
      </trkpt>
      <trkpt lat="43.645" lon="1.37872">
        <ele>149</ele>
        <time>2023-09-10T07:38:02Z</time>
      </trkpt>
      <trkpt lat="43.64498" lon="1.37871">
        <ele>149</ele>
        <time>2023-09-10T07:38:03Z</time>
      </trkpt>
      <trkpt lat="43.64498" lon="1.37871">
        <ele>149</ele>
        <time>2023-09-10T07:38:04Z</time>
      </trkpt>
      <trkpt lat="43.64496" lon="1.3787">
        <ele>149</ele>
        <time>2023-09-10T07:38:05Z</time>
      </trkpt>
      <trkpt lat="43.64496" lon="1.3787">
        <ele>149</ele>
        <time>2023-09-10T07:38:06Z</time>
      </trkpt>
      <trkpt lat="43.64493" lon="1.37868">
        <ele>149</ele>
        <time>2023-09-10T07:38:07Z</time>
      </trkpt>
      <trkpt lat="43.64491" lon="1.37868">
        <ele>149</ele>
        <time>2023-09-10T07:38:09Z</time>
      </trkpt>
      <trkpt lat="43.64491" lon="1.37868">
        <ele>149</ele>
        <time>2023-09-10T07:38:10Z</time>
      </trkpt>
      <trkpt lat="43.64489" lon="1.37868">
        <ele>149</ele>
        <time>2023-09-10T07:38:11Z</time>
      </trkpt>
      <trkpt lat="43.64489" lon="1.37868">
        <ele>149</ele>
        <time>2023-09-10T07:38:12Z</time>
      </trkpt>
      <trkpt lat="43.64487" lon="1.37867">
        <ele>149</ele>
        <time>2023-09-10T07:38:13Z</time>
      </trkpt>
      <trkpt lat="43.64487" lon="1.37867">
        <ele>149</ele>
        <time>2023-09-10T07:38:14Z</time>
      </trkpt>
      <trkpt lat="43.64484" lon="1.37866">
        <ele>149</ele>
        <time>2023-09-10T07:38:15Z</time>
      </trkpt>
      <trkpt lat="43.64484" lon="1.37866">
        <ele>149</ele>
        <time>2023-09-10T07:38:16Z</time>
      </trkpt>
      <trkpt lat="43.64481" lon="1.37866">
        <ele>149</ele>
        <time>2023-09-10T07:38:17Z</time>
      </trkpt>
      <trkpt lat="43.64481" lon="1.37866">
        <ele>149</ele>
        <time>2023-09-10T07:38:18Z</time>
      </trkpt>
      <trkpt lat="43.64479" lon="1.37866">
        <ele>150</ele>
        <time>2023-09-10T07:38:20Z</time>
      </trkpt>
      <trkpt lat="43.64477" lon="1.37868">
        <ele>149</ele>
        <time>2023-09-10T07:38:21Z</time>
      </trkpt>
      <trkpt lat="43.64477" lon="1.37868">
        <ele>149</ele>
        <time>2023-09-10T07:38:22Z</time>
      </trkpt>
      <trkpt lat="43.64475" lon="1.37869">
        <ele>149</ele>
        <time>2023-09-10T07:38:23Z</time>
      </trkpt>
      <trkpt lat="43.64475" lon="1.37869">
        <ele>149</ele>
        <time>2023-09-10T07:38:24Z</time>
      </trkpt>
      <trkpt lat="43.64473" lon="1.3787">
        <ele>149</ele>
        <time>2023-09-10T07:38:25Z</time>
      </trkpt>
      <trkpt lat="43.64473" lon="1.3787">
        <ele>150</ele>
        <time>2023-09-10T07:38:26Z</time>
      </trkpt>
      <trkpt lat="43.64471" lon="1.37872">
        <ele>150</ele>
        <time>2023-09-10T07:38:27Z</time>
      </trkpt>
      <trkpt lat="43.64471" lon="1.37872">
        <ele>150</ele>
        <time>2023-09-10T07:38:28Z</time>
      </trkpt>
      <trkpt lat="43.64471" lon="1.37872">
        <ele>150</ele>
        <time>2023-09-10T07:38:29Z</time>
      </trkpt>
      <trkpt lat="43.64469" lon="1.37873">
        <ele>150</ele>
        <time>2023-09-10T07:38:30Z</time>
      </trkpt>
      <trkpt lat="43.64467" lon="1.37875">
        <ele>150</ele>
        <time>2023-09-10T07:38:31Z</time>
      </trkpt>
      <trkpt lat="43.64467" lon="1.37875">
        <ele>150</ele>
        <time>2023-09-10T07:38:32Z</time>
      </trkpt>
      <trkpt lat="43.64465" lon="1.37877">
        <ele>150</ele>
        <time>2023-09-10T07:38:33Z</time>
      </trkpt>
      <trkpt lat="43.64465" lon="1.37877">
        <ele>150</ele>
        <time>2023-09-10T07:38:34Z</time>
      </trkpt>
      <trkpt lat="43.64465" lon="1.37877">
        <ele>150</ele>
        <time>2023-09-10T07:38:35Z</time>
      </trkpt>
      <trkpt lat="43.64463" lon="1.37879">
        <ele>150</ele>
        <time>2023-09-10T07:38:36Z</time>
      </trkpt>
      <trkpt lat="43.64462" lon="1.37882">
        <ele>150</ele>
        <time>2023-09-10T07:38:37Z</time>
      </trkpt>
      <trkpt lat="43.64462" lon="1.37882">
        <ele>150</ele>
        <time>2023-09-10T07:38:39Z</time>
      </trkpt>
      <trkpt lat="43.6446" lon="1.37885">
        <ele>150</ele>
        <time>2023-09-10T07:38:40Z</time>
      </trkpt>
      <trkpt lat="43.64459" lon="1.37889">
        <ele>150</ele>
        <time>2023-09-10T07:38:41Z</time>
      </trkpt>
      <trkpt lat="43.64459" lon="1.37889">
        <ele>149</ele>
        <time>2023-09-10T07:38:42Z</time>
      </trkpt>
      <trkpt lat="43.64458" lon="1.37892">
        <ele>149</ele>
        <time>2023-09-10T07:38:43Z</time>
      </trkpt>
      <trkpt lat="43.64458" lon="1.37892">
        <ele>149</ele>
        <time>2023-09-10T07:38:44Z</time>
      </trkpt>
      <trkpt lat="43.64457" lon="1.37896">
        <ele>149</ele>
        <time>2023-09-10T07:38:45Z</time>
      </trkpt>
      <trkpt lat="43.64457" lon="1.37896">
        <ele>149</ele>
        <time>2023-09-10T07:38:46Z</time>
      </trkpt>
      <trkpt lat="43.64456" lon="1.37899">
        <ele>149</ele>
        <time>2023-09-10T07:38:47Z</time>
      </trkpt>
      <trkpt lat="43.64456" lon="1.37899">
        <ele>149</ele>
        <time>2023-09-10T07:38:48Z</time>
      </trkpt>
      <trkpt lat="43.64456" lon="1.37902">
        <ele>149</ele>
        <time>2023-09-10T07:38:49Z</time>
      </trkpt>
      <trkpt lat="43.64456" lon="1.37902">
        <ele>149</ele>
        <time>2023-09-10T07:38:51Z</time>
      </trkpt>
      <trkpt lat="43.64455" lon="1.37906">
        <ele>149</ele>
        <time>2023-09-10T07:38:52Z</time>
      </trkpt>
      <trkpt lat="43.64455" lon="1.37906">
        <ele>149</ele>
        <time>2023-09-10T07:38:53Z</time>
      </trkpt>
      <trkpt lat="43.64454" lon="1.3791">
        <ele>150</ele>
        <time>2023-09-10T07:38:54Z</time>
      </trkpt>
      <trkpt lat="43.64454" lon="1.3791">
        <ele>150</ele>
        <time>2023-09-10T07:38:55Z</time>
      </trkpt>
      <trkpt lat="43.64454" lon="1.3791">
        <ele>150</ele>
        <time>2023-09-10T07:38:56Z</time>
      </trkpt>
      <trkpt lat="43.64453" lon="1.37912">
        <ele>150</ele>
        <time>2023-09-10T07:38:57Z</time>
      </trkpt>
      <trkpt lat="43.64453" lon="1.37912">
        <ele>150</ele>
        <time>2023-09-10T07:38:58Z</time>
      </trkpt>
      <trkpt lat="43.64452" lon="1.37915">
        <ele>150</ele>
        <time>2023-09-10T07:38:59Z</time>
      </trkpt>
      <trkpt lat="43.64452" lon="1.37915">
        <ele>150</ele>
        <time>2023-09-10T07:39:00Z</time>
      </trkpt>
      <trkpt lat="43.64453" lon="1.37919">
        <ele>150</ele>
        <time>2023-09-10T07:39:01Z</time>
      </trkpt>
      <trkpt lat="43.64453" lon="1.37922">
        <ele>150</ele>
        <time>2023-09-10T07:39:02Z</time>
      </trkpt>
      <trkpt lat="43.64453" lon="1.37922">
        <ele>150</ele>
        <time>2023-09-10T07:39:03Z</time>
      </trkpt>
      <trkpt lat="43.64454" lon="1.37926">
        <ele>150</ele>
        <time>2023-09-10T07:39:04Z</time>
      </trkpt>
      <trkpt lat="43.64454" lon="1.37926">
        <ele>150</ele>
        <time>2023-09-10T07:39:05Z</time>
      </trkpt>
      <trkpt lat="43.64455" lon="1.37929">
        <ele>150</ele>
        <time>2023-09-10T07:39:06Z</time>
      </trkpt>
      <trkpt lat="43.64455" lon="1.37929">
        <ele>150</ele>
        <time>2023-09-10T07:39:07Z</time>
      </trkpt>
      <trkpt lat="43.64457" lon="1.37932">
        <ele>150</ele>
        <time>2023-09-10T07:39:08Z</time>
      </trkpt>
      <trkpt lat="43.64457" lon="1.37932">
        <ele>150</ele>
        <time>2023-09-10T07:39:09Z</time>
      </trkpt>
      <trkpt lat="43.64457" lon="1.37932">
        <ele>150</ele>
        <time>2023-09-10T07:39:10Z</time>
      </trkpt>
      <trkpt lat="43.64458" lon="1.37936">
        <ele>150</ele>
        <time>2023-09-10T07:39:11Z</time>
      </trkpt>
      <trkpt lat="43.64458" lon="1.37936">
        <ele>150</ele>
        <time>2023-09-10T07:39:12Z</time>
      </trkpt>
      <trkpt lat="43.64459" lon="1.37939">
        <ele>150</ele>
        <time>2023-09-10T07:39:13Z</time>
      </trkpt>
      <trkpt lat="43.64461" lon="1.37941">
        <ele>150</ele>
        <time>2023-09-10T07:39:14Z</time>
      </trkpt>
      <trkpt lat="43.64463" lon="1.37943">
        <ele>150</ele>
        <time>2023-09-10T07:39:15Z</time>
      </trkpt>
      <trkpt lat="43.64469" lon="1.37949">
        <ele>150</ele>
        <time>2023-09-10T07:39:17Z</time>
      </trkpt>
      <trkpt lat="43.64472" lon="1.3795">
        <ele>150</ele>
        <time>2023-09-10T07:39:18Z</time>
      </trkpt>
      <trkpt lat="43.64472" lon="1.3795">
        <ele>149</ele>
        <time>2023-09-10T07:39:19Z</time>
      </trkpt>
      <trkpt lat="43.64479" lon="1.37954">
        <ele>149</ele>
        <time>2023-09-10T07:39:20Z</time>
      </trkpt>
      <trkpt lat="43.64483" lon="1.37956">
        <ele>150</ele>
        <time>2023-09-10T07:39:21Z</time>
      </trkpt>
      <trkpt lat="43.64486" lon="1.37958">
        <ele>150</ele>
        <time>2023-09-10T07:39:22Z</time>
      </trkpt>
      <trkpt lat="43.6449" lon="1.3796">
        <ele>150</ele>
        <time>2023-09-10T07:39:23Z</time>
      </trkpt>
      <trkpt lat="43.64494" lon="1.37962">
        <ele>150</ele>
        <time>2023-09-10T07:39:24Z</time>
      </trkpt>
      <trkpt lat="43.64497" lon="1.37964">
        <ele>150</ele>
        <time>2023-09-10T07:39:25Z</time>
      </trkpt>
      <trkpt lat="43.64501" lon="1.37966">
        <ele>150</ele>
        <time>2023-09-10T07:39:26Z</time>
      </trkpt>
      <trkpt lat="43.64505" lon="1.37969">
        <ele>150</ele>
        <time>2023-09-10T07:39:27Z</time>
      </trkpt>
      <trkpt lat="43.64508" lon="1.3797">
        <ele>150</ele>
        <time>2023-09-10T07:39:28Z</time>
      </trkpt>
      <trkpt lat="43.64512" lon="1.37973">
        <ele>150</ele>
        <time>2023-09-10T07:39:29Z</time>
      </trkpt>
      <trkpt lat="43.64516" lon="1.37975">
        <ele>150</ele>
        <time>2023-09-10T07:39:30Z</time>
      </trkpt>
      <trkpt lat="43.64519" lon="1.37978">
        <ele>150</ele>
        <time>2023-09-10T07:39:31Z</time>
      </trkpt>
      <trkpt lat="43.64523" lon="1.3798">
        <ele>150</ele>
        <time>2023-09-10T07:39:32Z</time>
      </trkpt>
      <trkpt lat="43.6453" lon="1.37983">
        <ele>150</ele>
        <time>2023-09-10T07:39:34Z</time>
      </trkpt>
      <trkpt lat="43.64537" lon="1.37985">
        <ele>150</ele>
        <time>2023-09-10T07:39:36Z</time>
      </trkpt>
      <trkpt lat="43.64537" lon="1.37985">
        <ele>150</ele>
        <time>2023-09-10T07:39:37Z</time>
      </trkpt>
      <trkpt lat="43.64544" lon="1.37985">
        <ele>149</ele>
        <time>2023-09-10T07:39:38Z</time>
      </trkpt>
      <trkpt lat="43.64547" lon="1.37983">
        <ele>149</ele>
        <time>2023-09-10T07:39:39Z</time>
      </trkpt>
      <trkpt lat="43.6455" lon="1.37982">
        <ele>149</ele>
        <time>2023-09-10T07:39:40Z</time>
      </trkpt>
      <trkpt lat="43.64554" lon="1.37981">
        <ele>149</ele>
        <time>2023-09-10T07:39:41Z</time>
      </trkpt>
      <trkpt lat="43.64557" lon="1.37979">
        <ele>150</ele>
        <time>2023-09-10T07:39:42Z</time>
      </trkpt>
      <trkpt lat="43.64559" lon="1.37976">
        <ele>150</ele>
        <time>2023-09-10T07:39:43Z</time>
      </trkpt>
      <trkpt lat="43.64559" lon="1.37976">
        <ele>150</ele>
        <time>2023-09-10T07:39:44Z</time>
      </trkpt>
      <trkpt lat="43.64565" lon="1.3797">
        <ele>150</ele>
        <time>2023-09-10T07:39:45Z</time>
      </trkpt>
      <trkpt lat="43.64566" lon="1.37967">
        <ele>150</ele>
        <time>2023-09-10T07:39:46Z</time>
      </trkpt>
      <trkpt lat="43.64567" lon="1.37964">
        <ele>150</ele>
        <time>2023-09-10T07:39:47Z</time>
      </trkpt>
      <trkpt lat="43.64568" lon="1.37958">
        <ele>149</ele>
        <time>2023-09-10T07:39:49Z</time>
      </trkpt>
      <trkpt lat="43.64568" lon="1.37955">
        <ele>149</ele>
        <time>2023-09-10T07:39:50Z</time>
      </trkpt>
      <trkpt lat="43.64569" lon="1.37952">
        <ele>149</ele>
        <time>2023-09-10T07:39:51Z</time>
      </trkpt>
      <trkpt lat="43.64569" lon="1.3795">
        <ele>149</ele>
        <time>2023-09-10T07:39:52Z</time>
      </trkpt>
      <trkpt lat="43.64569" lon="1.3795">
        <ele>150</ele>
        <time>2023-09-10T07:39:53Z</time>
      </trkpt>
      <trkpt lat="43.64569" lon="1.37945">
        <ele>150</ele>
        <time>2023-09-10T07:39:55Z</time>
      </trkpt>
      <trkpt lat="43.64569" lon="1.3794">
        <ele>150</ele>
        <time>2023-09-10T07:39:56Z</time>
      </trkpt>
      <trkpt lat="43.64568" lon="1.37938">
        <ele>150</ele>
        <time>2023-09-10T07:39:57Z</time>
      </trkpt>
      <trkpt lat="43.64568" lon="1.37935">
        <ele>150</ele>
        <time>2023-09-10T07:39:58Z</time>
      </trkpt>
      <trkpt lat="43.64568" lon="1.37935">
        <ele>150</ele>
        <time>2023-09-10T07:39:59Z</time>
      </trkpt>
      <trkpt lat="43.64566" lon="1.3793">
        <ele>150</ele>
        <time>2023-09-10T07:40:00Z</time>
      </trkpt>
      <trkpt lat="43.64565" lon="1.37928">
        <ele>150</ele>
        <time>2023-09-10T07:40:01Z</time>
      </trkpt>
      <trkpt lat="43.64565" lon="1.37928">
        <ele>150</ele>
        <time>2023-09-10T07:40:02Z</time>
      </trkpt>
      <trkpt lat="43.64564" lon="1.37924">
        <ele>150</ele>
        <time>2023-09-10T07:40:03Z</time>
      </trkpt>
      <trkpt lat="43.64563" lon="1.37922">
        <ele>150</ele>
        <time>2023-09-10T07:40:04Z</time>
      </trkpt>
      <trkpt lat="43.64563" lon="1.37922">
        <ele>149</ele>
        <time>2023-09-10T07:40:05Z</time>
      </trkpt>
      <trkpt lat="43.6456" lon="1.37919">
        <ele>149</ele>
        <time>2023-09-10T07:40:06Z</time>
      </trkpt>
      <trkpt lat="43.6456" lon="1.37919">
        <ele>149</ele>
        <time>2023-09-10T07:40:07Z</time>
      </trkpt>
      <trkpt lat="43.64557" lon="1.37915">
        <ele>149</ele>
        <time>2023-09-10T07:40:08Z</time>
      </trkpt>
      <trkpt lat="43.64557" lon="1.37915">
        <ele>149</ele>
        <time>2023-09-10T07:40:09Z</time>
      </trkpt>
      <trkpt lat="43.64555" lon="1.37912">
        <ele>149</ele>
        <time>2023-09-10T07:40:10Z</time>
      </trkpt>
      <trkpt lat="43.64553" lon="1.3791">
        <ele>149</ele>
        <time>2023-09-10T07:40:11Z</time>
      </trkpt>
      <trkpt lat="43.64553" lon="1.3791">
        <ele>149</ele>
        <time>2023-09-10T07:40:12Z</time>
      </trkpt>
      <trkpt lat="43.64548" lon="1.37906">
        <ele>149</ele>
        <time>2023-09-10T07:40:14Z</time>
      </trkpt>
      <trkpt lat="43.64547" lon="1.37905">
        <ele>149</ele>
        <time>2023-09-10T07:40:15Z</time>
      </trkpt>
      <trkpt lat="43.64544" lon="1.37903">
        <ele>150</ele>
        <time>2023-09-10T07:40:16Z</time>
      </trkpt>
      <trkpt lat="43.64541" lon="1.37901">
        <ele>150</ele>
        <time>2023-09-10T07:40:17Z</time>
      </trkpt>
      <trkpt lat="43.64538" lon="1.37899">
        <ele>150</ele>
        <time>2023-09-10T07:40:18Z</time>
      </trkpt>
      <trkpt lat="43.64534" lon="1.37896">
        <ele>150</ele>
        <time>2023-09-10T07:40:19Z</time>
      </trkpt>
      <trkpt lat="43.64534" lon="1.37896">
        <ele>150</ele>
        <time>2023-09-10T07:40:20Z</time>
      </trkpt>
      <trkpt lat="43.64527" lon="1.37891">
        <ele>150</ele>
        <time>2023-09-10T07:40:21Z</time>
      </trkpt>
      <trkpt lat="43.64524" lon="1.37888">
        <ele>150</ele>
        <time>2023-09-10T07:40:22Z</time>
      </trkpt>
      <trkpt lat="43.6452" lon="1.37885">
        <ele>150</ele>
        <time>2023-09-10T07:40:23Z</time>
      </trkpt>
      <trkpt lat="43.64517" lon="1.37883">
        <ele>149</ele>
        <time>2023-09-10T07:40:24Z</time>
      </trkpt>
      <trkpt lat="43.64513" lon="1.3788">
        <ele>149</ele>
        <time>2023-09-10T07:40:25Z</time>
      </trkpt>
      <trkpt lat="43.6451" lon="1.37878">
        <ele>149</ele>
        <time>2023-09-10T07:40:26Z</time>
      </trkpt>
      <trkpt lat="43.6451" lon="1.37878">
        <ele>149</ele>
        <time>2023-09-10T07:40:27Z</time>
      </trkpt>
      <trkpt lat="43.64503" lon="1.37874">
        <ele>150</ele>
        <time>2023-09-10T07:40:28Z</time>
      </trkpt>
      <trkpt lat="43.64496" lon="1.37869">
        <ele>150</ele>
        <time>2023-09-10T07:40:30Z</time>
      </trkpt>
      <trkpt lat="43.64493" lon="1.37867">
        <ele>150</ele>
        <time>2023-09-10T07:40:31Z</time>
      </trkpt>
      <trkpt lat="43.64489" lon="1.37866">
        <ele>150</ele>
        <time>2023-09-10T07:40:33Z</time>
      </trkpt>
      <trkpt lat="43.64483" lon="1.37865">
        <ele>150</ele>
        <time>2023-09-10T07:40:34Z</time>
      </trkpt>
      <trkpt lat="43.64483" lon="1.37865">
        <ele>150</ele>
        <time>2023-09-10T07:40:35Z</time>
      </trkpt>
      <trkpt lat="43.64478" lon="1.37865">
        <ele>150</ele>
        <time>2023-09-10T07:40:36Z</time>
      </trkpt>
      <trkpt lat="43.64476" lon="1.37865">
        <ele>150</ele>
        <time>2023-09-10T07:40:37Z</time>
      </trkpt>
      <trkpt lat="43.64473" lon="1.37867">
        <ele>150</ele>
        <time>2023-09-10T07:40:38Z</time>
      </trkpt>
      <trkpt lat="43.6447" lon="1.37868">
        <ele>149</ele>
        <time>2023-09-10T07:40:39Z</time>
      </trkpt>
      <trkpt lat="43.64468" lon="1.3787">
        <ele>149</ele>
        <time>2023-09-10T07:40:40Z</time>
      </trkpt>
      <trkpt lat="43.64466" lon="1.37874">
        <ele>149</ele>
        <time>2023-09-10T07:40:41Z</time>
      </trkpt>
      <trkpt lat="43.64464" lon="1.37879">
        <ele>150</ele>
        <time>2023-09-10T07:40:42Z</time>
      </trkpt>
      <trkpt lat="43.64462" lon="1.37887">
        <ele>150</ele>
        <time>2023-09-10T07:40:43Z</time>
      </trkpt>
      <trkpt lat="43.64458" lon="1.37901">
        <ele>150</ele>
        <time>2023-09-10T07:40:45Z</time>
      </trkpt>
      <trkpt lat="43.64457" lon="1.37906">
        <ele>149</ele>
        <time>2023-09-10T07:40:46Z</time>
      </trkpt>
      <trkpt lat="43.64457" lon="1.3791">
        <ele>149</ele>
        <time>2023-09-10T07:40:47Z</time>
      </trkpt>
      <trkpt lat="43.64457" lon="1.37913">
        <ele>149</ele>
        <time>2023-09-10T07:40:48Z</time>
      </trkpt>
      <trkpt lat="43.64457" lon="1.37916">
        <ele>150</ele>
        <time>2023-09-10T07:40:49Z</time>
      </trkpt>
      <trkpt lat="43.64457" lon="1.37916">
        <ele>150</ele>
        <time>2023-09-10T07:40:50Z</time>
      </trkpt>
      <trkpt lat="43.64457" lon="1.37919">
        <ele>150</ele>
        <time>2023-09-10T07:40:51Z</time>
      </trkpt>
      <trkpt lat="43.64457" lon="1.37921">
        <ele>150</ele>
        <time>2023-09-10T07:40:52Z</time>
      </trkpt>
      <trkpt lat="43.64458" lon="1.37926">
        <ele>150</ele>
        <time>2023-09-10T07:40:53Z</time>
      </trkpt>
      <trkpt lat="43.64458" lon="1.37926">
        <ele>150</ele>
        <time>2023-09-10T07:40:54Z</time>
      </trkpt>
      <trkpt lat="43.64458" lon="1.37926">
        <ele>150</ele>
        <time>2023-09-10T07:40:55Z</time>
      </trkpt>
      <trkpt lat="43.6446" lon="1.37933">
        <ele>150</ele>
        <time>2023-09-10T07:40:56Z</time>
      </trkpt>
      <trkpt lat="43.64461" lon="1.37935">
        <ele>150</ele>
        <time>2023-09-10T07:40:57Z</time>
      </trkpt>
      <trkpt lat="43.64462" lon="1.37938">
        <ele>150</ele>
        <time>2023-09-10T07:40:58Z</time>
      </trkpt>
      <trkpt lat="43.64462" lon="1.37938">
        <ele>150</ele>
        <time>2023-09-10T07:40:59Z</time>
      </trkpt>
      <trkpt lat="43.64464" lon="1.37941">
        <ele>149</ele>
        <time>2023-09-10T07:41:00Z</time>
      </trkpt>
      <trkpt lat="43.64464" lon="1.37941">
        <ele>149</ele>
        <time>2023-09-10T07:41:01Z</time>
      </trkpt>
      <trkpt lat="43.64466" lon="1.37944">
        <ele>149</ele>
        <time>2023-09-10T07:41:02Z</time>
      </trkpt>
      <trkpt lat="43.64466" lon="1.37944">
        <ele>149</ele>
        <time>2023-09-10T07:41:03Z</time>
      </trkpt>
      <trkpt lat="43.64469" lon="1.37946">
        <ele>149</ele>
        <time>2023-09-10T07:41:04Z</time>
      </trkpt>
      <trkpt lat="43.64471" lon="1.37948">
        <ele>150</ele>
        <time>2023-09-10T07:41:06Z</time>
      </trkpt>
      <trkpt lat="43.64471" lon="1.37948">
        <ele>149</ele>
        <time>2023-09-10T07:41:07Z</time>
      </trkpt>
      <trkpt lat="43.64474" lon="1.37949">
        <ele>149</ele>
        <time>2023-09-10T07:41:08Z</time>
      </trkpt>
      <trkpt lat="43.64474" lon="1.37949">
        <ele>149</ele>
        <time>2023-09-10T07:41:09Z</time>
      </trkpt>
      <trkpt lat="43.64479" lon="1.37951">
        <ele>149</ele>
        <time>2023-09-10T07:41:11Z</time>
      </trkpt>
      <trkpt lat="43.64481" lon="1.37952">
        <ele>149</ele>
        <time>2023-09-10T07:41:12Z</time>
      </trkpt>
      <trkpt lat="43.64483" lon="1.37953">
        <ele>149</ele>
        <time>2023-09-10T07:41:13Z</time>
      </trkpt>
      <trkpt lat="43.64485" lon="1.37955">
        <ele>149</ele>
        <time>2023-09-10T07:41:14Z</time>
      </trkpt>
      <trkpt lat="43.64487" lon="1.37956">
        <ele>149</ele>
        <time>2023-09-10T07:41:15Z</time>
      </trkpt>
      <trkpt lat="43.64487" lon="1.37956">
        <ele>149</ele>
        <time>2023-09-10T07:41:16Z</time>
      </trkpt>
      <trkpt lat="43.64493" lon="1.37958">
        <ele>149</ele>
        <time>2023-09-10T07:41:17Z</time>
      </trkpt>
      <trkpt lat="43.64496" lon="1.3796">
        <ele>149</ele>
        <time>2023-09-10T07:41:18Z</time>
      </trkpt>
      <trkpt lat="43.645" lon="1.37962">
        <ele>149</ele>
        <time>2023-09-10T07:41:19Z</time>
      </trkpt>
      <trkpt lat="43.64503" lon="1.37964">
        <ele>149</ele>
        <time>2023-09-10T07:41:20Z</time>
      </trkpt>
      <trkpt lat="43.64503" lon="1.37964">
        <ele>149</ele>
        <time>2023-09-10T07:41:21Z</time>
      </trkpt>
      <trkpt lat="43.6451" lon="1.37969">
        <ele>149</ele>
        <time>2023-09-10T07:41:22Z</time>
      </trkpt>
      <trkpt lat="43.6451" lon="1.37969">
        <ele>149</ele>
        <time>2023-09-10T07:41:23Z</time>
      </trkpt>
      <trkpt lat="43.64517" lon="1.37974">
        <ele>149</ele>
        <time>2023-09-10T07:41:24Z</time>
      </trkpt>
      <trkpt lat="43.64521" lon="1.37976">
        <ele>149</ele>
        <time>2023-09-10T07:41:25Z</time>
      </trkpt>
      <trkpt lat="43.64521" lon="1.37976">
        <ele>150</ele>
        <time>2023-09-10T07:41:26Z</time>
      </trkpt>
      <trkpt lat="43.64528" lon="1.3798">
        <ele>150</ele>
        <time>2023-09-10T07:41:27Z</time>
      </trkpt>
      <trkpt lat="43.64528" lon="1.3798">
        <ele>150</ele>
        <time>2023-09-10T07:41:28Z</time>
      </trkpt>
      <trkpt lat="43.64536" lon="1.37982">
        <ele>150</ele>
        <time>2023-09-10T07:41:29Z</time>
      </trkpt>
      <trkpt lat="43.6454" lon="1.37983">
        <ele>149</ele>
        <time>2023-09-10T07:41:30Z</time>
      </trkpt>
      <trkpt lat="43.64544" lon="1.37982">
        <ele>149</ele>
        <time>2023-09-10T07:41:31Z</time>
      </trkpt>
      <trkpt lat="43.64548" lon="1.37981">
        <ele>149</ele>
        <time>2023-09-10T07:41:32Z</time>
      </trkpt>
      <trkpt lat="43.64551" lon="1.3798">
        <ele>149</ele>
        <time>2023-09-10T07:41:33Z</time>
      </trkpt>
      <trkpt lat="43.64555" lon="1.37978">
        <ele>149</ele>
        <time>2023-09-10T07:41:34Z</time>
      </trkpt>
      <trkpt lat="43.64555" lon="1.37978">
        <ele>149</ele>
        <time>2023-09-10T07:41:35Z</time>
      </trkpt>
      <trkpt lat="43.64561" lon="1.37971">
        <ele>149</ele>
        <time>2023-09-10T07:41:36Z</time>
      </trkpt>
      <trkpt lat="43.64565" lon="1.37964">
        <ele>150</ele>
        <time>2023-09-10T07:41:38Z</time>
      </trkpt>
      <trkpt lat="43.64566" lon="1.3796">
        <ele>150</ele>
        <time>2023-09-10T07:41:39Z</time>
      </trkpt>
      <trkpt lat="43.64568" lon="1.37955">
        <ele>150</ele>
        <time>2023-09-10T07:41:40Z</time>
      </trkpt>
      <trkpt lat="43.64568" lon="1.37951">
        <ele>150</ele>
        <time>2023-09-10T07:41:41Z</time>
      </trkpt>
      <trkpt lat="43.64569" lon="1.37947">
        <ele>149</ele>
        <time>2023-09-10T07:41:42Z</time>
      </trkpt>
      <trkpt lat="43.64569" lon="1.37942">
        <ele>149</ele>
        <time>2023-09-10T07:41:43Z</time>
      </trkpt>
      <trkpt lat="43.64568" lon="1.37937">
        <ele>149</ele>
        <time>2023-09-10T07:41:44Z</time>
      </trkpt>
      <trkpt lat="43.64567" lon="1.37932">
        <ele>149</ele>
        <time>2023-09-10T07:41:45Z</time>
      </trkpt>
      <trkpt lat="43.64566" lon="1.37928">
        <ele>149</ele>
        <time>2023-09-10T07:41:46Z</time>
      </trkpt>
      <trkpt lat="43.64565" lon="1.37925">
        <ele>149</ele>
        <time>2023-09-10T07:41:47Z</time>
      </trkpt>
      <trkpt lat="43.64562" lon="1.37919">
        <ele>149</ele>
        <time>2023-09-10T07:41:49Z</time>
      </trkpt>
      <trkpt lat="43.64561" lon="1.37917">
        <ele>149</ele>
        <time>2023-09-10T07:41:50Z</time>
      </trkpt>
      <trkpt lat="43.64561" lon="1.37917">
        <ele>149</ele>
        <time>2023-09-10T07:41:51Z</time>
      </trkpt>
      <trkpt lat="43.64559" lon="1.37913">
        <ele>149</ele>
        <time>2023-09-10T07:41:52Z</time>
      </trkpt>
      <trkpt lat="43.64559" lon="1.37913">
        <ele>149</ele>
        <time>2023-09-10T07:41:53Z</time>
      </trkpt>
      <trkpt lat="43.64559" lon="1.37913">
        <ele>149</ele>
        <time>2023-09-10T07:41:54Z</time>
      </trkpt>
      <trkpt lat="43.64556" lon="1.3791">
        <ele>149</ele>
        <time>2023-09-10T07:41:55Z</time>
      </trkpt>
      <trkpt lat="43.64554" lon="1.37907">
        <ele>149</ele>
        <time>2023-09-10T07:41:56Z</time>
      </trkpt>
      <trkpt lat="43.64554" lon="1.37907">
        <ele>149</ele>
        <time>2023-09-10T07:41:57Z</time>
      </trkpt>
      <trkpt lat="43.64551" lon="1.37905">
        <ele>149</ele>
        <time>2023-09-10T07:41:58Z</time>
      </trkpt>
      <trkpt lat="43.64551" lon="1.37905">
        <ele>149</ele>
        <time>2023-09-10T07:41:59Z</time>
      </trkpt>
      <trkpt lat="43.64548" lon="1.37903">
        <ele>149</ele>
        <time>2023-09-10T07:42:00Z</time>
      </trkpt>
      <trkpt lat="43.64547" lon="1.37903">
        <ele>149</ele>
        <time>2023-09-10T07:42:01Z</time>
      </trkpt>
      <trkpt lat="43.64547" lon="1.37903">
        <ele>149</ele>
        <time>2023-09-10T07:42:02Z</time>
      </trkpt>
      <trkpt lat="43.64543" lon="1.37901">
        <ele>149</ele>
        <time>2023-09-10T07:42:03Z</time>
      </trkpt>
      <trkpt lat="43.64541" lon="1.37899">
        <ele>149</ele>
        <time>2023-09-10T07:42:04Z</time>
      </trkpt>
      <trkpt lat="43.64541" lon="1.37899">
        <ele>148</ele>
        <time>2023-09-10T07:42:05Z</time>
      </trkpt>
      <trkpt lat="43.64539" lon="1.37897">
        <ele>148</ele>
        <time>2023-09-10T07:42:06Z</time>
      </trkpt>
      <trkpt lat="43.64536" lon="1.37895">
        <ele>149</ele>
        <time>2023-09-10T07:42:08Z</time>
      </trkpt>
      <trkpt lat="43.64536" lon="1.37895">
        <ele>149</ele>
        <time>2023-09-10T07:42:09Z</time>
      </trkpt>
      <trkpt lat="43.64533" lon="1.37893">
        <ele>149</ele>
        <time>2023-09-10T07:42:10Z</time>
      </trkpt>
      <trkpt lat="43.64533" lon="1.37893">
        <ele>149</ele>
        <time>2023-09-10T07:42:11Z</time>
      </trkpt>
      <trkpt lat="43.6453" lon="1.37891">
        <ele>149</ele>
        <time>2023-09-10T07:42:12Z</time>
      </trkpt>
      <trkpt lat="43.6453" lon="1.37891">
        <ele>149</ele>
        <time>2023-09-10T07:42:13Z</time>
      </trkpt>
      <trkpt lat="43.64527" lon="1.37889">
        <ele>149</ele>
        <time>2023-09-10T07:42:14Z</time>
      </trkpt>
      <trkpt lat="43.64527" lon="1.37889">
        <ele>149</ele>
        <time>2023-09-10T07:42:15Z</time>
      </trkpt>
      <trkpt lat="43.64521" lon="1.37886">
        <ele>149</ele>
        <time>2023-09-10T07:42:16Z</time>
      </trkpt>
      <trkpt lat="43.64518" lon="1.37884">
        <ele>149</ele>
        <time>2023-09-10T07:42:17Z</time>
      </trkpt>
      <trkpt lat="43.64514" lon="1.37881">
        <ele>150</ele>
        <time>2023-09-10T07:42:18Z</time>
      </trkpt>
      <trkpt lat="43.64511" lon="1.37878">
        <ele>150</ele>
        <time>2023-09-10T07:42:19Z</time>
      </trkpt>
      <trkpt lat="43.64503" lon="1.37874">
        <ele>149</ele>
        <time>2023-09-10T07:42:21Z</time>
      </trkpt>
      <trkpt lat="43.64499" lon="1.37871">
        <ele>149</ele>
        <time>2023-09-10T07:42:22Z</time>
      </trkpt>
      <trkpt lat="43.64496" lon="1.37869">
        <ele>149</ele>
        <time>2023-09-10T07:42:23Z</time>
      </trkpt>
      <trkpt lat="43.64492" lon="1.37867">
        <ele>149</ele>
        <time>2023-09-10T07:42:24Z</time>
      </trkpt>
      <trkpt lat="43.64489" lon="1.37865">
        <ele>150</ele>
        <time>2023-09-10T07:42:25Z</time>
      </trkpt>
      <trkpt lat="43.64482" lon="1.37865">
        <ele>150</ele>
        <time>2023-09-10T07:42:27Z</time>
      </trkpt>
      <trkpt lat="43.64478" lon="1.37867">
        <ele>150</ele>
        <time>2023-09-10T07:42:28Z</time>
      </trkpt>
      <trkpt lat="43.64474" lon="1.37869">
        <ele>150</ele>
        <time>2023-09-10T07:42:29Z</time>
      </trkpt>
      <trkpt lat="43.64471" lon="1.37871">
        <ele>150</ele>
        <time>2023-09-10T07:42:30Z</time>
      </trkpt>
      <trkpt lat="43.64468" lon="1.37874">
        <ele>150</ele>
        <time>2023-09-10T07:42:31Z</time>
      </trkpt>
      <trkpt lat="43.64468" lon="1.37874">
        <ele>150</ele>
        <time>2023-09-10T07:42:32Z</time>
      </trkpt>
      <trkpt lat="43.64463" lon="1.37882">
        <ele>150</ele>
        <time>2023-09-10T07:42:33Z</time>
      </trkpt>
      <trkpt lat="43.6446" lon="1.37886">
        <ele>150</ele>
        <time>2023-09-10T07:42:34Z</time>
      </trkpt>
      <trkpt lat="43.64459" lon="1.37891">
        <ele>150</ele>
        <time>2023-09-10T07:42:35Z</time>
      </trkpt>
      <trkpt lat="43.64457" lon="1.37897">
        <ele>150</ele>
        <time>2023-09-10T07:42:36Z</time>
      </trkpt>
      <trkpt lat="43.64456" lon="1.37902">
        <ele>150</ele>
        <time>2023-09-10T07:42:37Z</time>
      </trkpt>
      <trkpt lat="43.64455" lon="1.37908">
        <ele>150</ele>
        <time>2023-09-10T07:42:38Z</time>
      </trkpt>
      <trkpt lat="43.64456" lon="1.37914">
        <ele>150</ele>
        <time>2023-09-10T07:42:39Z</time>
      </trkpt>
      <trkpt lat="43.64456" lon="1.37919">
        <ele>150</ele>
        <time>2023-09-10T07:42:40Z</time>
      </trkpt>
      <trkpt lat="43.64457" lon="1.37924">
        <ele>149</ele>
        <time>2023-09-10T07:42:41Z</time>
      </trkpt>
      <trkpt lat="43.64458" lon="1.37929">
        <ele>149</ele>
        <time>2023-09-10T07:42:42Z</time>
      </trkpt>
      <trkpt lat="43.64459" lon="1.37934">
        <ele>149</ele>
        <time>2023-09-10T07:42:43Z</time>
      </trkpt>
      <trkpt lat="43.64461" lon="1.37938">
        <ele>149</ele>
        <time>2023-09-10T07:42:44Z</time>
      </trkpt>
      <trkpt lat="43.64465" lon="1.37945">
        <ele>149</ele>
        <time>2023-09-10T07:42:46Z</time>
      </trkpt>
      <trkpt lat="43.64467" lon="1.37947">
        <ele>149</ele>
        <time>2023-09-10T07:42:47Z</time>
      </trkpt>
      <trkpt lat="43.64467" lon="1.37947">
        <ele>149</ele>
        <time>2023-09-10T07:42:48Z</time>
      </trkpt>
      <trkpt lat="43.64471" lon="1.37949">
        <ele>149</ele>
        <time>2023-09-10T07:42:49Z</time>
      </trkpt>
      <trkpt lat="43.64473" lon="1.3795">
        <ele>149</ele>
        <time>2023-09-10T07:42:50Z</time>
      </trkpt>
      <trkpt lat="43.64475" lon="1.37952">
        <ele>149</ele>
        <time>2023-09-10T07:42:52Z</time>
      </trkpt>
      <trkpt lat="43.64477" lon="1.37953">
        <ele>149</ele>
        <time>2023-09-10T07:42:53Z</time>
      </trkpt>
      <trkpt lat="43.64477" lon="1.37953">
        <ele>149</ele>
        <time>2023-09-10T07:42:54Z</time>
      </trkpt>
      <trkpt lat="43.64479" lon="1.37954">
        <ele>149</ele>
        <time>2023-09-10T07:42:55Z</time>
      </trkpt>
      <trkpt lat="43.64482" lon="1.37956">
        <ele>149</ele>
        <time>2023-09-10T07:42:56Z</time>
      </trkpt>
      <trkpt lat="43.64482" lon="1.37956">
        <ele>149</ele>
        <time>2023-09-10T07:42:57Z</time>
      </trkpt>
      <trkpt lat="43.64484" lon="1.37958">
        <ele>149</ele>
        <time>2023-09-10T07:42:58Z</time>
      </trkpt>
      <trkpt lat="43.64484" lon="1.37958">
        <ele>149</ele>
        <time>2023-09-10T07:42:59Z</time>
      </trkpt>
      <trkpt lat="43.64487" lon="1.3796">
        <ele>149</ele>
        <time>2023-09-10T07:43:00Z</time>
      </trkpt>
      <trkpt lat="43.64487" lon="1.3796">
        <ele>149</ele>
        <time>2023-09-10T07:43:01Z</time>
      </trkpt>
      <trkpt lat="43.6449" lon="1.3796">
        <ele>149</ele>
        <time>2023-09-10T07:43:02Z</time>
      </trkpt>
      <trkpt lat="43.6449" lon="1.3796">
        <ele>149</ele>
        <time>2023-09-10T07:43:03Z</time>
      </trkpt>
      <trkpt lat="43.64494" lon="1.37962">
        <ele>149</ele>
        <time>2023-09-10T07:43:05Z</time>
      </trkpt>
      <trkpt lat="43.64497" lon="1.37963">
        <ele>149</ele>
        <time>2023-09-10T07:43:06Z</time>
      </trkpt>
      <trkpt lat="43.64498" lon="1.37965">
        <ele>149</ele>
        <time>2023-09-10T07:43:07Z</time>
      </trkpt>
      <trkpt lat="43.64498" lon="1.37965">
        <ele>149</ele>
        <time>2023-09-10T07:43:08Z</time>
      </trkpt>
      <trkpt lat="43.64501" lon="1.37967">
        <ele>149</ele>
        <time>2023-09-10T07:43:09Z</time>
      </trkpt>
      <trkpt lat="43.64501" lon="1.37967">
        <ele>149</ele>
        <time>2023-09-10T07:43:10Z</time>
      </trkpt>
      <trkpt lat="43.64504" lon="1.37968">
        <ele>149</ele>
        <time>2023-09-10T07:43:11Z</time>
      </trkpt>
      <trkpt lat="43.64506" lon="1.37969">
        <ele>149</ele>
        <time>2023-09-10T07:43:12Z</time>
      </trkpt>
      <trkpt lat="43.64509" lon="1.37971">
        <ele>150</ele>
        <time>2023-09-10T07:43:14Z</time>
      </trkpt>
      <trkpt lat="43.64511" lon="1.37972">
        <ele>150</ele>
        <time>2023-09-10T07:43:15Z</time>
      </trkpt>
      <trkpt lat="43.64514" lon="1.37973">
        <ele>149</ele>
        <time>2023-09-10T07:43:16Z</time>
      </trkpt>
      <trkpt lat="43.64517" lon="1.37975">
        <ele>149</ele>
        <time>2023-09-10T07:43:17Z</time>
      </trkpt>
      <trkpt lat="43.64521" lon="1.37977">
        <ele>149</ele>
        <time>2023-09-10T07:43:18Z</time>
      </trkpt>
      <trkpt lat="43.64525" lon="1.37979">
        <ele>149</ele>
        <time>2023-09-10T07:43:19Z</time>
      </trkpt>
      <trkpt lat="43.64529" lon="1.37981">
        <ele>149</ele>
        <time>2023-09-10T07:43:20Z</time>
      </trkpt>
      <trkpt lat="43.64533" lon="1.37983">
        <ele>149</ele>
        <time>2023-09-10T07:43:21Z</time>
      </trkpt>
      <trkpt lat="43.64537" lon="1.37983">
        <ele>149</ele>
        <time>2023-09-10T07:43:22Z</time>
      </trkpt>
      <trkpt lat="43.64546" lon="1.37982">
        <ele>149</ele>
        <time>2023-09-10T07:43:24Z</time>
      </trkpt>
      <trkpt lat="43.6455" lon="1.37981">
        <ele>149</ele>
        <time>2023-09-10T07:43:25Z</time>
      </trkpt>
      <trkpt lat="43.64554" lon="1.37978">
        <ele>149</ele>
        <time>2023-09-10T07:43:26Z</time>
      </trkpt>
      <trkpt lat="43.64562" lon="1.37971">
        <ele>150</ele>
        <time>2023-09-10T07:43:28Z</time>
      </trkpt>
      <trkpt lat="43.64564" lon="1.37967">
        <ele>150</ele>
        <time>2023-09-10T07:43:29Z</time>
      </trkpt>
      <trkpt lat="43.64566" lon="1.37963">
        <ele>149</ele>
        <time>2023-09-10T07:43:30Z</time>
      </trkpt>
      <trkpt lat="43.64568" lon="1.37959">
        <ele>149</ele>
        <time>2023-09-10T07:43:31Z</time>
      </trkpt>
      <trkpt lat="43.6457" lon="1.37954">
        <ele>149</ele>
        <time>2023-09-10T07:43:32Z</time>
      </trkpt>
      <trkpt lat="43.64571" lon="1.37949">
        <ele>149</ele>
        <time>2023-09-10T07:43:33Z</time>
      </trkpt>
      <trkpt lat="43.64571" lon="1.37944">
        <ele>149</ele>
        <time>2023-09-10T07:43:34Z</time>
      </trkpt>
      <trkpt lat="43.6457" lon="1.37939">
        <ele>148</ele>
        <time>2023-09-10T07:43:35Z</time>
      </trkpt>
      <trkpt lat="43.6457" lon="1.37939">
        <ele>149</ele>
        <time>2023-09-10T07:43:36Z</time>
      </trkpt>
      <trkpt lat="43.64567" lon="1.37928">
        <ele>149</ele>
        <time>2023-09-10T07:43:37Z</time>
      </trkpt>
      <trkpt lat="43.64564" lon="1.37924">
        <ele>149</ele>
        <time>2023-09-10T07:43:38Z</time>
      </trkpt>
      <trkpt lat="43.64561" lon="1.37919">
        <ele>149</ele>
        <time>2023-09-10T07:43:39Z</time>
      </trkpt>
      <trkpt lat="43.64555" lon="1.37911">
        <ele>149</ele>
        <time>2023-09-10T07:43:41Z</time>
      </trkpt>
      <trkpt lat="43.64548" lon="1.37904">
        <ele>149</ele>
        <time>2023-09-10T07:43:43Z</time>
      </trkpt>
      <trkpt lat="43.64545" lon="1.37901">
        <ele>149</ele>
        <time>2023-09-10T07:43:44Z</time>
      </trkpt>
      <trkpt lat="43.64541" lon="1.37899">
        <ele>149</ele>
        <time>2023-09-10T07:43:45Z</time>
      </trkpt>
      <trkpt lat="43.64539" lon="1.37898">
        <ele>149</ele>
        <time>2023-09-10T07:43:46Z</time>
      </trkpt>
      <trkpt lat="43.64537" lon="1.37897">
        <ele>148</ele>
        <time>2023-09-10T07:43:47Z</time>
      </trkpt>
      <trkpt lat="43.64535" lon="1.37896">
        <ele>148</ele>
        <time>2023-09-10T07:43:48Z</time>
      </trkpt>
      <trkpt lat="43.64535" lon="1.37896">
        <ele>148</ele>
        <time>2023-09-10T07:43:49Z</time>
      </trkpt>
      <trkpt lat="43.64535" lon="1.37896">
        <ele>148</ele>
        <time>2023-09-10T07:43:50Z</time>
      </trkpt>
      <trkpt lat="43.64532" lon="1.37894">
        <ele>148</ele>
        <time>2023-09-10T07:43:51Z</time>
      </trkpt>
      <trkpt lat="43.64532" lon="1.37894">
        <ele>148</ele>
        <time>2023-09-10T07:43:52Z</time>
      </trkpt>
      <trkpt lat="43.64529" lon="1.37892">
        <ele>148</ele>
        <time>2023-09-10T07:43:53Z</time>
      </trkpt>
      <trkpt lat="43.64526" lon="1.3789">
        <ele>148</ele>
        <time>2023-09-10T07:43:54Z</time>
      </trkpt>
      <trkpt lat="43.64526" lon="1.3789">
        <ele>148</ele>
        <time>2023-09-10T07:43:55Z</time>
      </trkpt>
      <trkpt lat="43.64524" lon="1.37888">
        <ele>148</ele>
        <time>2023-09-10T07:43:56Z</time>
      </trkpt>
      <trkpt lat="43.64524" lon="1.37888">
        <ele>148</ele>
        <time>2023-09-10T07:43:57Z</time>
      </trkpt>
      <trkpt lat="43.64521" lon="1.37886">
        <ele>149</ele>
        <time>2023-09-10T07:43:58Z</time>
      </trkpt>
      <trkpt lat="43.64518" lon="1.37884">
        <ele>148</ele>
        <time>2023-09-10T07:44:00Z</time>
      </trkpt>
      <trkpt lat="43.64516" lon="1.37883">
        <ele>148</ele>
        <time>2023-09-10T07:44:02Z</time>
      </trkpt>
      <trkpt lat="43.64516" lon="1.37883">
        <ele>148</ele>
        <time>2023-09-10T07:44:03Z</time>
      </trkpt>
      <trkpt lat="43.64513" lon="1.37881">
        <ele>148</ele>
        <time>2023-09-10T07:44:04Z</time>
      </trkpt>
      <trkpt lat="43.64513" lon="1.37881">
        <ele>148</ele>
        <time>2023-09-10T07:44:05Z</time>
      </trkpt>
      <trkpt lat="43.64513" lon="1.37881">
        <ele>148</ele>
        <time>2023-09-10T07:44:06Z</time>
      </trkpt>
      <trkpt lat="43.6451" lon="1.37879">
        <ele>149</ele>
        <time>2023-09-10T07:44:07Z</time>
      </trkpt>
      <trkpt lat="43.64506" lon="1.37876">
        <ele>149</ele>
        <time>2023-09-10T07:44:08Z</time>
      </trkpt>
      <trkpt lat="43.64506" lon="1.37876">
        <ele>149</ele>
        <time>2023-09-10T07:44:09Z</time>
      </trkpt>
      <trkpt lat="43.64503" lon="1.37875">
        <ele>149</ele>
        <time>2023-09-10T07:44:10Z</time>
      </trkpt>
      <trkpt lat="43.64503" lon="1.37875">
        <ele>149</ele>
        <time>2023-09-10T07:44:11Z</time>
      </trkpt>
      <trkpt lat="43.64501" lon="1.37874">
        <ele>149</ele>
        <time>2023-09-10T07:44:12Z</time>
      </trkpt>
      <trkpt lat="43.64501" lon="1.37874">
        <ele>149</ele>
        <time>2023-09-10T07:44:13Z</time>
      </trkpt>
      <trkpt lat="43.64498" lon="1.37872">
        <ele>149</ele>
        <time>2023-09-10T07:44:14Z</time>
      </trkpt>
      <trkpt lat="43.64496" lon="1.37871">
        <ele>149</ele>
        <time>2023-09-10T07:44:15Z</time>
      </trkpt>
      <trkpt lat="43.64494" lon="1.3787">
        <ele>149</ele>
        <time>2023-09-10T07:44:16Z</time>
      </trkpt>
      <trkpt lat="43.64491" lon="1.37868">
        <ele>149</ele>
        <time>2023-09-10T07:44:17Z</time>
      </trkpt>
      <trkpt lat="43.64487" lon="1.37867">
        <ele>149</ele>
        <time>2023-09-10T07:44:18Z</time>
      </trkpt>
      <trkpt lat="43.64483" lon="1.37867">
        <ele>148</ele>
        <time>2023-09-10T07:44:19Z</time>
      </trkpt>
      <trkpt lat="43.64475" lon="1.37868">
        <ele>148</ele>
        <time>2023-09-10T07:44:21Z</time>
      </trkpt>
      <trkpt lat="43.64468" lon="1.37874">
        <ele>148</ele>
        <time>2023-09-10T07:44:23Z</time>
      </trkpt>
      <trkpt lat="43.64468" lon="1.37874">
        <ele>148</ele>
        <time>2023-09-10T07:44:24Z</time>
      </trkpt>
      <trkpt lat="43.64463" lon="1.37882">
        <ele>149</ele>
        <time>2023-09-10T07:44:25Z</time>
      </trkpt>
      <trkpt lat="43.64461" lon="1.37887">
        <ele>149</ele>
        <time>2023-09-10T07:44:26Z</time>
      </trkpt>
      <trkpt lat="43.64459" lon="1.37895">
        <ele>149</ele>
        <time>2023-09-10T07:44:27Z</time>
      </trkpt>
      <trkpt lat="43.64457" lon="1.37901">
        <ele>149</ele>
        <time>2023-09-10T07:44:28Z</time>
      </trkpt>
      <trkpt lat="43.64456" lon="1.37907">
        <ele>149</ele>
        <time>2023-09-10T07:44:29Z</time>
      </trkpt>
      <trkpt lat="43.64456" lon="1.37913">
        <ele>149</ele>
        <time>2023-09-10T07:44:30Z</time>
      </trkpt>
      <trkpt lat="43.64456" lon="1.37913">
        <ele>150</ele>
        <time>2023-09-10T07:44:31Z</time>
      </trkpt>
      <trkpt lat="43.64457" lon="1.37924">
        <ele>150</ele>
        <time>2023-09-10T07:44:32Z</time>
      </trkpt>
      <trkpt lat="43.64458" lon="1.3793">
        <ele>149</ele>
        <time>2023-09-10T07:44:33Z</time>
      </trkpt>
      <trkpt lat="43.64461" lon="1.37939">
        <ele>150</ele>
        <time>2023-09-10T07:44:35Z</time>
      </trkpt>
      <trkpt lat="43.64464" lon="1.37943">
        <ele>150</ele>
        <time>2023-09-10T07:44:36Z</time>
      </trkpt>
      <trkpt lat="43.64467" lon="1.37946">
        <ele>150</ele>
        <time>2023-09-10T07:44:37Z</time>
      </trkpt>
      <trkpt lat="43.6447" lon="1.37949">
        <ele>150</ele>
        <time>2023-09-10T07:44:38Z</time>
      </trkpt>
      <trkpt lat="43.64478" lon="1.37954">
        <ele>149</ele>
        <time>2023-09-10T07:44:40Z</time>
      </trkpt>
      <trkpt lat="43.64482" lon="1.37957">
        <ele>149</ele>
        <time>2023-09-10T07:44:41Z</time>
      </trkpt>
      <trkpt lat="43.64485" lon="1.3796">
        <ele>149</ele>
        <time>2023-09-10T07:44:42Z</time>
      </trkpt>
      <trkpt lat="43.64489" lon="1.37962">
        <ele>149</ele>
        <time>2023-09-10T07:44:43Z</time>
      </trkpt>
      <trkpt lat="43.64493" lon="1.37964">
        <ele>149</ele>
        <time>2023-09-10T07:44:44Z</time>
      </trkpt>
      <trkpt lat="43.64493" lon="1.37964">
        <ele>149</ele>
        <time>2023-09-10T07:44:45Z</time>
      </trkpt>
      <trkpt lat="43.64499" lon="1.37967">
        <ele>149</ele>
        <time>2023-09-10T07:44:46Z</time>
      </trkpt>
      <trkpt lat="43.64502" lon="1.37968">
        <ele>148</ele>
        <time>2023-09-10T07:44:47Z</time>
      </trkpt>
      <trkpt lat="43.64504" lon="1.3797">
        <ele>148</ele>
        <time>2023-09-10T07:44:48Z</time>
      </trkpt>
      <trkpt lat="43.64506" lon="1.3797">
        <ele>148</ele>
        <time>2023-09-10T07:44:49Z</time>
      </trkpt>
      <trkpt lat="43.64508" lon="1.37971">
        <ele>148</ele>
        <time>2023-09-10T07:44:50Z</time>
      </trkpt>
      <trkpt lat="43.64508" lon="1.37971">
        <ele>148</ele>
        <time>2023-09-10T07:44:51Z</time>
      </trkpt>
      <trkpt lat="43.64511" lon="1.37973">
        <ele>148</ele>
        <time>2023-09-10T07:44:52Z</time>
      </trkpt>
      <trkpt lat="43.64511" lon="1.37973">
        <ele>148</ele>
        <time>2023-09-10T07:44:53Z</time>
      </trkpt>
      <trkpt lat="43.64514" lon="1.37975">
        <ele>148</ele>
        <time>2023-09-10T07:44:54Z</time>
      </trkpt>
      <trkpt lat="43.64514" lon="1.37975">
        <ele>149</ele>
        <time>2023-09-10T07:44:55Z</time>
      </trkpt>
      <trkpt lat="43.64516" lon="1.37978">
        <ele>149</ele>
        <time>2023-09-10T07:44:56Z</time>
      </trkpt>
      <trkpt lat="43.64516" lon="1.37978">
        <ele>149</ele>
        <time>2023-09-10T07:44:57Z</time>
      </trkpt>
      <trkpt lat="43.64518" lon="1.3798">
        <ele>149</ele>
        <time>2023-09-10T07:44:58Z</time>
      </trkpt>
      <trkpt lat="43.6452" lon="1.37982">
        <ele>149</ele>
        <time>2023-09-10T07:44:59Z</time>
      </trkpt>
      <trkpt lat="43.6452" lon="1.37982">
        <ele>149</ele>
        <time>2023-09-10T07:45:00Z</time>
      </trkpt>
      <trkpt lat="43.64523" lon="1.37983">
        <ele>149</ele>
        <time>2023-09-10T07:45:01Z</time>
      </trkpt>
      <trkpt lat="43.64523" lon="1.37983">
        <ele>149</ele>
        <time>2023-09-10T07:45:02Z</time>
      </trkpt>
      <trkpt lat="43.64526" lon="1.37984">
        <ele>149</ele>
        <time>2023-09-10T07:45:03Z</time>
      </trkpt>
      <trkpt lat="43.64526" lon="1.37984">
        <ele>149</ele>
        <time>2023-09-10T07:45:04Z</time>
      </trkpt>
      <trkpt lat="43.64526" lon="1.37984">
        <ele>149</ele>
        <time>2023-09-10T07:45:05Z</time>
      </trkpt>
      <trkpt lat="43.64531" lon="1.37985">
        <ele>149</ele>
        <time>2023-09-10T07:45:06Z</time>
      </trkpt>
      <trkpt lat="43.64531" lon="1.37985">
        <ele>149</ele>
        <time>2023-09-10T07:45:07Z</time>
      </trkpt>
      <trkpt lat="43.64535" lon="1.37985">
        <ele>149</ele>
        <time>2023-09-10T07:45:08Z</time>
      </trkpt>
      <trkpt lat="43.64537" lon="1.37985">
        <ele>149</ele>
        <time>2023-09-10T07:45:09Z</time>
      </trkpt>
      <trkpt lat="43.64539" lon="1.37985">
        <ele>149</ele>
        <time>2023-09-10T07:45:10Z</time>
      </trkpt>
      <trkpt lat="43.64541" lon="1.37984">
        <ele>149</ele>
        <time>2023-09-10T07:45:11Z</time>
      </trkpt>
      <trkpt lat="43.64541" lon="1.37984">
        <ele>149</ele>
        <time>2023-09-10T07:45:12Z</time>
      </trkpt>
      <trkpt lat="43.64543" lon="1.37984">
        <ele>149</ele>
        <time>2023-09-10T07:45:13Z</time>
      </trkpt>
      <trkpt lat="43.64547" lon="1.37983">
        <ele>149</ele>
        <time>2023-09-10T07:45:14Z</time>
      </trkpt>
      <trkpt lat="43.64549" lon="1.37982">
        <ele>149</ele>
        <time>2023-09-10T07:45:15Z</time>
      </trkpt>
      <trkpt lat="43.64551" lon="1.3798">
        <ele>148</ele>
        <time>2023-09-10T07:45:16Z</time>
      </trkpt>
      <trkpt lat="43.64558" lon="1.37973">
        <ele>149</ele>
        <time>2023-09-10T07:45:18Z</time>
      </trkpt>
      <trkpt lat="43.64561" lon="1.37969">
        <ele>149</ele>
        <time>2023-09-10T07:45:19Z</time>
      </trkpt>
      <trkpt lat="43.64561" lon="1.37969">
        <ele>148</ele>
        <time>2023-09-10T07:45:20Z</time>
      </trkpt>
      <trkpt lat="43.64567" lon="1.37961">
        <ele>148</ele>
        <time>2023-09-10T07:45:21Z</time>
      </trkpt>
      <trkpt lat="43.64569" lon="1.37956">
        <ele>148</ele>
        <time>2023-09-10T07:45:22Z</time>
      </trkpt>
      <trkpt lat="43.6457" lon="1.37951">
        <ele>148</ele>
        <time>2023-09-10T07:45:23Z</time>
      </trkpt>
      <trkpt lat="43.6457" lon="1.37944">
        <ele>148</ele>
        <time>2023-09-10T07:45:24Z</time>
      </trkpt>
      <trkpt lat="43.6457" lon="1.37939">
        <ele>148</ele>
        <time>2023-09-10T07:45:25Z</time>
      </trkpt>
      <trkpt lat="43.6457" lon="1.37933">
        <ele>148</ele>
        <time>2023-09-10T07:45:26Z</time>
      </trkpt>
      <trkpt lat="43.64566" lon="1.37922">
        <ele>149</ele>
        <time>2023-09-10T07:45:28Z</time>
      </trkpt>
      <trkpt lat="43.64566" lon="1.37922">
        <ele>149</ele>
        <time>2023-09-10T07:45:29Z</time>
      </trkpt>
      <trkpt lat="43.6456" lon="1.37913">
        <ele>149</ele>
        <time>2023-09-10T07:45:30Z</time>
      </trkpt>
      <trkpt lat="43.6456" lon="1.37913">
        <ele>148</ele>
        <time>2023-09-10T07:45:31Z</time>
      </trkpt>
      <trkpt lat="43.64553" lon="1.37905">
        <ele>148</ele>
        <time>2023-09-10T07:45:32Z</time>
      </trkpt>
      <trkpt lat="43.64549" lon="1.37903">
        <ele>148</ele>
        <time>2023-09-10T07:45:33Z</time>
      </trkpt>
      <trkpt lat="43.64546" lon="1.379">
        <ele>149</ele>
        <time>2023-09-10T07:45:34Z</time>
      </trkpt>
      <trkpt lat="43.64543" lon="1.37898">
        <ele>149</ele>
        <time>2023-09-10T07:45:35Z</time>
      </trkpt>
      <trkpt lat="43.64536" lon="1.37892">
        <ele>148</ele>
        <time>2023-09-10T07:45:37Z</time>
      </trkpt>
      <trkpt lat="43.64532" lon="1.37889">
        <ele>148</ele>
        <time>2023-09-10T07:45:38Z</time>
      </trkpt>
      <trkpt lat="43.64526" lon="1.37884">
        <ele>148</ele>
        <time>2023-09-10T07:45:40Z</time>
      </trkpt>
      <trkpt lat="43.64526" lon="1.37884">
        <ele>148</ele>
        <time>2023-09-10T07:45:41Z</time>
      </trkpt>
      <trkpt lat="43.64519" lon="1.37879">
        <ele>148</ele>
        <time>2023-09-10T07:45:42Z</time>
      </trkpt>
      <trkpt lat="43.64515" lon="1.37877">
        <ele>148</ele>
        <time>2023-09-10T07:45:43Z</time>
      </trkpt>
      <trkpt lat="43.64511" lon="1.37874">
        <ele>148</ele>
        <time>2023-09-10T07:45:44Z</time>
      </trkpt>
      <trkpt lat="43.64508" lon="1.37872">
        <ele>148</ele>
        <time>2023-09-10T07:45:45Z</time>
      </trkpt>
      <trkpt lat="43.64504" lon="1.37871">
        <ele>148</ele>
        <time>2023-09-10T07:45:46Z</time>
      </trkpt>
      <trkpt lat="43.64502" lon="1.37869">
        <ele>148</ele>
        <time>2023-09-10T07:45:47Z</time>
      </trkpt>
      <trkpt lat="43.645" lon="1.37868">
        <ele>148</ele>
        <time>2023-09-10T07:45:48Z</time>
      </trkpt>
      <trkpt lat="43.64498" lon="1.37867">
        <ele>148</ele>
        <time>2023-09-10T07:45:49Z</time>
      </trkpt>
      <trkpt lat="43.64496" lon="1.37865">
        <ele>148</ele>
        <time>2023-09-10T07:45:50Z</time>
      </trkpt>
      <trkpt lat="43.64496" lon="1.37865">
        <ele>148</ele>
        <time>2023-09-10T07:45:51Z</time>
      </trkpt>
      <trkpt lat="43.64496" lon="1.37865">
        <ele>148</ele>
        <time>2023-09-10T07:45:52Z</time>
      </trkpt>
      <trkpt lat="43.64491" lon="1.37863">
        <ele>148</ele>
        <time>2023-09-10T07:45:53Z</time>
      </trkpt>
      <trkpt lat="43.64491" lon="1.37863">
        <ele>148</ele>
        <time>2023-09-10T07:45:54Z</time>
      </trkpt>
      <trkpt lat="43.64488" lon="1.37862">
        <ele>148</ele>
        <time>2023-09-10T07:45:56Z</time>
      </trkpt>
      <trkpt lat="43.64485" lon="1.37862">
        <ele>148</ele>
        <time>2023-09-10T07:45:57Z</time>
      </trkpt>
      <trkpt lat="43.64485" lon="1.37862">
        <ele>148</ele>
        <time>2023-09-10T07:45:58Z</time>
      </trkpt>
      <trkpt lat="43.64482" lon="1.37862">
        <ele>148</ele>
        <time>2023-09-10T07:45:59Z</time>
      </trkpt>
      <trkpt lat="43.64482" lon="1.37862">
        <ele>148</ele>
        <time>2023-09-10T07:46:00Z</time>
      </trkpt>
      <trkpt lat="43.64479" lon="1.37863">
        <ele>148</ele>
        <time>2023-09-10T07:46:01Z</time>
      </trkpt>
      <trkpt lat="43.64479" lon="1.37863">
        <ele>148</ele>
        <time>2023-09-10T07:46:02Z</time>
      </trkpt>
      <trkpt lat="43.64476" lon="1.37864">
        <ele>148</ele>
        <time>2023-09-10T07:46:03Z</time>
      </trkpt>
      <trkpt lat="43.64476" lon="1.37864">
        <ele>148</ele>
        <time>2023-09-10T07:46:04Z</time>
      </trkpt>
      <trkpt lat="43.64474" lon="1.37867">
        <ele>148</ele>
        <time>2023-09-10T07:46:05Z</time>
      </trkpt>
      <trkpt lat="43.64472" lon="1.37868">
        <ele>148</ele>
        <time>2023-09-10T07:46:06Z</time>
      </trkpt>
      <trkpt lat="43.64471" lon="1.37871">
        <ele>148</ele>
        <time>2023-09-10T07:46:07Z</time>
      </trkpt>
      <trkpt lat="43.64471" lon="1.37871">
        <ele>148</ele>
        <time>2023-09-10T07:46:08Z</time>
      </trkpt>
      <trkpt lat="43.64471" lon="1.37871">
        <ele>148</ele>
        <time>2023-09-10T07:46:09Z</time>
      </trkpt>
      <trkpt lat="43.64468" lon="1.37874">
        <ele>148</ele>
        <time>2023-09-10T07:46:10Z</time>
      </trkpt>
      <trkpt lat="43.64466" lon="1.37878">
        <ele>148</ele>
        <time>2023-09-10T07:46:11Z</time>
      </trkpt>
      <trkpt lat="43.64464" lon="1.3788">
        <ele>148</ele>
        <time>2023-09-10T07:46:12Z</time>
      </trkpt>
      <trkpt lat="43.64463" lon="1.37883">
        <ele>148</ele>
        <time>2023-09-10T07:46:13Z</time>
      </trkpt>
      <trkpt lat="43.64462" lon="1.37886">
        <ele>148</ele>
        <time>2023-09-10T07:46:15Z</time>
      </trkpt>
      <trkpt lat="43.6446" lon="1.37893">
        <ele>148</ele>
        <time>2023-09-10T07:46:16Z</time>
      </trkpt>
      <trkpt lat="43.64458" lon="1.37899">
        <ele>149</ele>
        <time>2023-09-10T07:46:17Z</time>
      </trkpt>
      <trkpt lat="43.64457" lon="1.37905">
        <ele>149</ele>
        <time>2023-09-10T07:46:18Z</time>
      </trkpt>
      <trkpt lat="43.64457" lon="1.37911">
        <ele>148</ele>
        <time>2023-09-10T07:46:19Z</time>
      </trkpt>
      <trkpt lat="43.64458" lon="1.37923">
        <ele>149</ele>
        <time>2023-09-10T07:46:21Z</time>
      </trkpt>
      <trkpt lat="43.64459" lon="1.37929">
        <ele>149</ele>
        <time>2023-09-10T07:46:22Z</time>
      </trkpt>
      <trkpt lat="43.6446" lon="1.37935">
        <ele>149</ele>
        <time>2023-09-10T07:46:23Z</time>
      </trkpt>
      <trkpt lat="43.64462" lon="1.37939">
        <ele>149</ele>
        <time>2023-09-10T07:46:24Z</time>
      </trkpt>
      <trkpt lat="43.64465" lon="1.37943">
        <ele>149</ele>
        <time>2023-09-10T07:46:25Z</time>
      </trkpt>
      <trkpt lat="43.64465" lon="1.37943">
        <ele>149</ele>
        <time>2023-09-10T07:46:26Z</time>
      </trkpt>
      <trkpt lat="43.64471" lon="1.37949">
        <ele>149</ele>
        <time>2023-09-10T07:46:27Z</time>
      </trkpt>
      <trkpt lat="43.64474" lon="1.37952">
        <ele>149</ele>
        <time>2023-09-10T07:46:28Z</time>
      </trkpt>
      <trkpt lat="43.64478" lon="1.37954">
        <ele>148</ele>
        <time>2023-09-10T07:46:29Z</time>
      </trkpt>
      <trkpt lat="43.64482" lon="1.37956">
        <ele>148</ele>
        <time>2023-09-10T07:46:30Z</time>
      </trkpt>
      <trkpt lat="43.64485" lon="1.37958">
        <ele>148</ele>
        <time>2023-09-10T07:46:31Z</time>
      </trkpt>
      <trkpt lat="43.64489" lon="1.3796">
        <ele>148</ele>
        <time>2023-09-10T07:46:33Z</time>
      </trkpt>
      <trkpt lat="43.64497" lon="1.37965">
        <ele>148</ele>
        <time>2023-09-10T07:46:34Z</time>
      </trkpt>
      <trkpt lat="43.64501" lon="1.37967">
        <ele>148</ele>
        <time>2023-09-10T07:46:35Z</time>
      </trkpt>
      <trkpt lat="43.64504" lon="1.37968">
        <ele>148</ele>
        <time>2023-09-10T07:46:36Z</time>
      </trkpt>
      <trkpt lat="43.64508" lon="1.37971">
        <ele>148</ele>
        <time>2023-09-10T07:46:37Z</time>
      </trkpt>
      <trkpt lat="43.64512" lon="1.37974">
        <ele>148</ele>
        <time>2023-09-10T07:46:38Z</time>
      </trkpt>
      <trkpt lat="43.64516" lon="1.37977">
        <ele>148</ele>
        <time>2023-09-10T07:46:39Z</time>
      </trkpt>
      <trkpt lat="43.6452" lon="1.37979">
        <ele>148</ele>
        <time>2023-09-10T07:46:40Z</time>
      </trkpt>
      <trkpt lat="43.64524" lon="1.37981">
        <ele>148</ele>
        <time>2023-09-10T07:46:41Z</time>
      </trkpt>
      <trkpt lat="43.64527" lon="1.37983">
        <ele>148</ele>
        <time>2023-09-10T07:46:42Z</time>
      </trkpt>
      <trkpt lat="43.64527" lon="1.37983">
        <ele>148</ele>
        <time>2023-09-10T07:46:43Z</time>
      </trkpt>
      <trkpt lat="43.64536" lon="1.37985">
        <ele>148</ele>
        <time>2023-09-10T07:46:44Z</time>
      </trkpt>
      <trkpt lat="43.6454" lon="1.37985">
        <ele>148</ele>
        <time>2023-09-10T07:46:45Z</time>
      </trkpt>
      <trkpt lat="43.64543" lon="1.37984">
        <ele>148</ele>
        <time>2023-09-10T07:46:46Z</time>
      </trkpt>
      <trkpt lat="43.64546" lon="1.37983">
        <ele>148</ele>
        <time>2023-09-10T07:46:47Z</time>
      </trkpt>
      <trkpt lat="43.64546" lon="1.37983">
        <ele>148</ele>
        <time>2023-09-10T07:46:48Z</time>
      </trkpt>
      <trkpt lat="43.64551" lon="1.37981">
        <ele>148</ele>
        <time>2023-09-10T07:46:49Z</time>
      </trkpt>
      <trkpt lat="43.64553" lon="1.3798">
        <ele>148</ele>
        <time>2023-09-10T07:46:50Z</time>
      </trkpt>
      <trkpt lat="43.64553" lon="1.3798">
        <ele>148</ele>
        <time>2023-09-10T07:46:51Z</time>
      </trkpt>
      <trkpt lat="43.64557" lon="1.37976">
        <ele>148</ele>
        <time>2023-09-10T07:46:53Z</time>
      </trkpt>
      <trkpt lat="43.64559" lon="1.37974">
        <ele>148</ele>
        <time>2023-09-10T07:46:54Z</time>
      </trkpt>
      <trkpt lat="43.6456" lon="1.37972">
        <ele>148</ele>
        <time>2023-09-10T07:46:55Z</time>
      </trkpt>
      <trkpt lat="43.6456" lon="1.37972">
        <ele>148</ele>
        <time>2023-09-10T07:46:56Z</time>
      </trkpt>
      <trkpt lat="43.64561" lon="1.37969">
        <ele>148</ele>
        <time>2023-09-10T07:46:57Z</time>
      </trkpt>
      <trkpt lat="43.64561" lon="1.37969">
        <ele>148</ele>
        <time>2023-09-10T07:46:58Z</time>
      </trkpt>
      <trkpt lat="43.64562" lon="1.37965">
        <ele>148</ele>
        <time>2023-09-10T07:46:59Z</time>
      </trkpt>
      <trkpt lat="43.64563" lon="1.37962">
        <ele>148</ele>
        <time>2023-09-10T07:47:00Z</time>
      </trkpt>
      <trkpt lat="43.64563" lon="1.37962">
        <ele>148</ele>
        <time>2023-09-10T07:47:01Z</time>
      </trkpt>
      <trkpt lat="43.64564" lon="1.37958">
        <ele>148</ele>
        <time>2023-09-10T07:47:02Z</time>
      </trkpt>
      <trkpt lat="43.64564" lon="1.37958">
        <ele>148</ele>
        <time>2023-09-10T07:47:03Z</time>
      </trkpt>
      <trkpt lat="43.64564" lon="1.37958">
        <ele>148</ele>
        <time>2023-09-10T07:47:04Z</time>
      </trkpt>
      <trkpt lat="43.64565" lon="1.37953">
        <ele>148</ele>
        <time>2023-09-10T07:47:05Z</time>
      </trkpt>
      <trkpt lat="43.64565" lon="1.37951">
        <ele>148</ele>
        <time>2023-09-10T07:47:06Z</time>
      </trkpt>
      <trkpt lat="43.64566" lon="1.37949">
        <ele>148</ele>
        <time>2023-09-10T07:47:07Z</time>
      </trkpt>
      <trkpt lat="43.64566" lon="1.37947">
        <ele>148</ele>
        <time>2023-09-10T07:47:08Z</time>
      </trkpt>
      <trkpt lat="43.64566" lon="1.37942">
        <ele>148</ele>
        <time>2023-09-10T07:47:09Z</time>
      </trkpt>
      <trkpt lat="43.64566" lon="1.37942">
        <ele>148</ele>
        <time>2023-09-10T07:47:10Z</time>
      </trkpt>
      <trkpt lat="43.64567" lon="1.37938">
        <ele>148</ele>
        <time>2023-09-10T07:47:12Z</time>
      </trkpt>
      <trkpt lat="43.64566" lon="1.37935">
        <ele>148</ele>
        <time>2023-09-10T07:47:13Z</time>
      </trkpt>
      <trkpt lat="43.64566" lon="1.37932">
        <ele>148</ele>
        <time>2023-09-10T07:47:14Z</time>
      </trkpt>
      <trkpt lat="43.64565" lon="1.37929">
        <ele>148</ele>
        <time>2023-09-10T07:47:15Z</time>
      </trkpt>
      <trkpt lat="43.64564" lon="1.37926">
        <ele>148</ele>
        <time>2023-09-10T07:47:16Z</time>
      </trkpt>
      <trkpt lat="43.64562" lon="1.37921">
        <ele>148</ele>
        <time>2023-09-10T07:47:17Z</time>
      </trkpt>
      <trkpt lat="43.6456" lon="1.37917">
        <ele>147</ele>
        <time>2023-09-10T07:47:18Z</time>
      </trkpt>
      <trkpt lat="43.64556" lon="1.37913">
        <ele>147</ele>
        <time>2023-09-10T07:47:19Z</time>
      </trkpt>
      <trkpt lat="43.64552" lon="1.37908">
        <ele>148</ele>
        <time>2023-09-10T07:47:20Z</time>
      </trkpt>
      <trkpt lat="43.64552" lon="1.37908">
        <ele>148</ele>
        <time>2023-09-10T07:47:21Z</time>
      </trkpt>
      <trkpt lat="43.64545" lon="1.37901">
        <ele>148</ele>
        <time>2023-09-10T07:47:22Z</time>
      </trkpt>
      <trkpt lat="43.64541" lon="1.37899">
        <ele>148</ele>
        <time>2023-09-10T07:47:23Z</time>
      </trkpt>
      <trkpt lat="43.64537" lon="1.37896">
        <ele>148</ele>
        <time>2023-09-10T07:47:24Z</time>
      </trkpt>
      <trkpt lat="43.64531" lon="1.37892">
        <ele>148</ele>
        <time>2023-09-10T07:47:26Z</time>
      </trkpt>
      <trkpt lat="43.64527" lon="1.37889">
        <ele>148</ele>
        <time>2023-09-10T07:47:27Z</time>
      </trkpt>
      <trkpt lat="43.64524" lon="1.37887">
        <ele>148</ele>
        <time>2023-09-10T07:47:28Z</time>
      </trkpt>
      <trkpt lat="43.6452" lon="1.37885">
        <ele>149</ele>
        <time>2023-09-10T07:47:29Z</time>
      </trkpt>
      <trkpt lat="43.64516" lon="1.37882">
        <ele>148</ele>
        <time>2023-09-10T07:47:31Z</time>
      </trkpt>
      <trkpt lat="43.64509" lon="1.37877">
        <ele>148</ele>
        <time>2023-09-10T07:47:32Z</time>
      </trkpt>
      <trkpt lat="43.64509" lon="1.37877">
        <ele>149</ele>
        <time>2023-09-10T07:47:33Z</time>
      </trkpt>
      <trkpt lat="43.64501" lon="1.37873">
        <ele>149</ele>
        <time>2023-09-10T07:47:34Z</time>
      </trkpt>
      <trkpt lat="43.64497" lon="1.3787">
        <ele>148</ele>
        <time>2023-09-10T07:47:35Z</time>
      </trkpt>
      <trkpt lat="43.64497" lon="1.3787">
        <ele>148</ele>
        <time>2023-09-10T07:47:36Z</time>
      </trkpt>
      <trkpt lat="43.64491" lon="1.37866">
        <ele>148</ele>
        <time>2023-09-10T07:47:37Z</time>
      </trkpt>
      <trkpt lat="43.64487" lon="1.37864">
        <ele>148</ele>
        <time>2023-09-10T07:47:38Z</time>
      </trkpt>
      <trkpt lat="43.64484" lon="1.37862">
        <ele>148</ele>
        <time>2023-09-10T07:47:39Z</time>
      </trkpt>
      <trkpt lat="43.6448" lon="1.37862">
        <ele>148</ele>
        <time>2023-09-10T07:47:40Z</time>
      </trkpt>
      <trkpt lat="43.64477" lon="1.37863">
        <ele>148</ele>
        <time>2023-09-10T07:47:41Z</time>
      </trkpt>
      <trkpt lat="43.64473" lon="1.37866">
        <ele>148</ele>
        <time>2023-09-10T07:47:42Z</time>
      </trkpt>
      <trkpt lat="43.64473" lon="1.37866">
        <ele>148</ele>
        <time>2023-09-10T07:47:43Z</time>
      </trkpt>
      <trkpt lat="43.64466" lon="1.37874">
        <ele>148</ele>
        <time>2023-09-10T07:47:44Z</time>
      </trkpt>
      <trkpt lat="43.64463" lon="1.37879">
        <ele>148</ele>
        <time>2023-09-10T07:47:45Z</time>
      </trkpt>
      <trkpt lat="43.64461" lon="1.37884">
        <ele>148</ele>
        <time>2023-09-10T07:47:46Z</time>
      </trkpt>
      <trkpt lat="43.64459" lon="1.37888">
        <ele>148</ele>
        <time>2023-09-10T07:47:47Z</time>
      </trkpt>
      <trkpt lat="43.64459" lon="1.37891">
        <ele>148</ele>
        <time>2023-09-10T07:47:48Z</time>
      </trkpt>
      <trkpt lat="43.64458" lon="1.37894">
        <ele>148</ele>
        <time>2023-09-10T07:47:50Z</time>
      </trkpt>
      <trkpt lat="43.64457" lon="1.37899">
        <ele>148</ele>
        <time>2023-09-10T07:47:51Z</time>
      </trkpt>
      <trkpt lat="43.64455" lon="1.37901">
        <ele>148</ele>
        <time>2023-09-10T07:47:52Z</time>
      </trkpt>
      <trkpt lat="43.64455" lon="1.37901">
        <ele>148</ele>
        <time>2023-09-10T07:47:53Z</time>
      </trkpt>
      <trkpt lat="43.64455" lon="1.37901">
        <ele>148</ele>
        <time>2023-09-10T07:47:54Z</time>
      </trkpt>
      <trkpt lat="43.64454" lon="1.37905">
        <ele>148</ele>
        <time>2023-09-10T07:47:55Z</time>
      </trkpt>
      <trkpt lat="43.64454" lon="1.37909">
        <ele>148</ele>
        <time>2023-09-10T07:47:56Z</time>
      </trkpt>
      <trkpt lat="43.64454" lon="1.37909">
        <ele>148</ele>
        <time>2023-09-10T07:47:57Z</time>
      </trkpt>
      <trkpt lat="43.64454" lon="1.37913">
        <ele>148</ele>
        <time>2023-09-10T07:47:58Z</time>
      </trkpt>
      <trkpt lat="43.64455" lon="1.37916">
        <ele>148</ele>
        <time>2023-09-10T07:47:59Z</time>
      </trkpt>
      <trkpt lat="43.64455" lon="1.37919">
        <ele>148</ele>
        <time>2023-09-10T07:48:00Z</time>
      </trkpt>
      <trkpt lat="43.64456" lon="1.37921">
        <ele>148</ele>
        <time>2023-09-10T07:48:01Z</time>
      </trkpt>
      <trkpt lat="43.64457" lon="1.37924">
        <ele>148</ele>
        <time>2023-09-10T07:48:02Z</time>
      </trkpt>
      <trkpt lat="43.64457" lon="1.37924">
        <ele>148</ele>
        <time>2023-09-10T07:48:03Z</time>
      </trkpt>
      <trkpt lat="43.64457" lon="1.37926">
        <ele>148</ele>
        <time>2023-09-10T07:48:04Z</time>
      </trkpt>
      <trkpt lat="43.64459" lon="1.37931">
        <ele>148</ele>
        <time>2023-09-10T07:48:05Z</time>
      </trkpt>
      <trkpt lat="43.64459" lon="1.37931">
        <ele>148</ele>
        <time>2023-09-10T07:48:06Z</time>
      </trkpt>
      <trkpt lat="43.64461" lon="1.37935">
        <ele>148</ele>
        <time>2023-09-10T07:48:07Z</time>
      </trkpt>
      <trkpt lat="43.64462" lon="1.37937">
        <ele>148</ele>
        <time>2023-09-10T07:48:09Z</time>
      </trkpt>
      <trkpt lat="43.64463" lon="1.37939">
        <ele>148</ele>
        <time>2023-09-10T07:48:10Z</time>
      </trkpt>
      <trkpt lat="43.64466" lon="1.37943">
        <ele>148</ele>
        <time>2023-09-10T07:48:11Z</time>
      </trkpt>
      <trkpt lat="43.64467" lon="1.37944">
        <ele>148</ele>
        <time>2023-09-10T07:48:12Z</time>
      </trkpt>
      <trkpt lat="43.64469" lon="1.37946">
        <ele>148</ele>
        <time>2023-09-10T07:48:13Z</time>
      </trkpt>
      <trkpt lat="43.64469" lon="1.37946">
        <ele>148</ele>
        <time>2023-09-10T07:48:14Z</time>
      </trkpt>
      <trkpt lat="43.64472" lon="1.37948">
        <ele>148</ele>
        <time>2023-09-10T07:48:15Z</time>
      </trkpt>
      <trkpt lat="43.64475" lon="1.37949">
        <ele>148</ele>
        <time>2023-09-10T07:48:16Z</time>
      </trkpt>
      <trkpt lat="43.64477" lon="1.3795">
        <ele>148</ele>
        <time>2023-09-10T07:48:17Z</time>
      </trkpt>
      <trkpt lat="43.64485" lon="1.37954">
        <ele>148</ele>
        <time>2023-09-10T07:48:19Z</time>
      </trkpt>
      <trkpt lat="43.6449" lon="1.37956">
        <ele>148</ele>
        <time>2023-09-10T07:48:20Z</time>
      </trkpt>
      <trkpt lat="43.64495" lon="1.37959">
        <ele>148</ele>
        <time>2023-09-10T07:48:21Z</time>
      </trkpt>
      <trkpt lat="43.64499" lon="1.37962">
        <ele>148</ele>
        <time>2023-09-10T07:48:22Z</time>
      </trkpt>
      <trkpt lat="43.64503" lon="1.37965">
        <ele>148</ele>
        <time>2023-09-10T07:48:23Z</time>
      </trkpt>
      <trkpt lat="43.64507" lon="1.37968">
        <ele>148</ele>
        <time>2023-09-10T07:48:24Z</time>
      </trkpt>
      <trkpt lat="43.64512" lon="1.37971">
        <ele>148</ele>
        <time>2023-09-10T07:48:25Z</time>
      </trkpt>
      <trkpt lat="43.64516" lon="1.37975">
        <ele>148</ele>
        <time>2023-09-10T07:48:26Z</time>
      </trkpt>
      <trkpt lat="43.6452" lon="1.37977">
        <ele>148</ele>
        <time>2023-09-10T07:48:28Z</time>
      </trkpt>
      <trkpt lat="43.64529" lon="1.37982">
        <ele>148</ele>
        <time>2023-09-10T07:48:29Z</time>
      </trkpt>
      <trkpt lat="43.64532" lon="1.37983">
        <ele>149</ele>
        <time>2023-09-10T07:48:30Z</time>
      </trkpt>
      <trkpt lat="43.64537" lon="1.37983">
        <ele>149</ele>
        <time>2023-09-10T07:48:31Z</time>
      </trkpt>
      <trkpt lat="43.64541" lon="1.37983">
        <ele>148</ele>
        <time>2023-09-10T07:48:32Z</time>
      </trkpt>
      <trkpt lat="43.64545" lon="1.37983">
        <ele>148</ele>
        <time>2023-09-10T07:48:33Z</time>
      </trkpt>
      <trkpt lat="43.64549" lon="1.37982">
        <ele>148</ele>
        <time>2023-09-10T07:48:34Z</time>
      </trkpt>
      <trkpt lat="43.64553" lon="1.3798">
        <ele>148</ele>
        <time>2023-09-10T07:48:35Z</time>
      </trkpt>
      <trkpt lat="43.64556" lon="1.37978">
        <ele>148</ele>
        <time>2023-09-10T07:48:36Z</time>
      </trkpt>
      <trkpt lat="43.6456" lon="1.37975">
        <ele>148</ele>
        <time>2023-09-10T07:48:37Z</time>
      </trkpt>
      <trkpt lat="43.6456" lon="1.37975">
        <ele>148</ele>
        <time>2023-09-10T07:48:38Z</time>
      </trkpt>
      <trkpt lat="43.64566" lon="1.37968">
        <ele>148</ele>
        <time>2023-09-10T07:48:39Z</time>
      </trkpt>
      <trkpt lat="43.64568" lon="1.37964">
        <ele>148</ele>
        <time>2023-09-10T07:48:40Z</time>
      </trkpt>
      <trkpt lat="43.6457" lon="1.37954">
        <ele>148</ele>
        <time>2023-09-10T07:48:42Z</time>
      </trkpt>
      <trkpt lat="43.6457" lon="1.37954">
        <ele>148</ele>
        <time>2023-09-10T07:48:43Z</time>
      </trkpt>
      <trkpt lat="43.64571" lon="1.37943">
        <ele>148</ele>
        <time>2023-09-10T07:48:44Z</time>
      </trkpt>
      <trkpt lat="43.64571" lon="1.37943">
        <ele>148</ele>
        <time>2023-09-10T07:48:45Z</time>
      </trkpt>
      <trkpt lat="43.64571" lon="1.37936">
        <ele>148</ele>
        <time>2023-09-10T07:48:46Z</time>
      </trkpt>
      <trkpt lat="43.64571" lon="1.37934">
        <ele>148</ele>
        <time>2023-09-10T07:48:47Z</time>
      </trkpt>
      <trkpt lat="43.64568" lon="1.37928">
        <ele>148</ele>
        <time>2023-09-10T07:48:48Z</time>
      </trkpt>
      <trkpt lat="43.64567" lon="1.37925">
        <ele>148</ele>
        <time>2023-09-10T07:48:49Z</time>
      </trkpt>
      <trkpt lat="43.64566" lon="1.37921">
        <ele>148</ele>
        <time>2023-09-10T07:48:50Z</time>
      </trkpt>
      <trkpt lat="43.64564" lon="1.37919">
        <ele>148</ele>
        <time>2023-09-10T07:48:51Z</time>
      </trkpt>
      <trkpt lat="43.64564" lon="1.37919">
        <ele>148</ele>
        <time>2023-09-10T07:48:52Z</time>
      </trkpt>
      <trkpt lat="43.64562" lon="1.37916">
        <ele>148</ele>
        <time>2023-09-10T07:48:53Z</time>
      </trkpt>
      <trkpt lat="43.6456" lon="1.37914">
        <ele>148</ele>
        <time>2023-09-10T07:48:54Z</time>
      </trkpt>
      <trkpt lat="43.6456" lon="1.37914">
        <ele>148</ele>
        <time>2023-09-10T07:48:55Z</time>
      </trkpt>
      <trkpt lat="43.6456" lon="1.37914">
        <ele>148</ele>
        <time>2023-09-10T07:48:56Z</time>
      </trkpt>
      <trkpt lat="43.64558" lon="1.37911">
        <ele>148</ele>
        <time>2023-09-10T07:48:57Z</time>
      </trkpt>
      <trkpt lat="43.64555" lon="1.37908">
        <ele>148</ele>
        <time>2023-09-10T07:48:58Z</time>
      </trkpt>
      <trkpt lat="43.64551" lon="1.37906">
        <ele>148</ele>
        <time>2023-09-10T07:49:00Z</time>
      </trkpt>
      <trkpt lat="43.64551" lon="1.37906">
        <ele>148</ele>
        <time>2023-09-10T07:49:01Z</time>
      </trkpt>
      <trkpt lat="43.64548" lon="1.37904">
        <ele>148</ele>
        <time>2023-09-10T07:49:02Z</time>
      </trkpt>
      <trkpt lat="43.64546" lon="1.37903">
        <ele>148</ele>
        <time>2023-09-10T07:49:03Z</time>
      </trkpt>
      <trkpt lat="43.64546" lon="1.37903">
        <ele>148</ele>
        <time>2023-09-10T07:49:04Z</time>
      </trkpt>
      <trkpt lat="43.64543" lon="1.37901">
        <ele>148</ele>
        <time>2023-09-10T07:49:06Z</time>
      </trkpt>
      <trkpt lat="43.6454" lon="1.37899">
        <ele>148</ele>
        <time>2023-09-10T07:49:07Z</time>
      </trkpt>
      <trkpt lat="43.6454" lon="1.37899">
        <ele>148</ele>
        <time>2023-09-10T07:49:08Z</time>
      </trkpt>
      <trkpt lat="43.64537" lon="1.37897">
        <ele>148</ele>
        <time>2023-09-10T07:49:09Z</time>
      </trkpt>
      <trkpt lat="43.64537" lon="1.37897">
        <ele>148</ele>
        <time>2023-09-10T07:49:10Z</time>
      </trkpt>
      <trkpt lat="43.64534" lon="1.37896">
        <ele>148</ele>
        <time>2023-09-10T07:49:11Z</time>
      </trkpt>
      <trkpt lat="43.64534" lon="1.37896">
        <ele>148</ele>
        <time>2023-09-10T07:49:12Z</time>
      </trkpt>
      <trkpt lat="43.64531" lon="1.37894">
        <ele>148</ele>
        <time>2023-09-10T07:49:13Z</time>
      </trkpt>
      <trkpt lat="43.64531" lon="1.37894">
        <ele>148</ele>
        <time>2023-09-10T07:49:14Z</time>
      </trkpt>
      <trkpt lat="43.64531" lon="1.37894">
        <ele>148</ele>
        <time>2023-09-10T07:49:15Z</time>
      </trkpt>
      <trkpt lat="43.64528" lon="1.37892">
        <ele>148</ele>
        <time>2023-09-10T07:49:16Z</time>
      </trkpt>
      <trkpt lat="43.64528" lon="1.37892">
        <ele>148</ele>
        <time>2023-09-10T07:49:17Z</time>
      </trkpt>
      <trkpt lat="43.64528" lon="1.37892">
        <ele>148</ele>
        <time>2023-09-10T07:49:18Z</time>
      </trkpt>
      <trkpt lat="43.64529" lon="1.37896">
        <ele>148</ele>
        <time>2023-09-10T07:49:19Z</time>
      </trkpt>
      <trkpt lat="43.64529" lon="1.37896">
        <ele>148</ele>
        <time>2023-09-10T07:49:20Z</time>
      </trkpt>
      <trkpt lat="43.6453" lon="1.37899">
        <ele>148</ele>
        <time>2023-09-10T07:49:21Z</time>
      </trkpt>
      <trkpt lat="43.6453" lon="1.37899">
        <ele>148</ele>
        <time>2023-09-10T07:49:22Z</time>
      </trkpt>
      <trkpt lat="43.64532" lon="1.37901">
        <ele>148</ele>
        <time>2023-09-10T07:49:23Z</time>
      </trkpt>
      <trkpt lat="43.64533" lon="1.37904">
        <ele>148</ele>
        <time>2023-09-10T07:49:25Z</time>
      </trkpt>
      <trkpt lat="43.64533" lon="1.37904">
        <ele>148</ele>
        <time>2023-09-10T07:49:26Z</time>
      </trkpt>
      <trkpt lat="43.64533" lon="1.37904">
        <ele>148</ele>
        <time>2023-09-10T07:49:27Z</time>
      </trkpt>
      <trkpt lat="43.64534" lon="1.37907">
        <ele>148</ele>
        <time>2023-09-10T07:49:28Z</time>
      </trkpt>
      <trkpt lat="43.64534" lon="1.37907">
        <ele>148</ele>
        <time>2023-09-10T07:49:29Z</time>
      </trkpt>
      <trkpt lat="43.64535" lon="1.3791">
        <ele>148</ele>
        <time>2023-09-10T07:49:30Z</time>
      </trkpt>
      <trkpt lat="43.64536" lon="1.37914">
        <ele>148</ele>
        <time>2023-09-10T07:49:31Z</time>
      </trkpt>
      <trkpt lat="43.64536" lon="1.37914">
        <ele>148</ele>
        <time>2023-09-10T07:49:32Z</time>
      </trkpt>
      <trkpt lat="43.64537" lon="1.37918">
        <ele>148</ele>
        <time>2023-09-10T07:49:33Z</time>
      </trkpt>
      <trkpt lat="43.64538" lon="1.37921">
        <ele>148</ele>
        <time>2023-09-10T07:49:35Z</time>
      </trkpt>
      <trkpt lat="43.64538" lon="1.37921">
        <ele>148</ele>
        <time>2023-09-10T07:49:36Z</time>
      </trkpt>
      <trkpt lat="43.64538" lon="1.37921">
        <ele>148</ele>
        <time>2023-09-10T07:49:37Z</time>
      </trkpt>
      <trkpt lat="43.64539" lon="1.37924">
        <ele>148</ele>
        <time>2023-09-10T07:49:38Z</time>
      </trkpt>
      <trkpt lat="43.6454" lon="1.37928">
        <ele>148</ele>
        <time>2023-09-10T07:49:39Z</time>
      </trkpt>
      <trkpt lat="43.6454" lon="1.37928">
        <ele>148</ele>
        <time>2023-09-10T07:49:40Z</time>
      </trkpt>
      <trkpt lat="43.64542" lon="1.37931">
        <ele>148</ele>
        <time>2023-09-10T07:49:41Z</time>
      </trkpt>
      <trkpt lat="43.64542" lon="1.37931">
        <ele>148</ele>
        <time>2023-09-10T07:49:42Z</time>
      </trkpt>
      <trkpt lat="43.64543" lon="1.37934">
        <ele>148</ele>
        <time>2023-09-10T07:49:44Z</time>
      </trkpt>
      <trkpt lat="43.64544" lon="1.37938">
        <ele>148</ele>
        <time>2023-09-10T07:49:45Z</time>
      </trkpt>
      <trkpt lat="43.64544" lon="1.37938">
        <ele>148</ele>
        <time>2023-09-10T07:49:46Z</time>
      </trkpt>
      <trkpt lat="43.64544" lon="1.37941">
        <ele>148</ele>
        <time>2023-09-10T07:49:47Z</time>
      </trkpt>
      <trkpt lat="43.64544" lon="1.37941">
        <ele>148</ele>
        <time>2023-09-10T07:49:48Z</time>
      </trkpt>
      <trkpt lat="43.64544" lon="1.37941">
        <ele>148</ele>
        <time>2023-09-10T07:49:49Z</time>
      </trkpt>
      <trkpt lat="43.64545" lon="1.37944">
        <ele>148</ele>
        <time>2023-09-10T07:49:50Z</time>
      </trkpt>
      <trkpt lat="43.64546" lon="1.37947">
        <ele>148</ele>
        <time>2023-09-10T07:49:51Z</time>
      </trkpt>
      <trkpt lat="43.64546" lon="1.37947">
        <ele>148</ele>
        <time>2023-09-10T07:49:52Z</time>
      </trkpt>
      <trkpt lat="43.64547" lon="1.3795">
        <ele>148</ele>
        <time>2023-09-10T07:49:53Z</time>
      </trkpt>
      <trkpt lat="43.64547" lon="1.3795">
        <ele>148</ele>
        <time>2023-09-10T07:49:54Z</time>
      </trkpt>
      <trkpt lat="43.64548" lon="1.37954">
        <ele>148</ele>
        <time>2023-09-10T07:49:55Z</time>
      </trkpt>
      <trkpt lat="43.64548" lon="1.37954">
        <ele>148</ele>
        <time>2023-09-10T07:49:56Z</time>
      </trkpt>
      <trkpt lat="43.64549" lon="1.37957">
        <ele>148</ele>
        <time>2023-09-10T07:49:57Z</time>
      </trkpt>
      <trkpt lat="43.64549" lon="1.37957">
        <ele>148</ele>
        <time>2023-09-10T07:49:58Z</time>
      </trkpt>
      <trkpt lat="43.6455" lon="1.37961">
        <ele>148</ele>
        <time>2023-09-10T07:49:59Z</time>
      </trkpt>
      <trkpt lat="43.6455" lon="1.37961">
        <ele>148</ele>
        <time>2023-09-10T07:50:00Z</time>
      </trkpt>
      <trkpt lat="43.64551" lon="1.37964">
        <ele>148</ele>
        <time>2023-09-10T07:50:01Z</time>
      </trkpt>
      <trkpt lat="43.64552" lon="1.37967">
        <ele>148</ele>
        <time>2023-09-10T07:50:03Z</time>
      </trkpt>
      <trkpt lat="43.64552" lon="1.37967">
        <ele>148</ele>
        <time>2023-09-10T07:50:04Z</time>
      </trkpt>
      <trkpt lat="43.64552" lon="1.37967">
        <ele>148</ele>
        <time>2023-09-10T07:50:05Z</time>
      </trkpt>
      <trkpt lat="43.64554" lon="1.3797">
        <ele>148</ele>
        <time>2023-09-10T07:50:06Z</time>
      </trkpt>
      <trkpt lat="43.64556" lon="1.37973">
        <ele>148</ele>
        <time>2023-09-10T07:50:07Z</time>
      </trkpt>
      <trkpt lat="43.64556" lon="1.37973">
        <ele>148</ele>
        <time>2023-09-10T07:50:08Z</time>
      </trkpt>
      <trkpt lat="43.64557" lon="1.37975">
        <ele>148</ele>
        <time>2023-09-10T07:50:09Z</time>
      </trkpt>
      <trkpt lat="43.64557" lon="1.37975">
        <ele>148</ele>
        <time>2023-09-10T07:50:10Z</time>
      </trkpt>
      <trkpt lat="43.64558" lon="1.37978">
        <ele>148</ele>
        <time>2023-09-10T07:50:11Z</time>
      </trkpt>
      <trkpt lat="43.64558" lon="1.37978">
        <ele>148</ele>
        <time>2023-09-10T07:50:12Z</time>
      </trkpt>
      <trkpt lat="43.6456" lon="1.3798">
        <ele>148</ele>
        <time>2023-09-10T07:50:13Z</time>
      </trkpt>
      <trkpt lat="43.6456" lon="1.3798">
        <ele>148</ele>
        <time>2023-09-10T07:50:15Z</time>
      </trkpt>
      <trkpt lat="43.64561" lon="1.37982">
        <ele>148</ele>
        <time>2023-09-10T07:50:16Z</time>
      </trkpt>
      <trkpt lat="43.64561" lon="1.37982">
        <ele>148</ele>
        <time>2023-09-10T07:50:17Z</time>
      </trkpt>
      <trkpt lat="43.64561" lon="1.37982">
        <ele>148</ele>
        <time>2023-09-10T07:50:18Z</time>
      </trkpt>
      <trkpt lat="43.64561" lon="1.37982">
        <ele>148</ele>
        <time>2023-09-10T07:50:19Z</time>
      </trkpt>
      <trkpt lat="43.64561" lon="1.37982">
        <ele>148</ele>
        <time>2023-09-10T07:50:20Z</time>
      </trkpt>
      <trkpt lat="43.64561" lon="1.37982">
        <ele>148</ele>
        <time>2023-09-10T07:50:22Z</time>
      </trkpt>
      <trkpt lat="43.64561" lon="1.37982">
        <ele>148</ele>
        <time>2023-09-10T07:50:23Z</time>
      </trkpt>
      <trkpt lat="43.64561" lon="1.37982">
        <ele>148</ele>
        <time>2023-09-10T07:50:24Z</time>
      </trkpt>
      <trkpt lat="43.64561" lon="1.37982">
        <ele>148</ele>
        <time>2023-09-10T07:50:25Z</time>
      </trkpt>
      <trkpt lat="43.64558" lon="1.37982">
        <ele>148</ele>
        <time>2023-09-10T07:50:26Z</time>
      </trkpt>
      <trkpt lat="43.64558" lon="1.37982">
        <ele>148</ele>
        <time>2023-09-10T07:50:27Z</time>
      </trkpt>
      <trkpt lat="43.64556" lon="1.37983">
        <ele>148</ele>
        <time>2023-09-10T07:50:28Z</time>
      </trkpt>
      <trkpt lat="43.64556" lon="1.37983">
        <ele>148</ele>
        <time>2023-09-10T07:50:29Z</time>
      </trkpt>
      <trkpt lat="43.64554" lon="1.37984">
        <ele>148</ele>
        <time>2023-09-10T07:50:30Z</time>
      </trkpt>
      <trkpt lat="43.64554" lon="1.37984">
        <ele>148</ele>
        <time>2023-09-10T07:50:31Z</time>
      </trkpt>
      <trkpt lat="43.64554" lon="1.37984">
        <ele>148</ele>
        <time>2023-09-10T07:50:32Z</time>
      </trkpt>
      <trkpt lat="43.64551" lon="1.37985">
        <ele>148</ele>
        <time>2023-09-10T07:50:33Z</time>
      </trkpt>
      <trkpt lat="43.64549" lon="1.37986">
        <ele>148</ele>
        <time>2023-09-10T07:50:34Z</time>
      </trkpt>
      <trkpt lat="43.64549" lon="1.37986">
        <ele>148</ele>
        <time>2023-09-10T07:50:35Z</time>
      </trkpt>
      <trkpt lat="43.64549" lon="1.37986">
        <ele>148</ele>
        <time>2023-09-10T07:50:36Z</time>
      </trkpt>
      <trkpt lat="43.64546" lon="1.37987">
        <ele>148</ele>
        <time>2023-09-10T07:50:37Z</time>
      </trkpt>
      <trkpt lat="43.64542" lon="1.37987">
        <ele>148</ele>
        <time>2023-09-10T07:50:38Z</time>
      </trkpt>
      <trkpt lat="43.6454" lon="1.37987">
        <ele>148</ele>
        <time>2023-09-10T07:50:39Z</time>
      </trkpt>
      <trkpt lat="43.64538" lon="1.37987">
        <ele>148</ele>
        <time>2023-09-10T07:50:41Z</time>
      </trkpt>
      <trkpt lat="43.64538" lon="1.37987">
        <ele>148</ele>
        <time>2023-09-10T07:50:42Z</time>
      </trkpt>
      <trkpt lat="43.64536" lon="1.37987">
        <ele>148</ele>
        <time>2023-09-10T07:50:43Z</time>
      </trkpt>
      <trkpt lat="43.64536" lon="1.37987">
        <ele>148</ele>
        <time>2023-09-10T07:50:44Z</time>
      </trkpt>
      <trkpt lat="43.64534" lon="1.37987">
        <ele>148</ele>
        <time>2023-09-10T07:50:45Z</time>
      </trkpt>
      <trkpt lat="43.64534" lon="1.37987">
        <ele>148</ele>
        <time>2023-09-10T07:50:46Z</time>
      </trkpt>
      <trkpt lat="43.64531" lon="1.37986">
        <ele>148</ele>
        <time>2023-09-10T07:50:47Z</time>
      </trkpt>
      <trkpt lat="43.64531" lon="1.37986">
        <ele>148</ele>
        <time>2023-09-10T07:50:48Z</time>
      </trkpt>
      <trkpt lat="43.64529" lon="1.37985">
        <ele>148</ele>
        <time>2023-09-10T07:50:49Z</time>
      </trkpt>
      <trkpt lat="43.64529" lon="1.37985">
        <ele>148</ele>
        <time>2023-09-10T07:50:50Z</time>
      </trkpt>
      <trkpt lat="43.64527" lon="1.37984">
        <ele>148</ele>
        <time>2023-09-10T07:50:51Z</time>
      </trkpt>
      <trkpt lat="43.64527" lon="1.37984">
        <ele>148</ele>
        <time>2023-09-10T07:50:52Z</time>
      </trkpt>
      <trkpt lat="43.64525" lon="1.37982">
        <ele>148</ele>
        <time>2023-09-10T07:50:53Z</time>
      </trkpt>
      <trkpt lat="43.64525" lon="1.37982">
        <ele>148</ele>
        <time>2023-09-10T07:50:54Z</time>
      </trkpt>
      <trkpt lat="43.64522" lon="1.37981">
        <ele>148</ele>
        <time>2023-09-10T07:50:55Z</time>
      </trkpt>
      <trkpt lat="43.64522" lon="1.37981">
        <ele>148</ele>
        <time>2023-09-10T07:50:56Z</time>
      </trkpt>
      <trkpt lat="43.64522" lon="1.37981">
        <ele>148</ele>
        <time>2023-09-10T07:50:57Z</time>
      </trkpt>
      <trkpt lat="43.64519" lon="1.37981">
        <ele>148</ele>
        <time>2023-09-10T07:50:58Z</time>
      </trkpt>
      <trkpt lat="43.64516" lon="1.3798">
        <ele>148</ele>
        <time>2023-09-10T07:51:00Z</time>
      </trkpt>
      <trkpt lat="43.64513" lon="1.3798">
        <ele>148</ele>
        <time>2023-09-10T07:51:01Z</time>
      </trkpt>
      <trkpt lat="43.64513" lon="1.3798">
        <ele>148</ele>
        <time>2023-09-10T07:51:02Z</time>
      </trkpt>
      <trkpt lat="43.64511" lon="1.37979">
        <ele>148</ele>
        <time>2023-09-10T07:51:03Z</time>
      </trkpt>
      <trkpt lat="43.64511" lon="1.37979">
        <ele>148</ele>
        <time>2023-09-10T07:51:04Z</time>
      </trkpt>
      <trkpt lat="43.64508" lon="1.37978">
        <ele>148</ele>
        <time>2023-09-10T07:51:05Z</time>
      </trkpt>
      <trkpt lat="43.64508" lon="1.37978">
        <ele>148</ele>
        <time>2023-09-10T07:51:06Z</time>
      </trkpt>
      <trkpt lat="43.64506" lon="1.37977">
        <ele>148</ele>
        <time>2023-09-10T07:51:07Z</time>
      </trkpt>
      <trkpt lat="43.64506" lon="1.37977">
        <ele>148</ele>
        <time>2023-09-10T07:51:08Z</time>
      </trkpt>
      <trkpt lat="43.64503" lon="1.37977">
        <ele>148</ele>
        <time>2023-09-10T07:51:09Z</time>
      </trkpt>
      <trkpt lat="43.64503" lon="1.37977">
        <ele>148</ele>
        <time>2023-09-10T07:51:10Z</time>
      </trkpt>
      <trkpt lat="43.645" lon="1.37976">
        <ele>148</ele>
        <time>2023-09-10T07:51:11Z</time>
      </trkpt>
      <trkpt lat="43.645" lon="1.37976">
        <ele>148</ele>
        <time>2023-09-10T07:51:12Z</time>
      </trkpt>
      <trkpt lat="43.645" lon="1.37976">
        <ele>148</ele>
        <time>2023-09-10T07:51:13Z</time>
      </trkpt>
      <trkpt lat="43.64497" lon="1.37975">
        <ele>148</ele>
        <time>2023-09-10T07:51:14Z</time>
      </trkpt>
      <trkpt lat="43.64497" lon="1.37975">
        <ele>148</ele>
        <time>2023-09-10T07:51:15Z</time>
      </trkpt>
      <trkpt lat="43.64495" lon="1.37974">
        <ele>148</ele>
        <time>2023-09-10T07:51:16Z</time>
      </trkpt>
      <trkpt lat="43.64495" lon="1.37974">
        <ele>148</ele>
        <time>2023-09-10T07:51:17Z</time>
      </trkpt>
      <trkpt lat="43.64492" lon="1.37973">
        <ele>148</ele>
        <time>2023-09-10T07:51:18Z</time>
      </trkpt>
      <trkpt lat="43.64492" lon="1.37973">
        <ele>148</ele>
        <time>2023-09-10T07:51:19Z</time>
      </trkpt>
      <trkpt lat="43.6449" lon="1.37972">
        <ele>148</ele>
        <time>2023-09-10T07:51:20Z</time>
      </trkpt>
      <trkpt lat="43.6449" lon="1.37972">
        <ele>148</ele>
        <time>2023-09-10T07:51:21Z</time>
      </trkpt>
      <trkpt lat="43.64488" lon="1.3797">
        <ele>148</ele>
        <time>2023-09-10T07:51:22Z</time>
      </trkpt>
      <trkpt lat="43.64485" lon="1.37969">
        <ele>148</ele>
        <time>2023-09-10T07:51:23Z</time>
      </trkpt>
      <trkpt lat="43.64485" lon="1.37969">
        <ele>148</ele>
        <time>2023-09-10T07:51:24Z</time>
      </trkpt>
      <trkpt lat="43.64483" lon="1.37967">
        <ele>148</ele>
        <time>2023-09-10T07:51:25Z</time>
      </trkpt>
      <trkpt lat="43.64483" lon="1.37967">
        <ele>148</ele>
        <time>2023-09-10T07:51:26Z</time>
      </trkpt>
      <trkpt lat="43.64483" lon="1.37967">
        <ele>148</ele>
        <time>2023-09-10T07:51:27Z</time>
      </trkpt>
      <trkpt lat="43.6448" lon="1.37966">
        <ele>148</ele>
        <time>2023-09-10T07:51:28Z</time>
      </trkpt>
      <trkpt lat="43.64478" lon="1.37965">
        <ele>148</ele>
        <time>2023-09-10T07:51:29Z</time>
      </trkpt>
      <trkpt lat="43.64478" lon="1.37965">
        <ele>148</ele>
        <time>2023-09-10T07:51:30Z</time>
      </trkpt>
      <trkpt lat="43.64476" lon="1.37964">
        <ele>148</ele>
        <time>2023-09-10T07:51:31Z</time>
      </trkpt>
      <trkpt lat="43.64476" lon="1.37964">
        <ele>148</ele>
        <time>2023-09-10T07:51:32Z</time>
      </trkpt>
      <trkpt lat="43.64473" lon="1.37963">
        <ele>148</ele>
        <time>2023-09-10T07:51:33Z</time>
      </trkpt>
      <trkpt lat="43.64473" lon="1.37963">
        <ele>148</ele>
        <time>2023-09-10T07:51:34Z</time>
      </trkpt>
      <trkpt lat="43.64473" lon="1.37963">
        <ele>148</ele>
        <time>2023-09-10T07:51:35Z</time>
      </trkpt>
      <trkpt lat="43.64471" lon="1.37962">
        <ele>148</ele>
        <time>2023-09-10T07:51:36Z</time>
      </trkpt>
      <trkpt lat="43.64469" lon="1.3796">
        <ele>148</ele>
        <time>2023-09-10T07:51:38Z</time>
      </trkpt>
      <trkpt lat="43.64467" lon="1.37958">
        <ele>148</ele>
        <time>2023-09-10T07:51:39Z</time>
      </trkpt>
      <trkpt lat="43.64467" lon="1.37958">
        <ele>148</ele>
        <time>2023-09-10T07:51:41Z</time>
      </trkpt>
      <trkpt lat="43.64465" lon="1.37957">
        <ele>148</ele>
        <time>2023-09-10T07:51:42Z</time>
      </trkpt>
      <trkpt lat="43.64464" lon="1.37954">
        <ele>148</ele>
        <time>2023-09-10T07:51:43Z</time>
      </trkpt>
      <trkpt lat="43.64464" lon="1.37954">
        <ele>148</ele>
        <time>2023-09-10T07:51:44Z</time>
      </trkpt>
      <trkpt lat="43.64463" lon="1.37952">
        <ele>148</ele>
        <time>2023-09-10T07:51:45Z</time>
      </trkpt>
      <trkpt lat="43.64463" lon="1.37952">
        <ele>148</ele>
        <time>2023-09-10T07:51:46Z</time>
      </trkpt>
      <trkpt lat="43.64461" lon="1.3795">
        <ele>148</ele>
        <time>2023-09-10T07:51:47Z</time>
      </trkpt>
      <trkpt lat="43.64461" lon="1.3795">
        <ele>149</ele>
        <time>2023-09-10T07:51:48Z</time>
      </trkpt>
      <trkpt lat="43.64459" lon="1.37947">
        <ele>149</ele>
        <time>2023-09-10T07:51:49Z</time>
      </trkpt>
      <trkpt lat="43.64459" lon="1.37947">
        <ele>149</ele>
        <time>2023-09-10T07:51:50Z</time>
      </trkpt>
      <trkpt lat="43.64459" lon="1.37947">
        <ele>149</ele>
        <time>2023-09-10T07:51:51Z</time>
      </trkpt>
      <trkpt lat="43.64458" lon="1.37944">
        <ele>149</ele>
        <time>2023-09-10T07:51:52Z</time>
      </trkpt>
      <trkpt lat="43.64458" lon="1.37944">
        <ele>149</ele>
        <time>2023-09-10T07:51:53Z</time>
      </trkpt>
      <trkpt lat="43.64457" lon="1.37942">
        <ele>149</ele>
        <time>2023-09-10T07:51:54Z</time>
      </trkpt>
      <trkpt lat="43.64457" lon="1.37942">
        <ele>149</ele>
        <time>2023-09-10T07:51:55Z</time>
      </trkpt>
      <trkpt lat="43.64455" lon="1.37941">
        <ele>149</ele>
        <time>2023-09-10T07:51:57Z</time>
      </trkpt>
      <trkpt lat="43.64455" lon="1.37941">
        <ele>149</ele>
        <time>2023-09-10T07:51:58Z</time>
      </trkpt>
      <trkpt lat="43.64455" lon="1.37941">
        <ele>149</ele>
        <time>2023-09-10T07:51:59Z</time>
      </trkpt>
      <trkpt lat="43.64455" lon="1.37941">
        <ele>149</ele>
        <time>2023-09-10T07:52:00Z</time>
      </trkpt>
      <trkpt lat="43.64455" lon="1.37941">
        <ele>149</ele>
        <time>2023-09-10T07:52:01Z</time>
      </trkpt>
      <trkpt lat="43.64455" lon="1.37941">
        <ele>149</ele>
        <time>2023-09-10T07:52:02Z</time>
      </trkpt>
      <trkpt lat="43.64455" lon="1.37941">
        <ele>149</ele>
        <time>2023-09-10T07:52:03Z</time>
      </trkpt>
      <trkpt lat="43.64455" lon="1.37941">
        <ele>149</ele>
        <time>2023-09-10T07:52:04Z</time>
      </trkpt>
      <trkpt lat="43.64456" lon="1.37943">
        <ele>149</ele>
        <time>2023-09-10T07:52:05Z</time>
      </trkpt>
      <trkpt lat="43.64456" lon="1.37943">
        <ele>149</ele>
        <time>2023-09-10T07:52:06Z</time>
      </trkpt>
      <trkpt lat="43.64461" lon="1.37947">
        <ele>149</ele>
        <time>2023-09-10T07:52:07Z</time>
      </trkpt>
      <trkpt lat="43.64463" lon="1.37948">
        <ele>149</ele>
        <time>2023-09-10T07:52:08Z</time>
      </trkpt>
      <trkpt lat="43.64467" lon="1.3795">
        <ele>149</ele>
        <time>2023-09-10T07:52:09Z</time>
      </trkpt>
      <trkpt lat="43.64473" lon="1.37952">
        <ele>148</ele>
        <time>2023-09-10T07:52:10Z</time>
      </trkpt>
      <trkpt lat="43.64478" lon="1.37954">
        <ele>148</ele>
        <time>2023-09-10T07:52:11Z</time>
      </trkpt>
      <trkpt lat="43.64483" lon="1.37956">
        <ele>148</ele>
        <time>2023-09-10T07:52:12Z</time>
      </trkpt>
      <trkpt lat="43.64494" lon="1.3796">
        <ele>149</ele>
        <time>2023-09-10T07:52:14Z</time>
      </trkpt>
      <trkpt lat="43.64502" lon="1.37965">
        <ele>149</ele>
        <time>2023-09-10T07:52:16Z</time>
      </trkpt>
      <trkpt lat="43.64506" lon="1.37967">
        <ele>149</ele>
        <time>2023-09-10T07:52:17Z</time>
      </trkpt>
      <trkpt lat="43.64508" lon="1.37968">
        <ele>149</ele>
        <time>2023-09-10T07:52:18Z</time>
      </trkpt>
      <trkpt lat="43.6451" lon="1.37969">
        <ele>148</ele>
        <time>2023-09-10T07:52:19Z</time>
      </trkpt>
      <trkpt lat="43.6451" lon="1.37969">
        <ele>147</ele>
        <time>2023-09-10T07:52:20Z</time>
      </trkpt>
      <trkpt lat="43.64513" lon="1.37971">
        <ele>148</ele>
        <time>2023-09-10T07:52:21Z</time>
      </trkpt>
      <trkpt lat="43.64515" lon="1.37971">
        <ele>148</ele>
        <time>2023-09-10T07:52:22Z</time>
      </trkpt>
      <trkpt lat="43.64517" lon="1.37973">
        <ele>148</ele>
        <time>2023-09-10T07:52:23Z</time>
      </trkpt>
      <trkpt lat="43.64519" lon="1.37974">
        <ele>148</ele>
        <time>2023-09-10T07:52:24Z</time>
      </trkpt>
      <trkpt lat="43.64519" lon="1.37974">
        <ele>148</ele>
        <time>2023-09-10T07:52:25Z</time>
      </trkpt>
      <trkpt lat="43.64519" lon="1.37974">
        <ele>148</ele>
        <time>2023-09-10T07:52:26Z</time>
      </trkpt>
      <trkpt lat="43.64525" lon="1.37978">
        <ele>148</ele>
        <time>2023-09-10T07:52:27Z</time>
      </trkpt>
      <trkpt lat="43.64528" lon="1.37979">
        <ele>148</ele>
        <time>2023-09-10T07:52:28Z</time>
      </trkpt>
      <trkpt lat="43.64532" lon="1.3798">
        <ele>148</ele>
        <time>2023-09-10T07:52:29Z</time>
      </trkpt>
      <trkpt lat="43.64541" lon="1.37981">
        <ele>149</ele>
        <time>2023-09-10T07:52:31Z</time>
      </trkpt>
      <trkpt lat="43.64545" lon="1.3798">
        <ele>149</ele>
        <time>2023-09-10T07:52:32Z</time>
      </trkpt>
      <trkpt lat="43.6455" lon="1.37979">
        <ele>148</ele>
        <time>2023-09-10T07:52:33Z</time>
      </trkpt>
      <trkpt lat="43.64554" lon="1.37976">
        <ele>148</ele>
        <time>2023-09-10T07:52:35Z</time>
      </trkpt>
      <trkpt lat="43.64561" lon="1.3797">
        <ele>148</ele>
        <time>2023-09-10T07:52:36Z</time>
      </trkpt>
      <trkpt lat="43.64561" lon="1.3797">
        <ele>148</ele>
        <time>2023-09-10T07:52:37Z</time>
      </trkpt>
      <trkpt lat="43.64563" lon="1.37967">
        <ele>148</ele>
        <time>2023-09-10T07:52:38Z</time>
      </trkpt>
      <trkpt lat="43.64565" lon="1.37964">
        <ele>148</ele>
        <time>2023-09-10T07:52:39Z</time>
      </trkpt>
      <trkpt lat="43.64566" lon="1.37962">
        <ele>148</ele>
        <time>2023-09-10T07:52:40Z</time>
      </trkpt>
      <trkpt lat="43.64566" lon="1.37962">
        <ele>148</ele>
        <time>2023-09-10T07:52:41Z</time>
      </trkpt>
      <trkpt lat="43.64566" lon="1.37962">
        <ele>148</ele>
        <time>2023-09-10T07:52:42Z</time>
      </trkpt>
      <trkpt lat="43.64566" lon="1.37958">
        <ele>148</ele>
        <time>2023-09-10T07:52:43Z</time>
      </trkpt>
      <trkpt lat="43.64566" lon="1.37958">
        <ele>148</ele>
        <time>2023-09-10T07:52:44Z</time>
      </trkpt>
      <trkpt lat="43.64567" lon="1.37954">
        <ele>148</ele>
        <time>2023-09-10T07:52:45Z</time>
      </trkpt>
      <trkpt lat="43.64567" lon="1.37949">
        <ele>148</ele>
        <time>2023-09-10T07:52:46Z</time>
      </trkpt>
      <trkpt lat="43.64567" lon="1.37938">
        <ele>148</ele>
        <time>2023-09-10T07:52:48Z</time>
      </trkpt>
      <trkpt lat="43.64565" lon="1.37931">
        <ele>148</ele>
        <time>2023-09-10T07:52:49Z</time>
      </trkpt>
      <trkpt lat="43.64563" lon="1.37925">
        <ele>148</ele>
        <time>2023-09-10T07:52:50Z</time>
      </trkpt>
      <trkpt lat="43.6456" lon="1.37919">
        <ele>148</ele>
        <time>2023-09-10T07:52:51Z</time>
      </trkpt>
      <trkpt lat="43.64557" lon="1.37913">
        <ele>148</ele>
        <time>2023-09-10T07:52:52Z</time>
      </trkpt>
      <trkpt lat="43.64549" lon="1.37904">
        <ele>149</ele>
        <time>2023-09-10T07:52:54Z</time>
      </trkpt>
      <trkpt lat="43.64546" lon="1.37901">
        <ele>149</ele>
        <time>2023-09-10T07:52:55Z</time>
      </trkpt>
      <trkpt lat="43.64546" lon="1.37901">
        <ele>149</ele>
        <time>2023-09-10T07:52:56Z</time>
      </trkpt>
      <trkpt lat="43.6454" lon="1.37898">
        <ele>149</ele>
        <time>2023-09-10T07:52:57Z</time>
      </trkpt>
      <trkpt lat="43.64536" lon="1.37896">
        <ele>148</ele>
        <time>2023-09-10T07:52:59Z</time>
      </trkpt>
      <trkpt lat="43.64534" lon="1.37895">
        <ele>148</ele>
        <time>2023-09-10T07:53:00Z</time>
      </trkpt>
      <trkpt lat="43.64534" lon="1.37895">
        <ele>148</ele>
        <time>2023-09-10T07:53:01Z</time>
      </trkpt>
      <trkpt lat="43.64534" lon="1.37895">
        <ele>148</ele>
        <time>2023-09-10T07:53:02Z</time>
      </trkpt>
      <trkpt lat="43.64529" lon="1.37893">
        <ele>148</ele>
        <time>2023-09-10T07:53:03Z</time>
      </trkpt>
      <trkpt lat="43.64529" lon="1.37893">
        <ele>148</ele>
        <time>2023-09-10T07:53:04Z</time>
      </trkpt>
      <trkpt lat="43.64526" lon="1.37891">
        <ele>148</ele>
        <time>2023-09-10T07:53:05Z</time>
      </trkpt>
      <trkpt lat="43.64524" lon="1.3789">
        <ele>148</ele>
        <time>2023-09-10T07:53:06Z</time>
      </trkpt>
      <trkpt lat="43.6452" lon="1.37887">
        <ele>148</ele>
        <time>2023-09-10T07:53:07Z</time>
      </trkpt>
      <trkpt lat="43.64516" lon="1.37884">
        <ele>148</ele>
        <time>2023-09-10T07:53:08Z</time>
      </trkpt>
      <trkpt lat="43.64516" lon="1.37884">
        <ele>148</ele>
        <time>2023-09-10T07:53:09Z</time>
      </trkpt>
      <trkpt lat="43.64507" lon="1.37878">
        <ele>148</ele>
        <time>2023-09-10T07:53:10Z</time>
      </trkpt>
      <trkpt lat="43.64503" lon="1.37875">
        <ele>148</ele>
        <time>2023-09-10T07:53:11Z</time>
      </trkpt>
      <trkpt lat="43.64494" lon="1.3787">
        <ele>147</ele>
        <time>2023-09-10T07:53:13Z</time>
      </trkpt>
      <trkpt lat="43.64486" lon="1.37867">
        <ele>148</ele>
        <time>2023-09-10T07:53:15Z</time>
      </trkpt>
      <trkpt lat="43.64486" lon="1.37867">
        <ele>148</ele>
        <time>2023-09-10T07:53:16Z</time>
      </trkpt>
      <trkpt lat="43.64481" lon="1.37866">
        <ele>147</ele>
        <time>2023-09-10T07:53:17Z</time>
      </trkpt>
      <trkpt lat="43.64481" lon="1.37866">
        <ele>147</ele>
        <time>2023-09-10T07:53:18Z</time>
      </trkpt>
      <trkpt lat="43.64477" lon="1.37868">
        <ele>148</ele>
        <time>2023-09-10T07:53:19Z</time>
      </trkpt>
      <trkpt lat="43.64475" lon="1.37869">
        <ele>148</ele>
        <time>2023-09-10T07:53:20Z</time>
      </trkpt>
      <trkpt lat="43.64475" lon="1.37869">
        <ele>148</ele>
        <time>2023-09-10T07:53:21Z</time>
      </trkpt>
      <trkpt lat="43.64473" lon="1.3787">
        <ele>148</ele>
        <time>2023-09-10T07:53:22Z</time>
      </trkpt>
      <trkpt lat="43.64471" lon="1.37873">
        <ele>148</ele>
        <time>2023-09-10T07:53:23Z</time>
      </trkpt>
      <trkpt lat="43.64469" lon="1.37875">
        <ele>148</ele>
        <time>2023-09-10T07:53:24Z</time>
      </trkpt>
      <trkpt lat="43.64469" lon="1.37875">
        <ele>148</ele>
        <time>2023-09-10T07:53:25Z</time>
      </trkpt>
      <trkpt lat="43.64467" lon="1.37879">
        <ele>148</ele>
        <time>2023-09-10T07:53:26Z</time>
      </trkpt>
      <trkpt lat="43.64465" lon="1.37882">
        <ele>148</ele>
        <time>2023-09-10T07:53:27Z</time>
      </trkpt>
      <trkpt lat="43.64465" lon="1.37882">
        <ele>148</ele>
        <time>2023-09-10T07:53:28Z</time>
      </trkpt>
      <trkpt lat="43.64462" lon="1.37893">
        <ele>148</ele>
        <time>2023-09-10T07:53:29Z</time>
      </trkpt>
      <trkpt lat="43.64461" lon="1.379">
        <ele>148</ele>
        <time>2023-09-10T07:53:30Z</time>
      </trkpt>
      <trkpt lat="43.6446" lon="1.37907">
        <ele>148</ele>
        <time>2023-09-10T07:53:32Z</time>
      </trkpt>
      <trkpt lat="43.6446" lon="1.3792">
        <ele>148</ele>
        <time>2023-09-10T07:53:33Z</time>
      </trkpt>
      <trkpt lat="43.6446" lon="1.3792">
        <ele>148</ele>
        <time>2023-09-10T07:53:34Z</time>
      </trkpt>
      <trkpt lat="43.64462" lon="1.37931">
        <ele>148</ele>
        <time>2023-09-10T07:53:35Z</time>
      </trkpt>
      <trkpt lat="43.64463" lon="1.37935">
        <ele>148</ele>
        <time>2023-09-10T07:53:36Z</time>
      </trkpt>
      <trkpt lat="43.64465" lon="1.37939">
        <ele>148</ele>
        <time>2023-09-10T07:53:37Z</time>
      </trkpt>
      <trkpt lat="43.64465" lon="1.37939">
        <ele>148</ele>
        <time>2023-09-10T07:53:38Z</time>
      </trkpt>
      <trkpt lat="43.64467" lon="1.37944">
        <ele>148</ele>
        <time>2023-09-10T07:53:39Z</time>
      </trkpt>
      <trkpt lat="43.64467" lon="1.37944">
        <ele>148</ele>
        <time>2023-09-10T07:53:40Z</time>
      </trkpt>
      <trkpt lat="43.64467" lon="1.37944">
        <ele>148</ele>
        <time>2023-09-10T07:53:41Z</time>
      </trkpt>
      <trkpt lat="43.64469" lon="1.37946">
        <ele>148</ele>
        <time>2023-09-10T07:53:42Z</time>
      </trkpt>
      <trkpt lat="43.64471" lon="1.37948">
        <ele>148</ele>
        <time>2023-09-10T07:53:43Z</time>
      </trkpt>
      <trkpt lat="43.64471" lon="1.37948">
        <ele>148</ele>
        <time>2023-09-10T07:53:44Z</time>
      </trkpt>
      <trkpt lat="43.64474" lon="1.37949">
        <ele>148</ele>
        <time>2023-09-10T07:53:45Z</time>
      </trkpt>
      <trkpt lat="43.64476" lon="1.3795">
        <ele>148</ele>
        <time>2023-09-10T07:53:46Z</time>
      </trkpt>
      <trkpt lat="43.64479" lon="1.37951">
        <ele>148</ele>
        <time>2023-09-10T07:53:47Z</time>
      </trkpt>
      <trkpt lat="43.64483" lon="1.37952">
        <ele>148</ele>
        <time>2023-09-10T07:53:48Z</time>
      </trkpt>
      <trkpt lat="43.64486" lon="1.37954">
        <ele>148</ele>
        <time>2023-09-10T07:53:49Z</time>
      </trkpt>
      <trkpt lat="43.64491" lon="1.37957">
        <ele>148</ele>
        <time>2023-09-10T07:53:51Z</time>
      </trkpt>
      <trkpt lat="43.64499" lon="1.37963">
        <ele>148</ele>
        <time>2023-09-10T07:53:52Z</time>
      </trkpt>
      <trkpt lat="43.64503" lon="1.37966">
        <ele>148</ele>
        <time>2023-09-10T07:53:53Z</time>
      </trkpt>
      <trkpt lat="43.64508" lon="1.3797">
        <ele>148</ele>
        <time>2023-09-10T07:53:54Z</time>
      </trkpt>
      <trkpt lat="43.64512" lon="1.37973">
        <ele>148</ele>
        <time>2023-09-10T07:53:55Z</time>
      </trkpt>
      <trkpt lat="43.64512" lon="1.37973">
        <ele>148</ele>
        <time>2023-09-10T07:53:56Z</time>
      </trkpt>
      <trkpt lat="43.64517" lon="1.37976">
        <ele>148</ele>
        <time>2023-09-10T07:53:57Z</time>
      </trkpt>
      <trkpt lat="43.64519" lon="1.37978">
        <ele>148</ele>
        <time>2023-09-10T07:53:58Z</time>
      </trkpt>
      <trkpt lat="43.64521" lon="1.3798">
        <ele>148</ele>
        <time>2023-09-10T07:53:59Z</time>
      </trkpt>
      <trkpt lat="43.64521" lon="1.3798">
        <ele>149</ele>
        <time>2023-09-10T07:54:00Z</time>
      </trkpt>
      <trkpt lat="43.64522" lon="1.37983">
        <ele>149</ele>
        <time>2023-09-10T07:54:01Z</time>
      </trkpt>
      <trkpt lat="43.64525" lon="1.37985">
        <ele>149</ele>
        <time>2023-09-10T07:54:02Z</time>
      </trkpt>
      <trkpt lat="43.64525" lon="1.37985">
        <ele>149</ele>
        <time>2023-09-10T07:54:03Z</time>
      </trkpt>
      <trkpt lat="43.64529" lon="1.37985">
        <ele>149</ele>
        <time>2023-09-10T07:54:04Z</time>
      </trkpt>
      <trkpt lat="43.64533" lon="1.37985">
        <ele>149</ele>
        <time>2023-09-10T07:54:06Z</time>
      </trkpt>
      <trkpt lat="43.64536" lon="1.37985">
        <ele>149</ele>
        <time>2023-09-10T07:54:07Z</time>
      </trkpt>
      <trkpt lat="43.6454" lon="1.37984">
        <ele>148</ele>
        <time>2023-09-10T07:54:08Z</time>
      </trkpt>
      <trkpt lat="43.64544" lon="1.37983">
        <ele>148</ele>
        <time>2023-09-10T07:54:10Z</time>
      </trkpt>
      <trkpt lat="43.64553" lon="1.37979">
        <ele>148</ele>
        <time>2023-09-10T07:54:11Z</time>
      </trkpt>
      <trkpt lat="43.64556" lon="1.37976">
        <ele>148</ele>
        <time>2023-09-10T07:54:12Z</time>
      </trkpt>
      <trkpt lat="43.6456" lon="1.37972">
        <ele>148</ele>
        <time>2023-09-10T07:54:13Z</time>
      </trkpt>
      <trkpt lat="43.64563" lon="1.37968">
        <ele>148</ele>
        <time>2023-09-10T07:54:14Z</time>
      </trkpt>
      <trkpt lat="43.64563" lon="1.37968">
        <ele>148</ele>
        <time>2023-09-10T07:54:15Z</time>
      </trkpt>
      <trkpt lat="43.64568" lon="1.37961">
        <ele>148</ele>
        <time>2023-09-10T07:54:16Z</time>
      </trkpt>
      <trkpt lat="43.64569" lon="1.37957">
        <ele>148</ele>
        <time>2023-09-10T07:54:17Z</time>
      </trkpt>
      <trkpt lat="43.64571" lon="1.37955">
        <ele>148</ele>
        <time>2023-09-10T07:54:18Z</time>
      </trkpt>
      <trkpt lat="43.64571" lon="1.37951">
        <ele>148</ele>
        <time>2023-09-10T07:54:20Z</time>
      </trkpt>
      <trkpt lat="43.64571" lon="1.37951">
        <ele>148</ele>
        <time>2023-09-10T07:54:21Z</time>
      </trkpt>
      <trkpt lat="43.64571" lon="1.37951">
        <ele>148</ele>
        <time>2023-09-10T07:54:22Z</time>
      </trkpt>
      <trkpt lat="43.64571" lon="1.37947">
        <ele>148</ele>
        <time>2023-09-10T07:54:23Z</time>
      </trkpt>
      <trkpt lat="43.64571" lon="1.37942">
        <ele>148</ele>
        <time>2023-09-10T07:54:24Z</time>
      </trkpt>
      <trkpt lat="43.64571" lon="1.37942">
        <ele>148</ele>
        <time>2023-09-10T07:54:25Z</time>
      </trkpt>
      <trkpt lat="43.64569" lon="1.37936">
        <ele>148</ele>
        <time>2023-09-10T07:54:26Z</time>
      </trkpt>
      <trkpt lat="43.64568" lon="1.37931">
        <ele>148</ele>
        <time>2023-09-10T07:54:27Z</time>
      </trkpt>
      <trkpt lat="43.64562" lon="1.37921">
        <ele>148</ele>
        <time>2023-09-10T07:54:29Z</time>
      </trkpt>
      <trkpt lat="43.64559" lon="1.37916">
        <ele>148</ele>
        <time>2023-09-10T07:54:30Z</time>
      </trkpt>
      <trkpt lat="43.64555" lon="1.37912">
        <ele>148</ele>
        <time>2023-09-10T07:54:31Z</time>
      </trkpt>
      <trkpt lat="43.6455" lon="1.37907">
        <ele>148</ele>
        <time>2023-09-10T07:54:32Z</time>
      </trkpt>
      <trkpt lat="43.64547" lon="1.37903">
        <ele>148</ele>
        <time>2023-09-10T07:54:33Z</time>
      </trkpt>
      <trkpt lat="43.64543" lon="1.379">
        <ele>148</ele>
        <time>2023-09-10T07:54:34Z</time>
      </trkpt>
      <trkpt lat="43.64535" lon="1.37894">
        <ele>148</ele>
        <time>2023-09-10T07:54:36Z</time>
      </trkpt>
      <trkpt lat="43.64532" lon="1.37893">
        <ele>148</ele>
        <time>2023-09-10T07:54:37Z</time>
      </trkpt>
      <trkpt lat="43.6453" lon="1.37892">
        <ele>147</ele>
        <time>2023-09-10T07:54:38Z</time>
      </trkpt>
      <trkpt lat="43.6453" lon="1.37892">
        <ele>147</ele>
        <time>2023-09-10T07:54:39Z</time>
      </trkpt>
      <trkpt lat="43.64527" lon="1.37891">
        <ele>147</ele>
        <time>2023-09-10T07:54:40Z</time>
      </trkpt>
      <trkpt lat="43.64527" lon="1.37891">
        <ele>147</ele>
        <time>2023-09-10T07:54:41Z</time>
      </trkpt>
      <trkpt lat="43.64524" lon="1.37889">
        <ele>147</ele>
        <time>2023-09-10T07:54:42Z</time>
      </trkpt>
      <trkpt lat="43.64524" lon="1.37889">
        <ele>147</ele>
        <time>2023-09-10T07:54:43Z</time>
      </trkpt>
      <trkpt lat="43.64521" lon="1.37887">
        <ele>147</ele>
        <time>2023-09-10T07:54:44Z</time>
      </trkpt>
      <trkpt lat="43.64521" lon="1.37887">
        <ele>147</ele>
        <time>2023-09-10T07:54:45Z</time>
      </trkpt>
      <trkpt lat="43.64517" lon="1.37884">
        <ele>147</ele>
        <time>2023-09-10T07:54:46Z</time>
      </trkpt>
      <trkpt lat="43.64514" lon="1.37881">
        <ele>147</ele>
        <time>2023-09-10T07:54:47Z</time>
      </trkpt>
      <trkpt lat="43.64511" lon="1.37878">
        <ele>147</ele>
        <time>2023-09-10T07:54:48Z</time>
      </trkpt>
      <trkpt lat="43.64506" lon="1.37875">
        <ele>147</ele>
        <time>2023-09-10T07:54:49Z</time>
      </trkpt>
      <trkpt lat="43.64502" lon="1.37872">
        <ele>147</ele>
        <time>2023-09-10T07:54:50Z</time>
      </trkpt>
      <trkpt lat="43.64498" lon="1.37869">
        <ele>147</ele>
        <time>2023-09-10T07:54:51Z</time>
      </trkpt>
      <trkpt lat="43.6449" lon="1.37864">
        <ele>148</ele>
        <time>2023-09-10T07:54:53Z</time>
      </trkpt>
      <trkpt lat="43.64487" lon="1.37863">
        <ele>148</ele>
        <time>2023-09-10T07:54:54Z</time>
      </trkpt>
      <trkpt lat="43.64484" lon="1.37862">
        <ele>148</ele>
        <time>2023-09-10T07:54:55Z</time>
      </trkpt>
      <trkpt lat="43.6448" lon="1.37863">
        <ele>148</ele>
        <time>2023-09-10T07:54:56Z</time>
      </trkpt>
      <trkpt lat="43.64478" lon="1.37863">
        <ele>148</ele>
        <time>2023-09-10T07:54:57Z</time>
      </trkpt>
      <trkpt lat="43.64478" lon="1.37863">
        <ele>148</ele>
        <time>2023-09-10T07:54:58Z</time>
      </trkpt>
      <trkpt lat="43.64474" lon="1.37866">
        <ele>147</ele>
        <time>2023-09-10T07:54:59Z</time>
      </trkpt>
      <trkpt lat="43.64472" lon="1.37867">
        <ele>147</ele>
        <time>2023-09-10T07:55:00Z</time>
      </trkpt>
      <trkpt lat="43.6447" lon="1.37869">
        <ele>147</ele>
        <time>2023-09-10T07:55:01Z</time>
      </trkpt>
      <trkpt lat="43.64469" lon="1.37871">
        <ele>147</ele>
        <time>2023-09-10T07:55:02Z</time>
      </trkpt>
      <trkpt lat="43.64468" lon="1.37873">
        <ele>147</ele>
        <time>2023-09-10T07:55:03Z</time>
      </trkpt>
      <trkpt lat="43.64466" lon="1.37875">
        <ele>147</ele>
        <time>2023-09-10T07:55:04Z</time>
      </trkpt>
      <trkpt lat="43.64465" lon="1.37878">
        <ele>147</ele>
        <time>2023-09-10T07:55:05Z</time>
      </trkpt>
      <trkpt lat="43.64461" lon="1.37887">
        <ele>147</ele>
        <time>2023-09-10T07:55:07Z</time>
      </trkpt>
      <trkpt lat="43.6446" lon="1.37893">
        <ele>147</ele>
        <time>2023-09-10T07:55:08Z</time>
      </trkpt>
      <trkpt lat="43.64457" lon="1.37907">
        <ele>147</ele>
        <time>2023-09-10T07:55:10Z</time>
      </trkpt>
      <trkpt lat="43.64457" lon="1.37914">
        <ele>147</ele>
        <time>2023-09-10T07:55:11Z</time>
      </trkpt>
      <trkpt lat="43.64457" lon="1.37921">
        <ele>148</ele>
        <time>2023-09-10T07:55:12Z</time>
      </trkpt>
      <trkpt lat="43.64458" lon="1.37927">
        <ele>148</ele>
        <time>2023-09-10T07:55:13Z</time>
      </trkpt>
      <trkpt lat="43.6446" lon="1.37933">
        <ele>148</ele>
        <time>2023-09-10T07:55:14Z</time>
      </trkpt>
      <trkpt lat="43.64463" lon="1.37938">
        <ele>148</ele>
        <time>2023-09-10T07:55:15Z</time>
      </trkpt>
      <trkpt lat="43.64465" lon="1.37943">
        <ele>149</ele>
        <time>2023-09-10T07:55:16Z</time>
      </trkpt>
      <trkpt lat="43.64468" lon="1.37946">
        <ele>149</ele>
        <time>2023-09-10T07:55:17Z</time>
      </trkpt>
      <trkpt lat="43.6447" lon="1.3795">
        <ele>148</ele>
        <time>2023-09-10T07:55:18Z</time>
      </trkpt>
      <trkpt lat="43.64471" lon="1.37952">
        <ele>148</ele>
        <time>2023-09-10T07:55:19Z</time>
      </trkpt>
      <trkpt lat="43.64473" lon="1.37953">
        <ele>148</ele>
        <time>2023-09-10T07:55:21Z</time>
      </trkpt>
      <trkpt lat="43.64473" lon="1.37953">
        <ele>148</ele>
        <time>2023-09-10T07:55:22Z</time>
      </trkpt>
      <trkpt lat="43.64476" lon="1.37953">
        <ele>148</ele>
        <time>2023-09-10T07:55:23Z</time>
      </trkpt>
      <trkpt lat="43.64476" lon="1.37953">
        <ele>148</ele>
        <time>2023-09-10T07:55:24Z</time>
      </trkpt>
      <trkpt lat="43.64479" lon="1.37954">
        <ele>148</ele>
        <time>2023-09-10T07:55:26Z</time>
      </trkpt>
      <trkpt lat="43.64483" lon="1.37957">
        <ele>148</ele>
        <time>2023-09-10T07:55:27Z</time>
      </trkpt>
      <trkpt lat="43.64483" lon="1.37957">
        <ele>148</ele>
        <time>2023-09-10T07:55:28Z</time>
      </trkpt>
      <trkpt lat="43.64485" lon="1.37958">
        <ele>148</ele>
        <time>2023-09-10T07:55:29Z</time>
      </trkpt>
      <trkpt lat="43.64485" lon="1.37958">
        <ele>148</ele>
        <time>2023-09-10T07:55:30Z</time>
      </trkpt>
      <trkpt lat="43.64488" lon="1.37959">
        <ele>148</ele>
        <time>2023-09-10T07:55:31Z</time>
      </trkpt>
      <trkpt lat="43.64488" lon="1.37959">
        <ele>148</ele>
        <time>2023-09-10T07:55:32Z</time>
      </trkpt>
      <trkpt lat="43.64489" lon="1.3796">
        <ele>148</ele>
        <time>2023-09-10T07:55:33Z</time>
      </trkpt>
      <trkpt lat="43.64489" lon="1.3796">
        <ele>148</ele>
        <time>2023-09-10T07:55:34Z</time>
      </trkpt>
      <trkpt lat="43.64489" lon="1.3796">
        <ele>148</ele>
        <time>2023-09-10T07:55:35Z</time>
      </trkpt>
      <trkpt lat="43.64491" lon="1.37961">
        <ele>148</ele>
        <time>2023-09-10T07:55:36Z</time>
      </trkpt>
      <trkpt lat="43.64493" lon="1.37963">
        <ele>148</ele>
        <time>2023-09-10T07:55:37Z</time>
      </trkpt>
      <trkpt lat="43.64493" lon="1.37963">
        <ele>148</ele>
        <time>2023-09-10T07:55:38Z</time>
      </trkpt>
      <trkpt lat="43.64495" lon="1.37964">
        <ele>148</ele>
        <time>2023-09-10T07:55:39Z</time>
      </trkpt>
      <trkpt lat="43.64495" lon="1.37964">
        <ele>148</ele>
        <time>2023-09-10T07:55:40Z</time>
      </trkpt>
      <trkpt lat="43.64497" lon="1.37966">
        <ele>148</ele>
        <time>2023-09-10T07:55:41Z</time>
      </trkpt>
      <trkpt lat="43.64497" lon="1.37966">
        <ele>148</ele>
        <time>2023-09-10T07:55:42Z</time>
      </trkpt>
      <trkpt lat="43.64499" lon="1.37966">
        <ele>148</ele>
        <time>2023-09-10T07:55:43Z</time>
      </trkpt>
      <trkpt lat="43.64501" lon="1.37967">
        <ele>148</ele>
        <time>2023-09-10T07:55:45Z</time>
      </trkpt>
      <trkpt lat="43.64501" lon="1.37967">
        <ele>148</ele>
        <time>2023-09-10T07:55:46Z</time>
      </trkpt>
      <trkpt lat="43.64501" lon="1.37967">
        <ele>148</ele>
        <time>2023-09-10T07:55:47Z</time>
      </trkpt>
      <trkpt lat="43.64503" lon="1.37969">
        <ele>148</ele>
        <time>2023-09-10T07:55:48Z</time>
      </trkpt>
      <trkpt lat="43.64505" lon="1.3797">
        <ele>148</ele>
        <time>2023-09-10T07:55:49Z</time>
      </trkpt>
      <trkpt lat="43.64505" lon="1.3797">
        <ele>149</ele>
        <time>2023-09-10T07:55:50Z</time>
      </trkpt>
      <trkpt lat="43.64507" lon="1.37971">
        <ele>149</ele>
        <time>2023-09-10T07:55:51Z</time>
      </trkpt>
      <trkpt lat="43.64507" lon="1.37971">
        <ele>148</ele>
        <time>2023-09-10T07:55:52Z</time>
      </trkpt>
      <trkpt lat="43.64509" lon="1.37973">
        <ele>148</ele>
        <time>2023-09-10T07:55:53Z</time>
      </trkpt>
      <trkpt lat="43.64509" lon="1.37973">
        <ele>148</ele>
        <time>2023-09-10T07:55:54Z</time>
      </trkpt>
      <trkpt lat="43.64509" lon="1.37973">
        <ele>148</ele>
        <time>2023-09-10T07:55:55Z</time>
      </trkpt>
      <trkpt lat="43.64511" lon="1.37974">
        <ele>148</ele>
        <time>2023-09-10T07:55:56Z</time>
      </trkpt>
      <trkpt lat="43.64511" lon="1.37974">
        <ele>148</ele>
        <time>2023-09-10T07:55:57Z</time>
      </trkpt>
      <trkpt lat="43.64513" lon="1.37975">
        <ele>148</ele>
        <time>2023-09-10T07:55:58Z</time>
      </trkpt>
      <trkpt lat="43.64513" lon="1.37975">
        <ele>148</ele>
        <time>2023-09-10T07:55:59Z</time>
      </trkpt>
      <trkpt lat="43.64515" lon="1.37977">
        <ele>148</ele>
        <time>2023-09-10T07:56:00Z</time>
      </trkpt>
      <trkpt lat="43.64518" lon="1.37978">
        <ele>148</ele>
        <time>2023-09-10T07:56:02Z</time>
      </trkpt>
      <trkpt lat="43.6452" lon="1.37979">
        <ele>148</ele>
        <time>2023-09-10T07:56:04Z</time>
      </trkpt>
      <trkpt lat="43.6452" lon="1.37979">
        <ele>148</ele>
        <time>2023-09-10T07:56:05Z</time>
      </trkpt>
      <trkpt lat="43.64522" lon="1.3798">
        <ele>147</ele>
        <time>2023-09-10T07:56:06Z</time>
      </trkpt>
      <trkpt lat="43.64522" lon="1.3798">
        <ele>147</ele>
        <time>2023-09-10T07:56:07Z</time>
      </trkpt>
      <trkpt lat="43.64522" lon="1.3798">
        <ele>147</ele>
        <time>2023-09-10T07:56:08Z</time>
      </trkpt>
      <trkpt lat="43.64524" lon="1.37982">
        <ele>147</ele>
        <time>2023-09-10T07:56:09Z</time>
      </trkpt>
      <trkpt lat="43.64524" lon="1.37982">
        <ele>147</ele>
        <time>2023-09-10T07:56:10Z</time>
      </trkpt>
      <trkpt lat="43.64524" lon="1.37982">
        <ele>147</ele>
        <time>2023-09-10T07:56:11Z</time>
      </trkpt>
      <trkpt lat="43.64526" lon="1.37983">
        <ele>147</ele>
        <time>2023-09-10T07:56:12Z</time>
      </trkpt>
      <trkpt lat="43.64528" lon="1.37984">
        <ele>147</ele>
        <time>2023-09-10T07:56:13Z</time>
      </trkpt>
      <trkpt lat="43.64528" lon="1.37984">
        <ele>147</ele>
        <time>2023-09-10T07:56:14Z</time>
      </trkpt>
      <trkpt lat="43.6453" lon="1.37985">
        <ele>147</ele>
        <time>2023-09-10T07:56:15Z</time>
      </trkpt>
      <trkpt lat="43.6453" lon="1.37985">
        <ele>147</ele>
        <time>2023-09-10T07:56:16Z</time>
      </trkpt>
      <trkpt lat="43.64533" lon="1.37985">
        <ele>148</ele>
        <time>2023-09-10T07:56:17Z</time>
      </trkpt>
      <trkpt lat="43.64533" lon="1.37985">
        <ele>148</ele>
        <time>2023-09-10T07:56:18Z</time>
      </trkpt>
      <trkpt lat="43.64535" lon="1.37985">
        <ele>148</ele>
        <time>2023-09-10T07:56:19Z</time>
      </trkpt>
      <trkpt lat="43.64535" lon="1.37985">
        <ele>148</ele>
        <time>2023-09-10T07:56:20Z</time>
      </trkpt>
      <trkpt lat="43.64537" lon="1.37985">
        <ele>148</ele>
        <time>2023-09-10T07:56:21Z</time>
      </trkpt>
      <trkpt lat="43.64537" lon="1.37985">
        <ele>148</ele>
        <time>2023-09-10T07:56:23Z</time>
      </trkpt>
      <trkpt lat="43.6454" lon="1.37985">
        <ele>148</ele>
        <time>2023-09-10T07:56:24Z</time>
      </trkpt>
      <trkpt lat="43.64542" lon="1.37985">
        <ele>148</ele>
        <time>2023-09-10T07:56:25Z</time>
      </trkpt>
      <trkpt lat="43.64542" lon="1.37985">
        <ele>148</ele>
        <time>2023-09-10T07:56:26Z</time>
      </trkpt>
      <trkpt lat="43.64542" lon="1.37985">
        <ele>148</ele>
        <time>2023-09-10T07:56:27Z</time>
      </trkpt>
      <trkpt lat="43.64544" lon="1.37984">
        <ele>148</ele>
        <time>2023-09-10T07:56:28Z</time>
      </trkpt>
      <trkpt lat="43.64547" lon="1.37984">
        <ele>148</ele>
        <time>2023-09-10T07:56:29Z</time>
      </trkpt>
      <trkpt lat="43.64547" lon="1.37984">
        <ele>148</ele>
        <time>2023-09-10T07:56:30Z</time>
      </trkpt>
      <trkpt lat="43.64549" lon="1.37983">
        <ele>148</ele>
        <time>2023-09-10T07:56:31Z</time>
      </trkpt>
      <trkpt lat="43.64549" lon="1.37983">
        <ele>148</ele>
        <time>2023-09-10T07:56:32Z</time>
      </trkpt>
      <trkpt lat="43.64551" lon="1.37981">
        <ele>148</ele>
        <time>2023-09-10T07:56:33Z</time>
      </trkpt>
      <trkpt lat="43.64551" lon="1.37981">
        <ele>148</ele>
        <time>2023-09-10T07:56:34Z</time>
      </trkpt>
      <trkpt lat="43.64551" lon="1.37981">
        <ele>148</ele>
        <time>2023-09-10T07:56:35Z</time>
      </trkpt>
      <trkpt lat="43.64553" lon="1.3798">
        <ele>147</ele>
        <time>2023-09-10T07:56:36Z</time>
      </trkpt>
      <trkpt lat="43.64553" lon="1.3798">
        <ele>147</ele>
        <time>2023-09-10T07:56:37Z</time>
      </trkpt>
      <trkpt lat="43.64555" lon="1.37979">
        <ele>147</ele>
        <time>2023-09-10T07:56:38Z</time>
      </trkpt>
      <trkpt lat="43.64557" lon="1.37978">
        <ele>147</ele>
        <time>2023-09-10T07:56:39Z</time>
      </trkpt>
      <trkpt lat="43.64557" lon="1.37978">
        <ele>147</ele>
        <time>2023-09-10T07:56:40Z</time>
      </trkpt>
      <trkpt lat="43.64559" lon="1.37978">
        <ele>147</ele>
        <time>2023-09-10T07:56:42Z</time>
      </trkpt>
      <trkpt lat="43.64559" lon="1.37978">
        <ele>147</ele>
        <time>2023-09-10T07:56:43Z</time>
      </trkpt>
      <trkpt lat="43.64559" lon="1.37978">
        <ele>148</ele>
        <time>2023-09-10T07:56:44Z</time>
      </trkpt>
      <trkpt lat="43.64559" lon="1.37978">
        <ele>149</ele>
        <time>2023-09-10T07:56:45Z</time>
      </trkpt>
      <trkpt lat="43.64559" lon="1.37978">
        <ele>149</ele>
        <time>2023-09-10T07:56:46Z</time>
      </trkpt>
      <trkpt lat="43.64559" lon="1.37978">
        <ele>149</ele>
        <time>2023-09-10T07:56:47Z</time>
      </trkpt>
      <trkpt lat="43.64559" lon="1.37978">
        <ele>149</ele>
        <time>2023-09-10T07:56:48Z</time>
      </trkpt>
      <trkpt lat="43.64559" lon="1.37978">
        <ele>149</ele>
        <time>2023-09-10T07:56:49Z</time>
      </trkpt>
      <trkpt lat="43.64559" lon="1.37978">
        <ele>149</ele>
        <time>2023-09-10T07:56:50Z</time>
      </trkpt>
      <trkpt lat="43.64559" lon="1.37978">
        <ele>149</ele>
        <time>2023-09-10T07:56:51Z</time>
      </trkpt>
      <trkpt lat="43.64559" lon="1.37978">
        <ele>149</ele>
        <time>2023-09-10T07:56:52Z</time>
      </trkpt>
      <trkpt lat="43.64559" lon="1.37978">
        <ele>149</ele>
        <time>2023-09-10T07:56:53Z</time>
      </trkpt>
      <trkpt lat="43.64559" lon="1.37978">
        <ele>149</ele>
        <time>2023-09-10T07:56:54Z</time>
      </trkpt>
      <trkpt lat="43.64559" lon="1.37978">
        <ele>149</ele>
        <time>2023-09-10T07:56:55Z</time>
      </trkpt>
      <trkpt lat="43.64559" lon="1.37978">
        <ele>149</ele>
        <time>2023-09-10T07:56:56Z</time>
      </trkpt>
      <trkpt lat="43.6456" lon="1.37974">
        <ele>149</ele>
        <time>2023-09-10T07:56:57Z</time>
      </trkpt>
      <trkpt lat="43.6456" lon="1.37974">
        <ele>149</ele>
        <time>2023-09-10T07:56:58Z</time>
      </trkpt>
      <trkpt lat="43.6456" lon="1.37974">
        <ele>149</ele>
        <time>2023-09-10T07:56:59Z</time>
      </trkpt>
      <trkpt lat="43.64561" lon="1.37972">
        <ele>149</ele>
        <time>2023-09-10T07:57:01Z</time>
      </trkpt>
      <trkpt lat="43.64562" lon="1.37969">
        <ele>148</ele>
        <time>2023-09-10T07:57:02Z</time>
      </trkpt>
      <trkpt lat="43.64562" lon="1.37969">
        <ele>148</ele>
        <time>2023-09-10T07:57:03Z</time>
      </trkpt>
      <trkpt lat="43.64562" lon="1.37969">
        <ele>148</ele>
        <time>2023-09-10T07:57:04Z</time>
      </trkpt>
      <trkpt lat="43.64563" lon="1.37966">
        <ele>148</ele>
        <time>2023-09-10T07:57:05Z</time>
      </trkpt>
      <trkpt lat="43.64565" lon="1.37964">
        <ele>148</ele>
        <time>2023-09-10T07:57:06Z</time>
      </trkpt>
      <trkpt lat="43.64565" lon="1.37964">
        <ele>148</ele>
        <time>2023-09-10T07:57:07Z</time>
      </trkpt>
      <trkpt lat="43.64566" lon="1.37961">
        <ele>148</ele>
        <time>2023-09-10T07:57:08Z</time>
      </trkpt>
      <trkpt lat="43.64566" lon="1.37961">
        <ele>148</ele>
        <time>2023-09-10T07:57:09Z</time>
      </trkpt>
      <trkpt lat="43.64567" lon="1.37957">
        <ele>148</ele>
        <time>2023-09-10T07:57:10Z</time>
      </trkpt>
      <trkpt lat="43.64567" lon="1.37957">
        <ele>148</ele>
        <time>2023-09-10T07:57:11Z</time>
      </trkpt>
      <trkpt lat="43.64567" lon="1.37954">
        <ele>148</ele>
        <time>2023-09-10T07:57:12Z</time>
      </trkpt>
      <trkpt lat="43.64567" lon="1.37954">
        <ele>148</ele>
        <time>2023-09-10T07:57:13Z</time>
      </trkpt>
      <trkpt lat="43.64567" lon="1.37954">
        <ele>148</ele>
        <time>2023-09-10T07:57:14Z</time>
      </trkpt>
      <trkpt lat="43.64568" lon="1.37951">
        <ele>147</ele>
        <time>2023-09-10T07:57:15Z</time>
      </trkpt>
      <trkpt lat="43.64568" lon="1.37951">
        <ele>147</ele>
        <time>2023-09-10T07:57:16Z</time>
      </trkpt>
      <trkpt lat="43.64568" lon="1.37948">
        <ele>147</ele>
        <time>2023-09-10T07:57:17Z</time>
      </trkpt>
      <trkpt lat="43.64568" lon="1.37945">
        <ele>147</ele>
        <time>2023-09-10T07:57:18Z</time>
      </trkpt>
      <trkpt lat="43.64568" lon="1.37943">
        <ele>147</ele>
        <time>2023-09-10T07:57:20Z</time>
      </trkpt>
      <trkpt lat="43.64568" lon="1.37943">
        <ele>147</ele>
        <time>2023-09-10T07:57:21Z</time>
      </trkpt>
      <trkpt lat="43.64568" lon="1.37943">
        <ele>147</ele>
        <time>2023-09-10T07:57:22Z</time>
      </trkpt>
      <trkpt lat="43.64568" lon="1.3794">
        <ele>147</ele>
        <time>2023-09-10T07:57:23Z</time>
      </trkpt>
      <trkpt lat="43.64568" lon="1.37937">
        <ele>147</ele>
        <time>2023-09-10T07:57:24Z</time>
      </trkpt>
      <trkpt lat="43.64568" lon="1.37937">
        <ele>147</ele>
        <time>2023-09-10T07:57:25Z</time>
      </trkpt>
      <trkpt lat="43.64567" lon="1.37934">
        <ele>147</ele>
        <time>2023-09-10T07:57:26Z</time>
      </trkpt>
      <trkpt lat="43.64567" lon="1.37934">
        <ele>147</ele>
        <time>2023-09-10T07:57:27Z</time>
      </trkpt>
      <trkpt lat="43.64567" lon="1.37934">
        <ele>147</ele>
        <time>2023-09-10T07:57:28Z</time>
      </trkpt>
      <trkpt lat="43.64566" lon="1.37931">
        <ele>147</ele>
        <time>2023-09-10T07:57:29Z</time>
      </trkpt>
      <trkpt lat="43.64566" lon="1.37928">
        <ele>147</ele>
        <time>2023-09-10T07:57:30Z</time>
      </trkpt>
      <trkpt lat="43.64566" lon="1.37928">
        <ele>147</ele>
        <time>2023-09-10T07:57:31Z</time>
      </trkpt>
      <trkpt lat="43.64566" lon="1.37928">
        <ele>147</ele>
        <time>2023-09-10T07:57:32Z</time>
      </trkpt>
      <trkpt lat="43.64565" lon="1.37926">
        <ele>147</ele>
        <time>2023-09-10T07:57:33Z</time>
      </trkpt>
      <trkpt lat="43.64564" lon="1.37923">
        <ele>148</ele>
        <time>2023-09-10T07:57:34Z</time>
      </trkpt>
      <trkpt lat="43.64564" lon="1.37923">
        <ele>148</ele>
        <time>2023-09-10T07:57:35Z</time>
      </trkpt>
      <trkpt lat="43.64564" lon="1.37923">
        <ele>148</ele>
        <time>2023-09-10T07:57:36Z</time>
      </trkpt>
      <trkpt lat="43.64564" lon="1.37923">
        <ele>148</ele>
        <time>2023-09-10T07:57:37Z</time>
      </trkpt>
      <trkpt lat="43.64562" lon="1.3792">
        <ele>148</ele>
        <time>2023-09-10T07:57:39Z</time>
      </trkpt>
      <trkpt lat="43.64562" lon="1.3792">
        <ele>148</ele>
        <time>2023-09-10T07:57:40Z</time>
      </trkpt>
      <trkpt lat="43.6456" lon="1.37917">
        <ele>148</ele>
        <time>2023-09-10T07:57:41Z</time>
      </trkpt>
      <trkpt lat="43.6456" lon="1.37917">
        <ele>148</ele>
        <time>2023-09-10T07:57:42Z</time>
      </trkpt>
      <trkpt lat="43.64558" lon="1.37915">
        <ele>148</ele>
        <time>2023-09-10T07:57:43Z</time>
      </trkpt>
      <trkpt lat="43.64558" lon="1.37915">
        <ele>148</ele>
        <time>2023-09-10T07:57:44Z</time>
      </trkpt>
      <trkpt lat="43.64556" lon="1.37912">
        <ele>148</ele>
        <time>2023-09-10T07:57:45Z</time>
      </trkpt>
      <trkpt lat="43.64556" lon="1.37912">
        <ele>148</ele>
        <time>2023-09-10T07:57:46Z</time>
      </trkpt>
      <trkpt lat="43.64556" lon="1.37912">
        <ele>148</ele>
        <time>2023-09-10T07:57:47Z</time>
      </trkpt>
      <trkpt lat="43.64554" lon="1.3791">
        <ele>148</ele>
        <time>2023-09-10T07:57:48Z</time>
      </trkpt>
      <trkpt lat="43.64552" lon="1.37908">
        <ele>148</ele>
        <time>2023-09-10T07:57:49Z</time>
      </trkpt>
      <trkpt lat="43.64552" lon="1.37908">
        <ele>148</ele>
        <time>2023-09-10T07:57:50Z</time>
      </trkpt>
      <trkpt lat="43.6455" lon="1.37906">
        <ele>147</ele>
        <time>2023-09-10T07:57:52Z</time>
      </trkpt>
      <trkpt lat="43.64548" lon="1.37904">
        <ele>148</ele>
        <time>2023-09-10T07:57:53Z</time>
      </trkpt>
      <trkpt lat="43.64548" lon="1.37904">
        <ele>148</ele>
        <time>2023-09-10T07:57:54Z</time>
      </trkpt>
      <trkpt lat="43.64546" lon="1.37903">
        <ele>148</ele>
        <time>2023-09-10T07:57:55Z</time>
      </trkpt>
      <trkpt lat="43.64543" lon="1.37901">
        <ele>147</ele>
        <time>2023-09-10T07:57:56Z</time>
      </trkpt>
      <trkpt lat="43.64535" lon="1.37896">
        <ele>148</ele>
        <time>2023-09-10T07:57:58Z</time>
      </trkpt>
      <trkpt lat="43.6453" lon="1.37893">
        <ele>148</ele>
        <time>2023-09-10T07:57:59Z</time>
      </trkpt>
      <trkpt lat="43.6453" lon="1.37893">
        <ele>147</ele>
        <time>2023-09-10T07:58:00Z</time>
      </trkpt>
      <trkpt lat="43.64522" lon="1.37887">
        <ele>147</ele>
        <time>2023-09-10T07:58:01Z</time>
      </trkpt>
      <trkpt lat="43.64518" lon="1.37884">
        <ele>147</ele>
        <time>2023-09-10T07:58:02Z</time>
      </trkpt>
      <trkpt lat="43.64513" lon="1.3788">
        <ele>147</ele>
        <time>2023-09-10T07:58:03Z</time>
      </trkpt>
      <trkpt lat="43.64509" lon="1.37877">
        <ele>147</ele>
        <time>2023-09-10T07:58:04Z</time>
      </trkpt>
      <trkpt lat="43.64501" lon="1.37871">
        <ele>148</ele>
        <time>2023-09-10T07:58:06Z</time>
      </trkpt>
      <trkpt lat="43.64501" lon="1.37871">
        <ele>148</ele>
        <time>2023-09-10T07:58:07Z</time>
      </trkpt>
      <trkpt lat="43.64493" lon="1.37866">
        <ele>148</ele>
        <time>2023-09-10T07:58:08Z</time>
      </trkpt>
      <trkpt lat="43.64489" lon="1.37864">
        <ele>148</ele>
        <time>2023-09-10T07:58:09Z</time>
      </trkpt>
      <trkpt lat="43.64485" lon="1.37863">
        <ele>148</ele>
        <time>2023-09-10T07:58:10Z</time>
      </trkpt>
      <trkpt lat="43.64481" lon="1.37863">
        <ele>148</ele>
        <time>2023-09-10T07:58:11Z</time>
      </trkpt>
      <trkpt lat="43.64477" lon="1.37863">
        <ele>148</ele>
        <time>2023-09-10T07:58:12Z</time>
      </trkpt>
      <trkpt lat="43.64473" lon="1.37865">
        <ele>148</ele>
        <time>2023-09-10T07:58:13Z</time>
      </trkpt>
      <trkpt lat="43.64469" lon="1.37871">
        <ele>148</ele>
        <time>2023-09-10T07:58:14Z</time>
      </trkpt>
      <trkpt lat="43.64465" lon="1.37877">
        <ele>148</ele>
        <time>2023-09-10T07:58:15Z</time>
      </trkpt>
      <trkpt lat="43.64462" lon="1.37883">
        <ele>148</ele>
        <time>2023-09-10T07:58:17Z</time>
      </trkpt>
      <trkpt lat="43.64458" lon="1.37896">
        <ele>148</ele>
        <time>2023-09-10T07:58:18Z</time>
      </trkpt>
      <trkpt lat="43.64456" lon="1.37902">
        <ele>149</ele>
        <time>2023-09-10T07:58:19Z</time>
      </trkpt>
      <trkpt lat="43.64456" lon="1.37909">
        <ele>149</ele>
        <time>2023-09-10T07:58:20Z</time>
      </trkpt>
      <trkpt lat="43.64456" lon="1.37915">
        <ele>149</ele>
        <time>2023-09-10T07:58:21Z</time>
      </trkpt>
      <trkpt lat="43.64457" lon="1.37922">
        <ele>149</ele>
        <time>2023-09-10T07:58:22Z</time>
      </trkpt>
      <trkpt lat="43.64458" lon="1.37928">
        <ele>148</ele>
        <time>2023-09-10T07:58:23Z</time>
      </trkpt>
      <trkpt lat="43.6446" lon="1.37933">
        <ele>149</ele>
        <time>2023-09-10T07:58:24Z</time>
      </trkpt>
      <trkpt lat="43.64462" lon="1.37939">
        <ele>149</ele>
        <time>2023-09-10T07:58:25Z</time>
      </trkpt>
      <trkpt lat="43.64467" lon="1.37947">
        <ele>149</ele>
        <time>2023-09-10T07:58:27Z</time>
      </trkpt>
      <trkpt lat="43.64467" lon="1.37947">
        <ele>148</ele>
        <time>2023-09-10T07:58:28Z</time>
      </trkpt>
      <trkpt lat="43.64475" lon="1.37953">
        <ele>148</ele>
        <time>2023-09-10T07:58:29Z</time>
      </trkpt>
      <trkpt lat="43.64479" lon="1.37955">
        <ele>148</ele>
        <time>2023-09-10T07:58:30Z</time>
      </trkpt>
      <trkpt lat="43.64483" lon="1.37957">
        <ele>148</ele>
        <time>2023-09-10T07:58:31Z</time>
      </trkpt>
      <trkpt lat="43.64483" lon="1.37957">
        <ele>148</ele>
        <time>2023-09-10T07:58:32Z</time>
      </trkpt>
      <trkpt lat="43.64491" lon="1.37962">
        <ele>148</ele>
        <time>2023-09-10T07:58:33Z</time>
      </trkpt>
      <trkpt lat="43.64495" lon="1.37964">
        <ele>148</ele>
        <time>2023-09-10T07:58:34Z</time>
      </trkpt>
      <trkpt lat="43.64503" lon="1.37969">
        <ele>148</ele>
        <time>2023-09-10T07:58:36Z</time>
      </trkpt>
      <trkpt lat="43.64507" lon="1.37972">
        <ele>148</ele>
        <time>2023-09-10T07:58:37Z</time>
      </trkpt>
      <trkpt lat="43.64515" lon="1.37976">
        <ele>148</ele>
        <time>2023-09-10T07:58:39Z</time>
      </trkpt>
      <trkpt lat="43.64518" lon="1.37979">
        <ele>148</ele>
        <time>2023-09-10T07:58:40Z</time>
      </trkpt>
      <trkpt lat="43.64522" lon="1.37981">
        <ele>148</ele>
        <time>2023-09-10T07:58:41Z</time>
      </trkpt>
      <trkpt lat="43.64526" lon="1.37983">
        <ele>148</ele>
        <time>2023-09-10T07:58:42Z</time>
      </trkpt>
      <trkpt lat="43.64526" lon="1.37983">
        <ele>148</ele>
        <time>2023-09-10T07:58:43Z</time>
      </trkpt>
      <trkpt lat="43.64534" lon="1.37986">
        <ele>148</ele>
        <time>2023-09-10T07:58:44Z</time>
      </trkpt>
      <trkpt lat="43.64538" lon="1.37986">
        <ele>148</ele>
        <time>2023-09-10T07:58:45Z</time>
      </trkpt>
      <trkpt lat="43.64542" lon="1.37986">
        <ele>148</ele>
        <time>2023-09-10T07:58:46Z</time>
      </trkpt>
      <trkpt lat="43.64547" lon="1.37986">
        <ele>148</ele>
        <time>2023-09-10T07:58:47Z</time>
      </trkpt>
      <trkpt lat="43.64551" lon="1.37984">
        <ele>148</ele>
        <time>2023-09-10T07:58:48Z</time>
      </trkpt>
      <trkpt lat="43.64555" lon="1.37982">
        <ele>148</ele>
        <time>2023-09-10T07:58:49Z</time>
      </trkpt>
      <trkpt lat="43.6456" lon="1.37974">
        <ele>148</ele>
        <time>2023-09-10T07:58:51Z</time>
      </trkpt>
      <trkpt lat="43.64564" lon="1.37969">
        <ele>148</ele>
        <time>2023-09-10T07:58:52Z</time>
      </trkpt>
      <trkpt lat="43.64566" lon="1.37964">
        <ele>148</ele>
        <time>2023-09-10T07:58:53Z</time>
      </trkpt>
      <trkpt lat="43.6457" lon="1.37955">
        <ele>147</ele>
        <time>2023-09-10T07:58:55Z</time>
      </trkpt>
      <trkpt lat="43.64571" lon="1.37951">
        <ele>147</ele>
        <time>2023-09-10T07:58:56Z</time>
      </trkpt>
      <trkpt lat="43.64571" lon="1.37951">
        <ele>147</ele>
        <time>2023-09-10T07:58:57Z</time>
      </trkpt>
      <trkpt lat="43.6457" lon="1.37939">
        <ele>147</ele>
        <time>2023-09-10T07:58:58Z</time>
      </trkpt>
      <trkpt lat="43.6457" lon="1.37934">
        <ele>147</ele>
        <time>2023-09-10T07:58:59Z</time>
      </trkpt>
      <trkpt lat="43.64568" lon="1.37928">
        <ele>147</ele>
        <time>2023-09-10T07:59:00Z</time>
      </trkpt>
      <trkpt lat="43.64566" lon="1.37923">
        <ele>147</ele>
        <time>2023-09-10T07:59:01Z</time>
      </trkpt>
      <trkpt lat="43.6456" lon="1.37914">
        <ele>148</ele>
        <time>2023-09-10T07:59:03Z</time>
      </trkpt>
      <trkpt lat="43.6456" lon="1.37914">
        <ele>148</ele>
        <time>2023-09-10T07:59:04Z</time>
      </trkpt>
      <trkpt lat="43.64553" lon="1.37907">
        <ele>148</ele>
        <time>2023-09-10T07:59:05Z</time>
      </trkpt>
      <trkpt lat="43.64553" lon="1.37907">
        <ele>148</ele>
        <time>2023-09-10T07:59:06Z</time>
      </trkpt>
      <trkpt lat="43.64548" lon="1.37903">
        <ele>147</ele>
        <time>2023-09-10T07:59:07Z</time>
      </trkpt>
      <trkpt lat="43.64548" lon="1.37903">
        <ele>147</ele>
        <time>2023-09-10T07:59:08Z</time>
      </trkpt>
      <trkpt lat="43.64546" lon="1.37902">
        <ele>147</ele>
        <time>2023-09-10T07:59:09Z</time>
      </trkpt>
      <trkpt lat="43.64544" lon="1.379">
        <ele>148</ele>
        <time>2023-09-10T07:59:10Z</time>
      </trkpt>
      <trkpt lat="43.64544" lon="1.379">
        <ele>148</ele>
        <time>2023-09-10T07:59:11Z</time>
      </trkpt>
    </trkseg>
  </trk>
</gpx>